Time,TemperatureF,DewpointF,PressureIn,WindDirection,WindDirectionDegrees,WindSpeedMPH,WindSpeedGustMPH,Humidity,HourlyPrecipIn,Conditions,Clouds,dailyrainin,SoftwareType,DateUTC
2013-01-18 00:00:00,32.6,30.5,30.26,NE,45,0.0,0.0,92,0.00,,SKC,0.00,VWS V14.01,2013-01-17 10:00:00,
2013-01-18 00:01:00,32.6,30.5,30.27,NE,45,0.0,0.0,92,0.00,,SKC,0.00,VWS V14.01,2013-01-17 10:01:00,
2013-01-18 00:02:00,32.6,30.5,30.26,NE,45,0.0,0.0,92,0.00,,SKC,0.00,VWS V14.01,2013-01-17 10:02:00,
2013-01-18 00:03:00,32.6,30.8,30.27,NE,45,0.0,0.0,93,0.00,,SKC,0.00,VWS V14.01,2013-01-17 10:03:00,
2013-01-18 00:04:00,32.6,30.8,30.27,NE,45,0.0,0.0,93,0.00,,SKC,0.00,VWS V14.01,2013-01-17 10:04:00,
2013-01-18 00:05:00,32.7,30.9,30.26,NE,45,0.0,0.0,93,0.00,,SKC,0.00,VWS V14.01,2013-01-17 10:05:00,
2013-01-18 00:06:00,32.7,30.9,30.26,NE,45,0.0,1.0,93,0.00,,SKC,0.00,VWS V14.01,2013-01-17 10:06:00,
2013-01-18 00:07:00,32.6,30.8,30.26,NE,45,0.0,0.0,93,0.00,,SKC,0.00,VWS V14.01,2013-01-17 10:07:00,
2013-01-18 00:08:00,32.5,30.7,30.27,NE,45,0.0,0.0,93,0.00,,SKC,0.00,VWS V14.01,2013-01-17 10:08:00,
2013-01-18 00:09:00,32.5,30.7,30.27,NE,45,0.0,0.0,93,0.00,,SKC,0.00,VWS V14.01,2013-01-17 10:09:00,
2013-01-18 00:10:00,32.5,30.7,30.27,NE,45,0.0,0.0,93,0.00,,SKC,0.00,VWS V14.01,2013-01-17 10:10:00,
2013-01-18 00:11:00,32.5,30.7,30.27,NE,45,0.0,0.0,93,0.00,,SKC,0.00,VWS V14.01,2013-01-17 10:11:00,
2013-01-18 00:12:00,32.5,30.7,30.27,NE,45,0.0,0.0,93,0.00,,SKC,0.00,VWS V14.01,2013-01-17 10:12:00,
2013-01-18 00:13:00,32.5,30.7,30.27,NE,45,0.0,0.0,93,0.00,,SKC,0.00,VWS V14.01,2013-01-17 10:13:00,
2013-01-18 00:14:00,32.5,30.7,30.27,NE,45,0.0,0.0,93,0.00,,SKC,0.00,VWS V14.01,2013-01-17 10:14:00,
2013-01-18 00:15:00,32.5,30.7,30.26,NE,45,0.0,1.0,93,0.00,,SKC,0.00,VWS V14.01,2013-01-17 10:15:00,
2013-01-18 00:16:00,32.5,30.7,30.26,NE,45,0.0,0.0,93,0.00,,SKC,0.00,VWS V14.01,2013-01-17 10:16:00,
2013-01-18 00:17:00,32.5,30.7,30.26,NE,45,0.0,0.0,93,0.00,,SKC,0.00,VWS V14.01,2013-01-17 10:17:00,
2013-01-18 00:18:00,32.5,30.7,30.26,NE,45,0.0,0.0,93,0.00,,SKC,0.00,VWS V14.01,2013-01-17 10:18:00,
2013-01-18 00:19:00,32.5,30.7,30.26,NE,45,0.0,0.0,93,0.00,,SKC,0.00,VWS V14.01,2013-01-17 10:19:00,
2013-01-18 00:20:00,32.4,30.6,30.26,NE,45,0.0,0.0,93,0.00,,SKC,0.00,VWS V14.01,2013-01-17 10:20:00,
2013-01-18 00:21:00,32.5,30.7,30.26,NE,45,0.0,0.0,93,0.00,,SKC,0.00,VWS V14.01,2013-01-17 10:21:00,
2013-01-18 00:22:00,32.5,30.7,30.26,NE,45,0.0,0.0,93,0.00,,SKC,0.00,VWS V14.01,2013-01-17 10:22:00,
2013-01-18 00:23:00,32.5,30.7,30.26,NE,45,0.0,0.0,93,0.00,,SKC,0.00,VWS V14.01,2013-01-17 10:23:00,
2013-01-18 00:24:00,32.5,30.7,30.26,NE,45,0.0,0.0,93,0.00,,SKC,0.00,VWS V14.01,2013-01-17 10:24:00,
2013-01-18 00:25:00,32.4,30.6,30.26,NE,45,0.0,0.0,93,0.00,,SKC,0.00,VWS V14.01,2013-01-17 10:25:00,
2013-01-18 00:26:00,32.4,30.6,30.26,NE,45,0.0,0.0,93,0.00,,SKC,0.00,VWS V14.01,2013-01-17 10:26:00,
2013-01-18 00:27:00,32.4,30.6,30.26,NE,45,0.0,1.0,93,0.00,,SKC,0.00,VWS V14.01,2013-01-17 10:27:00,
2013-01-18 00:28:00,32.3,30.5,30.26,NE,45,0.0,0.0,93,0.00,,SKC,0.00,VWS V14.01,2013-01-17 10:28:00,
2013-01-18 00:29:00,32.3,30.5,30.26,NE,45,0.0,0.0,93,0.00,,SKC,0.00,VWS V14.01,2013-01-17 10:29:00,
2013-01-18 00:30:00,32.3,30.5,30.26,NE,45,0.0,0.0,93,0.00,,SKC,0.00,VWS V14.01,2013-01-17 10:30:00,
2013-01-18 00:32:00,32.3,30.5,30.26,NE,45,0.0,0.0,93,0.00,,SKC,0.00,VWS V14.01,2013-01-17 10:32:00,
2013-01-18 00:33:00,32.4,30.6,30.26,NE,45,0.0,0.0,93,0.00,,SKC,0.00,VWS V14.01,2013-01-17 10:33:00,
2013-01-18 00:34:00,32.4,30.6,30.26,NE,45,0.0,0.0,93,0.00,,SKC,0.00,VWS V14.01,2013-01-17 10:34:00,
2013-01-18 00:35:00,32.4,30.6,30.26,NE,45,0.0,0.0,93,0.00,,SKC,0.00,VWS V14.01,2013-01-17 10:35:00,
2013-01-18 00:36:00,32.3,30.5,30.26,NE,45,0.0,0.0,93,0.00,,SKC,0.00,VWS V14.01,2013-01-17 10:36:00,
2013-01-18 00:37:00,32.3,30.5,30.26,NE,45,0.0,0.0,93,0.00,,SKC,0.00,VWS V14.01,2013-01-17 10:37:00,
2013-01-18 00:38:00,32.1,30.3,30.26,NE,45,0.0,0.0,93,0.00,,SKC,0.00,VWS V14.01,2013-01-17 10:38:00,
2013-01-18 00:39:00,32.1,30.3,30.26,NE,45,0.0,0.0,93,0.00,,SKC,0.00,VWS V14.01,2013-01-17 10:39:00,
2013-01-18 00:40:00,32.1,30.3,30.26,NE,45,0.0,0.0,93,0.00,,SKC,0.00,VWS V14.01,2013-01-17 10:40:00,
2013-01-18 00:41:00,32.0,30.2,30.26,NE,45,0.0,0.0,93,0.00,,SKC,0.00,VWS V14.01,2013-01-17 10:41:00,
2013-01-18 00:42:00,32.0,30.2,30.26,NE,45,0.0,0.0,93,0.00,,SKC,0.00,VWS V14.01,2013-01-17 10:42:00,
2013-01-18 00:43:00,31.9,30.1,30.26,NE,45,0.0,0.0,93,0.00,,SKC,0.00,VWS V14.01,2013-01-17 10:43:00,
2013-01-18 00:44:00,31.9,30.1,30.26,NE,45,0.0,0.0,93,0.00,,SKC,0.00,VWS V14.01,2013-01-17 10:44:00,
2013-01-18 00:45:00,31.9,30.1,30.26,NE,45,0.0,0.0,93,0.00,,SKC,0.00,VWS V14.01,2013-01-17 10:45:00,
2013-01-18 00:46:00,31.9,30.1,30.26,NE,45,0.0,0.0,93,0.00,,SKC,0.00,VWS V14.01,2013-01-17 10:46:00,
2013-01-18 00:47:00,31.9,30.1,30.26,NE,45,0.0,0.0,93,0.00,,SKC,0.00,VWS V14.01,2013-01-17 10:47:00,
2013-01-18 00:48:00,31.9,30.1,30.26,NE,45,0.0,0.0,93,0.00,,SKC,0.00,VWS V14.01,2013-01-17 10:48:00,
2013-01-18 00:49:00,31.9,30.1,30.26,NE,45,0.0,0.0,93,0.00,,SKC,0.00,VWS V14.01,2013-01-17 10:49:00,
2013-01-18 00:50:00,31.9,30.1,30.26,NE,45,0.0,0.0,93,0.00,,SKC,0.00,VWS V14.01,2013-01-17 10:50:00,
2013-01-18 00:51:00,31.8,30.0,30.26,NE,45,0.0,0.0,93,0.00,,SKC,0.00,VWS V14.01,2013-01-17 10:51:00,
2013-01-18 00:52:00,31.9,30.1,30.26,NE,45,0.0,0.0,93,0.00,,SKC,0.00,VWS V14.01,2013-01-17 10:52:00,
2013-01-18 00:53:00,32.0,30.5,30.26,NE,45,0.0,0.0,94,0.00,,SKC,0.00,VWS V14.01,2013-01-17 10:53:00,
2013-01-18 00:54:00,32.0,30.2,30.26,NE,45,0.0,0.0,93,0.00,,SKC,0.00,VWS V14.01,2013-01-17 10:54:00,
2013-01-18 00:55:00,32.1,30.3,30.26,NE,45,0.0,0.0,93,0.00,,SKC,0.00,VWS V14.01,2013-01-17 10:55:00,
2013-01-18 00:57:00,32.0,30.2,30.26,NE,45,0.0,0.0,93,0.00,,SKC,0.00,VWS V14.01,2013-01-17 10:57:00,
2013-01-18 00:58:00,31.9,30.1,30.25,NE,45,0.0,0.0,93,0.00,,SKC,0.00,VWS V14.01,2013-01-17 10:58:00,
2013-01-18 00:59:00,31.9,30.1,30.25,NE,45,0.0,0.0,93,0.00,,SKC,0.00,VWS V14.01,2013-01-17 10:59:00,
2013-01-18 01:00:00,31.9,30.1,30.25,NE,45,0.0,0.0,93,0.00,,SKC,0.00,VWS V14.01,2013-01-17 11:00:00,
2013-01-18 01:01:00,31.9,30.1,30.25,NE,45,0.0,0.0,93,0.00,,SKC,0.00,VWS V14.01,2013-01-17 11:01:00,
2013-01-18 01:02:00,31.8,30.0,30.25,NE,45,0.0,0.0,93,0.00,,SKC,0.00,VWS V14.01,2013-01-17 11:02:00,
2013-01-18 01:03:00,31.8,30.0,30.25,NE,45,0.0,0.0,93,0.00,,SKC,0.00,VWS V14.01,2013-01-17 11:03:00,
2013-01-18 01:04:00,31.8,30.0,30.25,NE,45,0.0,0.0,93,0.00,,SKC,0.00,VWS V14.01,2013-01-17 11:04:00,
2013-01-18 01:05:00,31.8,30.0,30.25,NE,45,0.0,0.0,93,0.00,,SKC,0.00,VWS V14.01,2013-01-17 11:05:00,
2013-01-18 01:06:00,31.7,29.9,30.26,NE,45,0.0,0.0,93,0.00,,SKC,0.00,VWS V14.01,2013-01-17 11:06:00,
2013-01-18 01:07:00,31.7,29.9,30.25,NE,45,0.0,0.0,93,0.00,,SKC,0.00,VWS V14.01,2013-01-17 11:07:00,
2013-01-18 01:08:00,31.7,29.9,30.25,NE,45,0.0,0.0,93,0.00,,SKC,0.00,VWS V14.01,2013-01-17 11:08:00,
2013-01-18 01:09:00,31.7,29.9,30.25,NE,45,0.0,0.0,93,0.00,,SKC,0.00,VWS V14.01,2013-01-17 11:09:00,
2013-01-18 01:10:00,31.7,29.9,30.26,NE,45,0.0,0.0,93,0.00,,SKC,0.00,VWS V14.01,2013-01-17 11:10:00,
2013-01-18 01:11:00,31.7,29.9,30.25,NE,45,0.0,0.0,93,0.00,,SKC,0.00,VWS V14.01,2013-01-17 11:11:00,
2013-01-18 01:12:00,31.6,29.8,30.25,NE,45,0.0,0.0,93,0.00,,SKC,0.00,VWS V14.01,2013-01-17 11:12:00,
2013-01-18 01:13:00,31.6,29.8,30.25,NE,45,0.0,0.0,93,0.00,,SKC,0.00,VWS V14.01,2013-01-17 11:13:00,
2013-01-18 01:14:00,31.6,29.8,30.25,NE,45,0.0,0.0,93,0.00,,SKC,0.00,VWS V14.01,2013-01-17 11:14:00,
2013-01-18 01:15:00,31.6,29.8,30.25,NE,45,0.0,0.0,93,0.00,,SKC,0.00,VWS V14.01,2013-01-17 11:15:00,
2013-01-18 01:16:00,31.7,29.9,30.25,NE,45,0.0,0.0,93,0.00,,SKC,0.00,VWS V14.01,2013-01-17 11:16:00,
2013-01-18 01:17:00,31.7,29.9,30.25,NE,45,0.0,0.0,93,0.00,,SKC,0.00,VWS V14.01,2013-01-17 11:17:00,
2013-01-18 01:18:00,31.7,29.9,30.25,NE,45,0.0,0.0,93,0.00,,SKC,0.00,VWS V14.01,2013-01-17 11:18:00,
2013-01-18 01:19:00,31.7,29.9,30.25,NE,45,0.0,0.0,93,0.00,,SKC,0.00,VWS V14.01,2013-01-17 11:19:00,
2013-01-18 01:20:00,31.6,29.8,30.25,NE,45,0.0,0.0,93,0.00,,SKC,0.00,VWS V14.01,2013-01-17 11:20:00,
2013-01-18 01:21:00,31.6,29.8,30.25,NE,45,0.0,0.0,93,0.00,,SKC,0.00,VWS V14.01,2013-01-17 11:21:00,
2013-01-18 01:22:00,31.6,29.8,30.25,NE,45,0.0,0.0,93,0.00,,SKC,0.00,VWS V14.01,2013-01-17 11:22:00,
2013-01-18 01:23:00,31.5,29.7,30.25,NE,45,0.0,0.0,93,0.00,,SKC,0.00,VWS V14.01,2013-01-17 11:23:00,
2013-01-18 01:24:00,31.5,29.7,30.25,NE,45,0.0,0.0,93,0.00,,SKC,0.00,VWS V14.01,2013-01-17 11:24:00,
2013-01-18 01:25:00,31.5,29.7,30.25,NE,45,0.0,0.0,93,0.00,,SKC,0.00,VWS V14.01,2013-01-17 11:25:00,
2013-01-18 01:26:00,31.5,29.7,30.25,NE,45,0.0,0.0,93,0.00,,SKC,0.00,VWS V14.01,2013-01-17 11:26:00,
2013-01-18 01:27:00,31.6,29.8,30.25,NE,45,0.0,0.0,93,0.00,,SKC,0.00,VWS V14.01,2013-01-17 11:27:00,
2013-01-18 01:28:00,31.6,29.8,30.25,NE,45,0.0,0.0,93,0.00,,SKC,0.00,VWS V14.01,2013-01-17 11:28:00,
2013-01-18 01:29:00,31.6,29.8,30.25,NE,45,0.0,0.0,93,0.00,,SKC,0.00,VWS V14.01,2013-01-17 11:29:00,
2013-01-18 01:30:00,31.6,29.8,30.25,NE,45,0.0,0.0,93,0.00,,SKC,0.00,VWS V14.01,2013-01-17 11:30:00,
2013-01-18 01:31:00,31.6,29.8,30.25,NE,45,0.0,0.0,93,0.00,,SKC,0.00,VWS V14.01,2013-01-17 11:31:00,
2013-01-18 01:32:00,31.6,29.8,30.25,NE,45,0.0,0.0,93,0.00,,SKC,0.00,VWS V14.01,2013-01-17 11:32:00,
2013-01-18 01:33:00,31.6,29.8,30.25,NE,45,0.0,0.0,93,0.00,,SKC,0.00,VWS V14.01,2013-01-17 11:33:00,
2013-01-18 01:34:00,31.6,29.8,30.25,NE,45,0.0,0.0,93,0.00,,SKC,0.00,VWS V14.01,2013-01-17 11:34:00,
2013-01-18 01:35:00,31.6,29.8,30.25,NE,45,0.0,0.0,93,0.00,,SKC,0.00,VWS V14.01,2013-01-17 11:35:00,
2013-01-18 01:36:00,31.6,29.8,30.25,NE,45,0.0,0.0,93,0.00,,SKC,0.00,VWS V14.01,2013-01-17 11:36:00,
2013-01-18 01:38:00,31.6,29.8,30.25,NE,45,0.0,0.0,93,0.00,,SKC,0.00,VWS V14.01,2013-01-17 11:38:00,
2013-01-18 01:39:00,31.6,29.8,30.25,NE,45,0.0,0.0,93,0.00,,SKC,0.00,VWS V14.01,2013-01-17 11:39:00,
2013-01-18 01:40:00,31.6,29.8,30.25,NE,45,0.0,0.0,93,0.00,,SKC,0.00,VWS V14.01,2013-01-17 11:40:00,
2013-01-18 01:41:00,31.6,29.8,30.25,NE,45,0.0,0.0,93,0.00,,SKC,0.00,VWS V14.01,2013-01-17 11:41:00,
2013-01-18 01:42:00,31.7,29.9,30.25,NE,45,0.0,0.0,93,0.00,,SKC,0.00,VWS V14.01,2013-01-17 11:42:00,
2013-01-18 01:43:00,31.7,29.9,30.25,NE,45,0.0,0.0,93,0.00,,SKC,0.00,VWS V14.01,2013-01-17 11:43:00,
2013-01-18 01:44:00,31.7,29.9,30.25,NE,45,0.0,0.0,93,0.00,,SKC,0.00,VWS V14.01,2013-01-17 11:44:00,
2013-01-18 01:45:00,31.7,29.9,30.25,NE,45,0.0,0.0,93,0.00,,SKC,0.00,VWS V14.01,2013-01-17 11:45:00,
2013-01-18 01:46:00,31.6,29.8,30.25,NE,45,0.0,0.0,93,0.00,,SKC,0.00,VWS V14.01,2013-01-17 11:46:00,
2013-01-18 01:47:00,31.7,29.9,30.25,NE,45,0.0,0.0,93,0.00,,SKC,0.00,VWS V14.01,2013-01-17 11:47:00,
2013-01-18 01:48:00,31.7,29.9,30.25,NE,45,0.0,0.0,93,0.00,,SKC,0.00,VWS V14.01,2013-01-17 11:48:00,
2013-01-18 01:49:00,31.7,29.9,30.25,NE,45,0.0,0.0,93,0.00,,SKC,0.00,VWS V14.01,2013-01-17 11:49:00,
2013-01-18 01:50:00,31.7,29.9,30.25,NE,45,0.0,0.0,93,0.00,,SKC,0.00,VWS V14.01,2013-01-17 11:50:00,
2013-01-18 01:51:00,31.7,29.9,30.25,NE,45,0.0,0.0,93,0.00,,SKC,0.00,VWS V14.01,2013-01-17 11:51:00,
2013-01-18 01:52:00,31.7,29.9,30.25,NE,45,0.0,0.0,93,0.00,,SKC,0.00,VWS V14.01,2013-01-17 11:52:00,
2013-01-18 01:53:00,31.7,29.9,30.25,NE,45,0.0,0.0,93,0.00,,SKC,0.00,VWS V14.01,2013-01-17 11:53:00,
2013-01-18 01:54:00,31.7,29.9,30.25,NE,45,0.0,0.0,93,0.00,,SKC,0.00,VWS V14.01,2013-01-17 11:54:00,
2013-01-18 01:56:00,31.7,29.9,30.25,NE,45,0.0,0.0,93,0.00,,SKC,0.00,VWS V14.01,2013-01-17 11:56:00,
2013-01-18 01:57:00,31.7,29.9,30.25,NE,45,0.0,0.0,93,0.00,,SKC,0.00,VWS V14.01,2013-01-17 11:57:00,
2013-01-18 01:58:00,31.6,29.8,30.25,NE,45,0.0,0.0,93,0.00,,SKC,0.00,VWS V14.01,2013-01-17 11:58:00,
2013-01-18 02:00:00,31.5,29.7,30.25,NE,45,0.0,0.0,93,0.00,,SKC,0.00,VWS V14.01,2013-01-17 12:00:00,
2013-01-18 02:01:00,31.5,29.7,30.25,NE,45,0.0,0.0,93,0.00,,SKC,0.00,VWS V14.01,2013-01-17 12:01:00,
2013-01-18 02:03:00,31.4,29.6,30.25,NE,45,0.0,0.0,93,0.00,,SKC,0.00,VWS V14.01,2013-01-17 12:03:00,
2013-01-18 02:04:00,31.4,29.6,30.25,NE,45,0.0,0.0,93,0.00,,SKC,0.00,VWS V14.01,2013-01-17 12:04:00,
2013-01-18 02:06:00,31.3,29.5,30.25,NE,45,0.0,0.0,93,0.00,,SKC,0.00,VWS V14.01,2013-01-17 12:06:00,
2013-01-18 02:07:00,31.2,29.4,30.25,NE,45,0.0,0.0,93,0.00,,SKC,0.00,VWS V14.01,2013-01-17 12:07:00,
2013-01-18 02:08:00,31.2,29.7,30.25,NE,45,0.0,0.0,94,0.00,,SKC,0.00,VWS V14.01,2013-01-17 12:08:00,
2013-01-18 02:10:00,31.2,29.7,30.25,NE,45,0.0,0.0,94,0.00,,SKC,0.00,VWS V14.01,2013-01-17 12:10:00,
2013-01-18 02:11:00,31.2,29.7,30.25,NE,45,0.0,0.0,94,0.00,,SKC,0.00,VWS V14.01,2013-01-17 12:11:00,
2013-01-18 02:12:00,31.1,29.3,30.25,NE,45,0.0,0.0,93,0.00,,SKC,0.00,VWS V14.01,2013-01-17 12:12:00,
2013-01-18 02:13:00,31.1,29.3,30.25,NE,45,0.0,0.0,93,0.00,,SKC,0.00,VWS V14.01,2013-01-17 12:13:00,
2013-01-18 02:14:00,31.1,29.3,30.25,NE,45,0.0,0.0,93,0.00,,SKC,0.00,VWS V14.01,2013-01-17 12:14:00,
2013-01-18 02:15:00,31.0,29.5,30.25,NE,45,1.0,1.0,94,0.00,,SKC,0.00,VWS V14.01,2013-01-17 12:15:00,
2013-01-18 02:16:00,31.0,29.5,30.25,NE,45,1.0,1.0,94,0.00,,SKC,0.00,VWS V14.01,2013-01-17 12:16:00,
2013-01-18 02:18:00,31.0,29.5,30.25,NE,45,2.0,2.0,94,0.00,,SKC,0.00,VWS V14.01,2013-01-17 12:18:00,
2013-01-18 02:20:00,31.0,29.5,30.25,NE,45,0.0,2.0,94,0.00,,SKC,0.00,VWS V14.01,2013-01-17 12:20:00,
2013-01-18 02:21:00,31.0,29.5,30.25,NE,45,0.0,1.0,94,0.00,,SKC,0.00,VWS V14.01,2013-01-17 12:21:00,
2013-01-18 02:22:00,31.0,29.5,30.24,NE,45,0.0,0.0,94,0.00,,SKC,0.00,VWS V14.01,2013-01-17 12:22:00,
2013-01-18 02:23:00,31.0,29.5,30.24,NE,45,0.0,0.0,94,0.00,,SKC,0.00,VWS V14.01,2013-01-17 12:23:00,
2013-01-18 02:24:00,31.0,29.5,30.24,NE,45,0.0,0.0,94,0.00,,SKC,0.00,VWS V14.01,2013-01-17 12:24:00,
2013-01-18 02:25:00,31.0,29.5,30.24,NE,45,0.0,0.0,94,0.00,,SKC,0.00,VWS V14.01,2013-01-17 12:25:00,
2013-01-18 02:26:00,30.9,29.4,30.24,NE,45,0.0,0.0,94,0.00,,SKC,0.00,VWS V14.01,2013-01-17 12:26:00,
2013-01-18 02:27:00,30.9,29.4,30.24,NE,45,0.0,0.0,94,0.00,,SKC,0.00,VWS V14.01,2013-01-17 12:27:00,
2013-01-18 02:28:00,30.9,29.4,30.24,NE,45,0.0,0.0,94,0.00,,SKC,0.00,VWS V14.01,2013-01-17 12:28:00,
2013-01-18 02:29:00,30.9,29.4,30.24,NE,45,0.0,0.0,94,0.00,,SKC,0.00,VWS V14.01,2013-01-17 12:29:00,
2013-01-18 02:30:00,30.9,29.4,30.24,NE,45,0.0,0.0,94,0.00,,SKC,0.00,VWS V14.01,2013-01-17 12:30:00,
2013-01-18 02:31:00,30.9,29.4,30.24,NE,45,0.0,0.0,94,0.00,,SKC,0.00,VWS V14.01,2013-01-17 12:31:00,
2013-01-18 02:32:00,31.0,29.5,30.24,NE,45,1.0,1.0,94,0.00,,SKC,0.00,VWS V14.01,2013-01-17 12:32:00,
2013-01-18 02:33:00,31.0,29.5,30.24,NE,45,0.0,1.0,94,0.00,,SKC,0.00,VWS V14.01,2013-01-17 12:33:00,
2013-01-18 02:35:00,31.0,29.5,30.24,NE,45,0.0,0.0,94,0.00,,SKC,0.00,VWS V14.01,2013-01-17 12:35:00,
2013-01-18 02:36:00,31.0,29.5,30.24,NE,45,0.0,0.0,94,0.00,,SKC,0.00,VWS V14.01,2013-01-17 12:36:00,
2013-01-18 02:37:00,31.1,29.6,30.24,NE,45,0.0,0.0,94,0.00,,SKC,0.00,VWS V14.01,2013-01-17 12:37:00,
2013-01-18 02:38:00,31.1,29.6,30.24,NE,45,0.0,0.0,94,0.00,,SKC,0.00,VWS V14.01,2013-01-17 12:38:00,
2013-01-18 02:39:00,31.1,29.6,30.25,NE,45,0.0,0.0,94,0.00,,SKC,0.00,VWS V14.01,2013-01-17 12:39:00,
2013-01-18 02:40:00,31.1,29.6,30.24,NE,45,0.0,0.0,94,0.00,,SKC,0.00,VWS V14.01,2013-01-17 12:40:00,
2013-01-18 02:42:00,31.1,29.6,30.24,NE,45,0.0,0.0,94,0.00,,SKC,0.00,VWS V14.01,2013-01-17 12:42:00,
2013-01-18 02:43:00,31.1,29.6,30.24,NE,45,0.0,0.0,94,0.00,,SKC,0.00,VWS V14.01,2013-01-17 12:43:00,
2013-01-18 02:44:00,31.1,29.6,30.24,NE,45,0.0,0.0,94,0.00,,SKC,0.00,VWS V14.01,2013-01-17 12:44:00,
2013-01-18 02:45:00,31.1,29.6,30.24,NE,45,0.0,0.0,94,0.00,,SKC,0.00,VWS V14.01,2013-01-17 12:45:00,
2013-01-18 02:46:00,31.0,29.5,30.24,NE,45,0.0,0.0,94,0.00,,SKC,0.00,VWS V14.01,2013-01-17 12:46:00,
2013-01-18 02:47:00,31.0,29.5,30.24,NE,45,0.0,0.0,94,0.00,,SKC,0.00,VWS V14.01,2013-01-17 12:47:00,
2013-01-18 02:48:00,30.8,29.3,30.24,NE,45,0.0,1.0,94,0.00,,SKC,0.00,VWS V14.01,2013-01-17 12:48:00,
2013-01-18 02:50:00,30.8,29.3,30.24,NE,45,0.0,1.0,94,0.00,,SKC,0.00,VWS V14.01,2013-01-17 12:50:00,
2013-01-18 02:51:00,30.8,29.3,30.24,NE,45,0.0,0.0,94,0.00,,SKC,0.00,VWS V14.01,2013-01-17 12:51:00,
2013-01-18 02:52:00,30.8,29.3,30.24,NE,45,2.0,2.0,94,0.00,,SKC,0.00,VWS V14.01,2013-01-17 12:52:00,
2013-01-18 02:53:00,31.0,29.5,30.24,NE,45,0.0,1.0,94,0.00,,SKC,0.00,VWS V14.01,2013-01-17 12:53:00,
2013-01-18 02:54:00,31.0,29.5,30.24,NE,45,0.0,1.0,94,0.00,,SKC,0.00,VWS V14.01,2013-01-17 12:54:00,
2013-01-18 02:55:00,31.2,29.7,30.24,NE,45,0.0,2.0,94,0.00,,SKC,0.00,VWS V14.01,2013-01-17 12:55:00,
2013-01-18 02:57:00,31.4,30.1,30.24,NE,45,0.0,1.0,95,0.00,,SKC,0.00,VWS V14.01,2013-01-17 12:57:00,
2013-01-18 02:58:00,31.6,30.3,30.24,NE,45,0.0,0.0,95,0.00,,SKC,0.00,VWS V14.01,2013-01-17 12:58:00,
2013-01-18 02:59:00,31.6,30.3,30.24,NE,45,0.0,0.0,95,0.00,,SKC,0.00,VWS V14.01,2013-01-17 12:59:00,
2013-01-18 03:00:00,31.5,30.0,30.24,NE,45,0.0,0.0,94,0.00,,SKC,0.00,VWS V14.01,2013-01-17 13:00:00,
2013-01-18 03:01:00,31.4,29.9,30.24,NE,45,0.0,0.0,94,0.00,,SKC,0.00,VWS V14.01,2013-01-17 13:01:00,
2013-01-18 03:02:00,31.2,29.7,30.24,NE,45,0.0,0.0,94,0.00,,SKC,0.00,VWS V14.01,2013-01-17 13:02:00,
2013-01-18 03:03:00,31.1,29.6,30.24,NE,45,0.0,0.0,94,0.00,,SKC,0.00,VWS V14.01,2013-01-17 13:03:00,
2013-01-18 03:04:00,31.1,29.6,30.24,NE,45,0.0,0.0,94,0.00,,SKC,0.00,VWS V14.01,2013-01-17 13:04:00,
2013-01-18 03:05:00,31.0,29.5,30.24,NE,45,0.0,0.0,94,0.00,,SKC,0.00,VWS V14.01,2013-01-17 13:05:00,
2013-01-18 03:06:00,30.9,29.4,30.24,NE,45,1.0,1.0,94,0.00,,SKC,0.00,VWS V14.01,2013-01-17 13:06:00,
2013-01-18 03:07:00,30.9,29.4,30.24,NE,45,0.0,1.0,94,0.00,,SKC,0.00,VWS V14.01,2013-01-17 13:07:00,
2013-01-18 03:08:00,30.8,29.3,30.24,NE,45,0.0,0.0,94,0.00,,SKC,0.00,VWS V14.01,2013-01-17 13:08:00,
2013-01-18 03:09:00,30.8,29.3,30.24,NE,45,0.0,1.0,94,0.00,,SKC,0.00,VWS V14.01,2013-01-17 13:09:00,
2013-01-18 03:10:00,30.7,29.2,30.24,NE,45,0.0,0.0,94,0.00,,SKC,0.00,VWS V14.01,2013-01-17 13:10:00,
2013-01-18 03:11:00,30.7,29.2,30.24,NE,45,0.0,1.0,94,0.00,,SKC,0.00,VWS V14.01,2013-01-17 13:11:00,
2013-01-18 03:12:00,30.6,29.1,30.24,NE,45,0.0,0.0,94,0.00,,SKC,0.00,VWS V14.01,2013-01-17 13:12:00,
2013-01-18 03:13:00,30.6,29.1,30.24,NE,45,0.0,1.0,94,0.00,,SKC,0.00,VWS V14.01,2013-01-17 13:13:00,
2013-01-18 03:14:00,30.6,29.1,30.24,NE,45,0.0,0.0,94,0.00,,SKC,0.00,VWS V14.01,2013-01-17 13:14:00,
2013-01-18 03:15:00,30.7,29.2,30.24,NE,45,0.0,0.0,94,0.00,,SKC,0.00,VWS V14.01,2013-01-17 13:15:00,
2013-01-18 03:16:00,30.7,29.2,30.24,NE,45,0.0,0.0,94,0.00,,SKC,0.00,VWS V14.01,2013-01-17 13:16:00,
2013-01-18 03:17:00,30.6,29.1,30.24,NE,45,0.0,0.0,94,0.00,,SKC,0.00,VWS V14.01,2013-01-17 13:17:00,
2013-01-18 03:18:00,30.6,29.1,30.24,NE,45,0.0,0.0,94,0.00,,SKC,0.00,VWS V14.01,2013-01-17 13:18:00,
2013-01-18 03:20:00,30.5,29.0,30.24,NE,45,0.0,0.0,94,0.00,,SKC,0.00,VWS V14.01,2013-01-17 13:20:00,
2013-01-18 03:21:00,30.5,29.0,30.24,NE,45,1.0,1.0,94,0.00,,SKC,0.00,VWS V14.01,2013-01-17 13:21:00,
2013-01-18 03:22:00,30.5,29.0,30.24,NE,45,0.0,0.0,94,0.00,,SKC,0.00,VWS V14.01,2013-01-17 13:22:00,
2013-01-18 03:23:00,30.5,29.0,30.24,NE,45,0.0,0.0,94,0.00,,SKC,0.00,VWS V14.01,2013-01-17 13:23:00,
2013-01-18 03:24:00,30.5,29.0,30.24,NE,45,0.0,0.0,94,0.00,,SKC,0.00,VWS V14.01,2013-01-17 13:24:00,
2013-01-18 03:25:00,30.5,29.0,30.24,NE,45,0.0,0.0,94,0.00,,SKC,0.00,VWS V14.01,2013-01-17 13:25:00,
2013-01-18 03:26:00,30.5,29.0,30.24,NE,45,0.0,0.0,94,0.00,,SKC,0.00,VWS V14.01,2013-01-17 13:26:00,
2013-01-18 03:27:00,30.5,29.0,30.24,NE,45,0.0,0.0,94,0.00,,SKC,0.00,VWS V14.01,2013-01-17 13:27:00,
2013-01-18 03:28:00,30.5,29.0,30.24,NE,45,0.0,0.0,94,0.00,,SKC,0.00,VWS V14.01,2013-01-17 13:28:00,
2013-01-18 03:29:00,30.5,29.0,30.24,NE,45,0.0,0.0,94,0.00,,SKC,0.00,VWS V14.01,2013-01-17 13:29:00,
2013-01-18 03:30:00,30.5,29.0,30.23,NE,45,0.0,0.0,94,0.00,,SKC,0.00,VWS V14.01,2013-01-17 13:30:00,
2013-01-18 03:31:00,30.5,29.0,30.24,NE,45,0.0,0.0,94,0.00,,SKC,0.00,VWS V14.01,2013-01-17 13:31:00,
2013-01-18 03:32:00,30.5,29.0,30.23,NE,45,0.0,0.0,94,0.00,,SKC,0.00,VWS V14.01,2013-01-17 13:32:00,
2013-01-18 03:33:00,30.5,29.0,30.23,NE,45,0.0,0.0,94,0.00,,SKC,0.00,VWS V14.01,2013-01-17 13:33:00,
2013-01-18 03:34:00,30.5,29.0,30.23,NE,45,0.0,0.0,94,0.00,,SKC,0.00,VWS V14.01,2013-01-17 13:34:00,
2013-01-18 03:35:00,30.5,29.0,30.23,NE,45,0.0,0.0,94,0.00,,SKC,0.00,VWS V14.01,2013-01-17 13:35:00,
2013-01-18 03:37:00,30.8,29.5,30.23,NE,45,0.0,0.0,95,0.00,,SKC,0.00,VWS V14.01,2013-01-17 13:37:00,
2013-01-18 03:38:00,30.7,29.4,30.23,NE,45,0.0,0.0,95,0.00,,SKC,0.00,VWS V14.01,2013-01-17 13:38:00,
2013-01-18 03:39:00,30.8,29.5,30.24,NE,45,0.0,0.0,95,0.00,,SKC,0.00,VWS V14.01,2013-01-17 13:39:00,
2013-01-18 03:40:00,30.8,29.5,30.23,NE,45,0.0,0.0,95,0.00,,SKC,0.00,VWS V14.01,2013-01-17 13:40:00,
2013-01-18 03:41:00,30.8,29.5,30.23,NE,45,0.0,0.0,95,0.00,,SKC,0.00,VWS V14.01,2013-01-17 13:41:00,
2013-01-18 03:42:00,30.8,29.5,30.23,NE,45,0.0,0.0,95,0.00,,SKC,0.00,VWS V14.01,2013-01-17 13:42:00,
2013-01-18 03:43:00,30.8,29.5,30.23,NE,45,0.0,0.0,95,0.00,,SKC,0.00,VWS V14.01,2013-01-17 13:43:00,
2013-01-18 03:44:00,30.8,29.5,30.23,NE,45,0.0,0.0,95,0.00,,SKC,0.00,VWS V14.01,2013-01-17 13:44:00,
2013-01-18 03:45:00,30.9,29.6,30.23,NE,45,0.0,0.0,95,0.00,,SKC,0.00,VWS V14.01,2013-01-17 13:45:00,
2013-01-18 03:46:00,30.9,29.6,30.23,NE,45,0.0,0.0,95,0.00,,SKC,0.00,VWS V14.01,2013-01-17 13:46:00,
2013-01-18 03:47:00,30.6,29.1,30.23,NE,45,0.0,0.0,94,0.00,,SKC,0.00,VWS V14.01,2013-01-17 13:47:00,
2013-01-18 03:48:00,30.7,29.4,30.23,NE,45,0.0,0.0,95,0.00,,SKC,0.00,VWS V14.01,2013-01-17 13:48:00,
2013-01-18 03:49:00,30.6,29.1,30.23,NE,45,0.0,0.0,94,0.00,,SKC,0.00,VWS V14.01,2013-01-17 13:49:00,
2013-01-18 03:50:00,30.6,29.1,30.23,NE,45,0.0,0.0,94,0.00,,SKC,0.00,VWS V14.01,2013-01-17 13:50:00,
2013-01-18 03:51:00,30.6,29.1,30.24,NE,45,0.0,0.0,94,0.00,,SKC,0.00,VWS V14.01,2013-01-17 13:51:00,
2013-01-18 03:52:00,30.5,29.0,30.23,NE,45,0.0,0.0,94,0.00,,SKC,0.00,VWS V14.01,2013-01-17 13:52:00,
2013-01-18 03:53:00,30.5,29.0,30.24,NE,45,0.0,0.0,94,0.00,,SKC,0.00,VWS V14.01,2013-01-17 13:53:00,
2013-01-18 03:54:00,30.5,29.0,30.23,NE,45,0.0,0.0,94,0.00,,SKC,0.00,VWS V14.01,2013-01-17 13:54:00,
2013-01-18 03:55:00,30.5,29.0,30.23,NE,45,0.0,0.0,94,0.00,,SKC,0.00,VWS V14.01,2013-01-17 13:55:00,
2013-01-18 03:56:00,30.5,29.0,30.23,NE,45,0.0,0.0,94,0.00,,SKC,0.00,VWS V14.01,2013-01-17 13:56:00,
2013-01-18 03:57:00,30.5,29.2,30.23,NE,45,0.0,0.0,95,0.00,,SKC,0.00,VWS V14.01,2013-01-17 13:57:00,
2013-01-18 03:58:00,30.5,29.2,30.23,NE,45,0.0,0.0,95,0.00,,SKC,0.00,VWS V14.01,2013-01-17 13:58:00,
2013-01-18 03:59:00,30.5,29.2,30.23,NE,45,0.0,0.0,95,0.00,,SKC,0.00,VWS V14.01,2013-01-17 13:59:00,
2013-01-18 04:00:00,30.5,29.2,30.24,NE,45,0.0,0.0,95,0.00,,SKC,0.00,VWS V14.01,2013-01-17 14:00:00,
2013-01-18 04:01:00,30.4,29.1,30.24,NE,45,0.0,0.0,95,0.00,,SKC,0.00,VWS V14.01,2013-01-17 14:01:00,
2013-01-18 04:02:00,30.5,29.2,30.24,NE,45,0.0,0.0,95,0.00,,SKC,0.00,VWS V14.01,2013-01-17 14:02:00,
2013-01-18 04:04:00,30.5,29.2,30.24,NE,45,0.0,0.0,95,0.00,,SKC,0.00,VWS V14.01,2013-01-17 14:04:00,
2013-01-18 04:05:00,30.4,29.1,30.24,NE,45,0.0,0.0,95,0.00,,SKC,0.00,VWS V14.01,2013-01-17 14:05:00,
2013-01-18 04:07:00,30.5,29.2,30.24,NE,45,0.0,0.0,95,0.00,,SKC,0.00,VWS V14.01,2013-01-17 14:07:00,
2013-01-18 04:08:00,30.5,29.2,30.24,NE,45,0.0,0.0,95,0.00,,SKC,0.00,VWS V14.01,2013-01-17 14:08:00,
2013-01-18 04:09:00,30.5,29.2,30.24,NE,45,0.0,0.0,95,0.00,,SKC,0.00,VWS V14.01,2013-01-17 14:09:00,
2013-01-18 04:10:00,30.5,29.2,30.23,NE,45,0.0,0.0,95,0.00,,SKC,0.00,VWS V14.01,2013-01-17 14:10:00,
2013-01-18 04:11:00,30.5,29.2,30.23,NE,45,0.0,0.0,95,0.00,,SKC,0.00,VWS V14.01,2013-01-17 14:11:00,
2013-01-18 04:12:00,30.4,29.1,30.24,NE,45,0.0,0.0,95,0.00,,SKC,0.00,VWS V14.01,2013-01-17 14:12:00,
2013-01-18 04:13:00,30.4,29.1,30.24,NE,45,0.0,0.0,95,0.00,,SKC,0.00,VWS V14.01,2013-01-17 14:13:00,
2013-01-18 04:14:00,30.4,29.1,30.24,NE,45,0.0,0.0,95,0.00,,SKC,0.00,VWS V14.01,2013-01-17 14:14:00,
2013-01-18 04:15:00,30.5,29.2,30.23,NE,45,0.0,0.0,95,0.00,,SKC,0.00,VWS V14.01,2013-01-17 14:15:00,
2013-01-18 04:16:00,30.4,29.1,30.24,NE,45,0.0,0.0,95,0.00,,SKC,0.00,VWS V14.01,2013-01-17 14:16:00,
2013-01-18 04:17:00,30.4,29.1,30.24,NE,45,0.0,1.0,95,0.00,,SKC,0.00,VWS V14.01,2013-01-17 14:17:00,
2013-01-18 04:18:00,30.4,29.1,30.24,NE,45,1.0,1.0,95,0.00,,SKC,0.00,VWS V14.01,2013-01-17 14:18:00,
2013-01-18 04:19:00,30.4,29.1,30.24,NE,45,0.0,1.0,95,0.00,,SKC,0.00,VWS V14.01,2013-01-17 14:19:00,
2013-01-18 04:20:00,30.3,29.0,30.23,NE,45,0.0,0.0,95,0.00,,SKC,0.00,VWS V14.01,2013-01-17 14:20:00,
2013-01-18 04:21:00,30.3,29.0,30.23,NE,45,1.0,1.0,95,0.00,,SKC,0.00,VWS V14.01,2013-01-17 14:21:00,
2013-01-18 04:22:00,30.3,29.0,30.23,NE,45,0.0,1.0,95,0.00,,SKC,0.00,VWS V14.01,2013-01-17 14:22:00,
2013-01-18 04:24:00,30.3,29.0,30.23,NE,45,0.0,1.0,95,0.00,,SKC,0.00,VWS V14.01,2013-01-17 14:24:00,
2013-01-18 04:25:00,30.3,29.0,30.24,NE,45,0.0,0.0,95,0.00,,SKC,0.00,VWS V14.01,2013-01-17 14:25:00,
2013-01-18 04:26:00,30.3,29.0,30.23,NE,45,0.0,2.0,95,0.00,,SKC,0.00,VWS V14.01,2013-01-17 14:26:00,
2013-01-18 04:27:00,30.4,29.1,30.24,NE,45,0.0,0.0,95,0.00,,SKC,0.00,VWS V14.01,2013-01-17 14:27:00,
2013-01-18 04:28:00,30.3,29.0,30.24,NE,45,0.0,0.0,95,0.00,,SKC,0.00,VWS V14.01,2013-01-17 14:28:00,
2013-01-18 04:29:00,30.4,29.1,30.24,NE,45,0.0,0.0,95,0.00,,SKC,0.00,VWS V14.01,2013-01-17 14:29:00,
2013-01-18 04:30:00,30.4,29.1,30.24,NE,45,0.0,0.0,95,0.00,,SKC,0.00,VWS V14.01,2013-01-17 14:30:00,
2013-01-18 04:31:00,30.4,29.1,30.24,NE,45,0.0,0.0,95,0.00,,SKC,0.00,VWS V14.01,2013-01-17 14:31:00,
2013-01-18 04:32:00,30.3,29.0,30.24,NE,45,0.0,0.0,95,0.00,,SKC,0.00,VWS V14.01,2013-01-17 14:32:00,
2013-01-18 04:33:00,30.3,29.0,30.24,NE,45,0.0,0.0,95,0.00,,SKC,0.00,VWS V14.01,2013-01-17 14:33:00,
2013-01-18 04:34:00,30.3,29.0,30.24,NE,45,0.0,0.0,95,0.00,,SKC,0.00,VWS V14.01,2013-01-17 14:34:00,
2013-01-18 04:35:00,30.3,29.0,30.24,NE,45,0.0,0.0,95,0.00,,SKC,0.00,VWS V14.01,2013-01-17 14:35:00,
2013-01-18 04:36:00,30.3,29.0,30.24,NE,45,0.0,0.0,95,0.00,,SKC,0.00,VWS V14.01,2013-01-17 14:36:00,
2013-01-18 04:37:00,30.2,28.9,30.24,NE,45,0.0,0.0,95,0.00,,SKC,0.00,VWS V14.01,2013-01-17 14:37:00,
2013-01-18 04:38:00,30.2,28.9,30.24,NE,45,0.0,0.0,95,0.00,,SKC,0.00,VWS V14.01,2013-01-17 14:38:00,
2013-01-18 04:39:00,30.2,28.9,30.24,NE,45,0.0,0.0,95,0.00,,SKC,0.00,VWS V14.01,2013-01-17 14:39:00,
2013-01-18 04:40:00,30.2,28.9,30.24,NE,45,0.0,0.0,95,0.00,,SKC,0.00,VWS V14.01,2013-01-17 14:40:00,
2013-01-18 04:41:00,30.3,29.0,30.24,NE,45,0.0,0.0,95,0.00,,SKC,0.00,VWS V14.01,2013-01-17 14:41:00,
2013-01-18 04:42:00,30.3,29.0,30.24,NE,45,0.0,0.0,95,0.00,,SKC,0.00,VWS V14.01,2013-01-17 14:42:00,
2013-01-18 04:43:00,30.3,29.0,30.24,NE,45,0.0,0.0,95,0.00,,SKC,0.00,VWS V14.01,2013-01-17 14:43:00,
2013-01-18 04:44:00,30.3,29.0,30.24,NE,45,0.0,0.0,95,0.00,,SKC,0.00,VWS V14.01,2013-01-17 14:44:00,
2013-01-18 04:46:00,30.3,29.0,30.24,NE,45,0.0,0.0,95,0.00,,SKC,0.00,VWS V14.01,2013-01-17 14:46:00,
2013-01-18 04:47:00,30.4,29.1,30.24,NE,45,0.0,0.0,95,0.00,,SKC,0.00,VWS V14.01,2013-01-17 14:47:00,
2013-01-18 04:48:00,30.4,29.1,30.24,NE,45,0.0,0.0,95,0.00,,SKC,0.00,VWS V14.01,2013-01-17 14:48:00,
2013-01-18 04:49:00,30.4,29.1,30.24,NE,45,0.0,0.0,95,0.00,,SKC,0.00,VWS V14.01,2013-01-17 14:49:00,
2013-01-18 04:50:00,30.4,29.1,30.24,NE,45,0.0,0.0,95,0.00,,SKC,0.00,VWS V14.01,2013-01-17 14:50:00,
2013-01-18 04:51:00,30.4,29.1,30.24,NE,45,0.0,0.0,95,0.00,,SKC,0.00,VWS V14.01,2013-01-17 14:51:00,
2013-01-18 04:52:00,30.4,29.1,30.24,NE,45,1.0,1.0,95,0.00,,SKC,0.00,VWS V14.01,2013-01-17 14:52:00,
2013-01-18 04:53:00,30.4,29.1,30.24,NE,45,0.0,0.0,95,0.00,,SKC,0.00,VWS V14.01,2013-01-17 14:53:00,
2013-01-18 04:54:00,30.4,29.1,30.24,NE,45,0.0,1.0,95,0.00,,SKC,0.00,VWS V14.01,2013-01-17 14:54:00,
2013-01-18 04:55:00,30.3,29.0,30.24,NE,45,0.0,0.0,95,0.00,,SKC,0.00,VWS V14.01,2013-01-17 14:55:00,
2013-01-18 04:56:00,30.3,29.0,30.24,NE,45,0.0,0.0,95,0.00,,SKC,0.00,VWS V14.01,2013-01-17 14:56:00,
2013-01-18 04:57:00,30.1,28.8,30.24,NE,45,0.0,0.0,95,0.00,,SKC,0.00,VWS V14.01,2013-01-17 14:57:00,
2013-01-18 04:59:00,30.1,28.8,30.24,NE,45,0.0,0.0,95,0.00,,SKC,0.00,VWS V14.01,2013-01-17 14:59:00,
2013-01-18 05:00:00,30.2,28.9,30.24,NE,45,0.0,0.0,95,0.00,,SKC,0.00,VWS V14.01,2013-01-17 15:00:00,
2013-01-18 05:01:00,30.2,28.9,30.24,NE,45,0.0,0.0,95,0.00,,SKC,0.00,VWS V14.01,2013-01-17 15:01:00,
2013-01-18 05:02:00,30.3,29.0,30.24,NE,45,0.0,0.0,95,0.00,,SKC,0.00,VWS V14.01,2013-01-17 15:02:00,
2013-01-18 05:03:00,30.3,29.0,30.24,NE,45,0.0,0.0,95,0.00,,SKC,0.00,VWS V14.01,2013-01-17 15:03:00,
2013-01-18 05:04:00,30.3,29.0,30.24,NE,45,0.0,0.0,95,0.00,,SKC,0.00,VWS V14.01,2013-01-17 15:04:00,
2013-01-18 05:05:00,30.3,29.0,30.24,NE,45,0.0,0.0,95,0.00,,SKC,0.00,VWS V14.01,2013-01-17 15:05:00,
2013-01-18 05:06:00,30.4,29.1,30.24,NE,45,0.0,0.0,95,0.00,,SKC,0.00,VWS V14.01,2013-01-17 15:06:00,
2013-01-18 05:07:00,30.5,29.2,30.24,NE,45,0.0,0.0,95,0.00,,SKC,0.00,VWS V14.01,2013-01-17 15:07:00,
2013-01-18 05:08:00,30.5,29.2,30.24,NE,45,0.0,0.0,95,0.00,,SKC,0.00,VWS V14.01,2013-01-17 15:08:00,
2013-01-18 05:09:00,30.5,29.2,30.24,NE,45,0.0,0.0,95,0.00,,SKC,0.00,VWS V14.01,2013-01-17 15:09:00,
2013-01-18 05:10:00,30.5,29.2,30.24,NE,45,0.0,0.0,95,0.00,,SKC,0.00,VWS V14.01,2013-01-17 15:10:00,
2013-01-18 05:11:00,30.4,29.1,30.24,NE,45,0.0,0.0,95,0.00,,SKC,0.00,VWS V14.01,2013-01-17 15:11:00,
2013-01-18 05:12:00,30.1,28.8,30.24,NE,45,0.0,0.0,95,0.00,,SKC,0.00,VWS V14.01,2013-01-17 15:12:00,
2013-01-18 05:13:00,30.2,28.9,30.24,NE,45,0.0,0.0,95,0.00,,SKC,0.00,VWS V14.01,2013-01-17 15:13:00,
2013-01-18 05:14:00,30.1,28.8,30.24,NE,45,0.0,0.0,95,0.00,,SKC,0.00,VWS V14.01,2013-01-17 15:14:00,
2013-01-18 05:15:00,30.0,28.7,30.24,NE,45,0.0,0.0,95,0.00,,SKC,0.00,VWS V14.01,2013-01-17 15:15:00,
2013-01-18 05:16:00,29.9,28.6,30.24,NE,45,0.0,0.0,95,0.00,,SKC,0.00,VWS V14.01,2013-01-17 15:16:00,
2013-01-18 05:17:00,29.9,28.6,30.24,NE,45,0.0,0.0,95,0.00,,SKC,0.00,VWS V14.01,2013-01-17 15:17:00,
2013-01-18 05:18:00,29.9,28.6,30.24,NE,45,0.0,0.0,95,0.00,,SKC,0.00,VWS V14.01,2013-01-17 15:18:00,
2013-01-18 05:19:00,29.9,28.6,30.24,NE,45,0.0,0.0,95,0.00,,SKC,0.00,VWS V14.01,2013-01-17 15:19:00,
2013-01-18 05:20:00,29.9,28.6,30.24,NE,45,0.0,0.0,95,0.00,,SKC,0.00,VWS V14.01,2013-01-17 15:20:00,
2013-01-18 05:21:00,29.8,28.5,30.24,NE,45,0.0,0.0,95,0.00,,SKC,0.00,VWS V14.01,2013-01-17 15:21:00,
2013-01-18 05:22:00,29.8,28.5,30.24,NE,45,0.0,0.0,95,0.00,,SKC,0.00,VWS V14.01,2013-01-17 15:22:00,
2013-01-18 05:23:00,29.8,28.5,30.24,NE,45,0.0,0.0,95,0.00,,SKC,0.00,VWS V14.01,2013-01-17 15:23:00,
2013-01-18 05:25:00,29.8,28.5,30.24,NE,45,0.0,0.0,95,0.00,,SKC,0.00,VWS V14.01,2013-01-17 15:25:00,
2013-01-18 05:26:00,30.0,28.7,30.24,NE,45,0.0,0.0,95,0.00,,SKC,0.00,VWS V14.01,2013-01-17 15:26:00,
2013-01-18 05:27:00,30.1,28.8,30.24,NE,45,0.0,0.0,95,0.00,,SKC,0.00,VWS V14.01,2013-01-17 15:27:00,
2013-01-18 05:28:00,30.1,29.1,30.24,NE,45,0.0,0.0,96,0.00,,SKC,0.00,VWS V14.01,2013-01-17 15:28:00,
2013-01-18 05:29:00,30.1,28.8,30.24,NE,45,0.0,0.0,95,0.00,,SKC,0.00,VWS V14.01,2013-01-17 15:29:00,
2013-01-18 05:30:00,30.1,28.8,30.24,NE,45,0.0,0.0,95,0.00,,SKC,0.00,VWS V14.01,2013-01-17 15:30:00,
2013-01-18 05:31:00,30.1,28.8,30.24,NE,45,0.0,0.0,95,0.00,,SKC,0.00,VWS V14.01,2013-01-17 15:31:00,
2013-01-18 05:32:00,29.9,28.6,30.24,NE,45,0.0,0.0,95,0.00,,SKC,0.00,VWS V14.01,2013-01-17 15:32:00,
2013-01-18 05:33:00,29.9,28.6,30.24,NE,45,0.0,0.0,95,0.00,,SKC,0.00,VWS V14.01,2013-01-17 15:33:00,
2013-01-18 05:34:00,29.9,28.6,30.24,NE,45,0.0,0.0,95,0.00,,SKC,0.00,VWS V14.01,2013-01-17 15:34:00,
2013-01-18 05:35:00,29.9,28.6,30.24,NE,45,0.0,0.0,95,0.00,,SKC,0.00,VWS V14.01,2013-01-17 15:35:00,
2013-01-18 05:36:00,29.9,28.6,30.24,NE,45,0.0,0.0,95,0.00,,SKC,0.00,VWS V14.01,2013-01-17 15:36:00,
2013-01-18 05:37:00,29.9,28.6,30.24,NE,45,0.0,0.0,95,0.00,,SKC,0.00,VWS V14.01,2013-01-17 15:37:00,
2013-01-18 05:38:00,29.9,28.6,30.24,NE,45,0.0,0.0,95,0.00,,SKC,0.00,VWS V14.01,2013-01-17 15:38:00,
2013-01-18 05:40:00,30.0,28.7,30.24,NE,45,0.0,0.0,95,0.00,,SKC,0.00,VWS V14.01,2013-01-17 15:40:00,
2013-01-18 05:41:00,30.0,28.7,30.24,NE,45,0.0,0.0,95,0.00,,SKC,0.00,VWS V14.01,2013-01-17 15:41:00,
2013-01-18 05:42:00,30.2,29.2,30.24,NE,45,0.0,0.0,96,0.00,,SKC,0.00,VWS V14.01,2013-01-17 15:42:00,
2013-01-18 05:43:00,30.1,29.1,30.24,NE,45,0.0,0.0,96,0.00,,SKC,0.00,VWS V14.01,2013-01-17 15:43:00,
2013-01-18 05:44:00,30.2,29.2,30.24,NE,45,0.0,0.0,96,0.00,,SKC,0.00,VWS V14.01,2013-01-17 15:44:00,
2013-01-18 05:45:00,30.2,29.2,30.24,NE,45,0.0,0.0,96,0.00,,SKC,0.00,VWS V14.01,2013-01-17 15:45:00,
2013-01-18 05:46:00,30.3,29.3,30.24,NE,45,0.0,0.0,96,0.00,,SKC,0.00,VWS V14.01,2013-01-17 15:46:00,
2013-01-18 05:47:00,30.4,29.4,30.24,NE,45,0.0,0.0,96,0.00,,SKC,0.00,VWS V14.01,2013-01-17 15:47:00,
2013-01-18 05:48:00,30.4,29.4,30.24,NE,45,0.0,0.0,96,0.00,,SKC,0.00,VWS V14.01,2013-01-17 15:48:00,
2013-01-18 05:49:00,30.4,29.1,30.24,NE,45,0.0,0.0,95,0.00,,SKC,0.00,VWS V14.01,2013-01-17 15:49:00,
2013-01-18 05:50:00,30.6,29.6,30.24,NE,45,0.0,0.0,96,0.00,,SKC,0.00,VWS V14.01,2013-01-17 15:50:00,
2013-01-18 05:51:00,30.7,29.7,30.24,NE,45,0.0,0.0,96,0.00,,SKC,0.00,VWS V14.01,2013-01-17 15:51:00,
2013-01-18 05:52:00,31.0,30.0,30.24,NE,45,0.0,0.0,96,0.00,,SKC,0.00,VWS V14.01,2013-01-17 15:52:00,
2013-01-18 05:53:00,31.0,30.0,30.24,NE,45,0.0,0.0,96,0.00,,SKC,0.00,VWS V14.01,2013-01-17 15:53:00,
2013-01-18 05:54:00,31.0,30.0,30.24,NE,45,0.0,0.0,96,0.00,,SKC,0.00,VWS V14.01,2013-01-17 15:54:00,
2013-01-18 05:55:00,31.1,30.1,30.25,NE,45,0.0,0.0,96,0.00,,SKC,0.00,VWS V14.01,2013-01-17 15:55:00,
2013-01-18 05:56:00,31.2,30.2,30.25,NE,45,0.0,0.0,96,0.00,,SKC,0.00,VWS V14.01,2013-01-17 15:56:00,
2013-01-18 05:57:00,31.3,30.3,30.25,NE,45,0.0,0.0,96,0.00,,SKC,0.00,VWS V14.01,2013-01-17 15:57:00,
2013-01-18 05:58:00,31.3,30.3,30.25,NE,45,0.0,0.0,96,0.00,,SKC,0.00,VWS V14.01,2013-01-17 15:58:00,
2013-01-18 05:59:00,31.4,30.4,30.25,NE,45,0.0,0.0,96,0.00,,SKC,0.00,VWS V14.01,2013-01-17 15:59:00,
2013-01-18 06:01:00,31.6,30.6,30.25,NE,45,0.0,0.0,96,0.00,,SKC,0.00,VWS V14.01,2013-01-17 16:01:00,
2013-01-18 06:02:00,31.9,30.9,30.25,NE,45,0.0,0.0,96,0.00,,SKC,0.00,VWS V14.01,2013-01-17 16:02:00,
2013-01-18 06:03:00,31.7,30.7,30.25,NE,45,0.0,0.0,96,0.00,,SKC,0.00,VWS V14.01,2013-01-17 16:03:00,
2013-01-18 06:04:00,31.9,30.9,30.25,NE,45,0.0,0.0,96,0.00,,SKC,0.00,VWS V14.01,2013-01-17 16:04:00,
2013-01-18 06:05:00,31.9,30.9,30.25,NE,45,0.0,0.0,96,0.00,,SKC,0.00,VWS V14.01,2013-01-17 16:05:00,
2013-01-18 06:06:00,31.8,30.8,30.25,NE,45,0.0,0.0,96,0.00,,SKC,0.00,VWS V14.01,2013-01-17 16:06:00,
2013-01-18 06:07:00,31.8,30.5,30.25,NE,45,0.0,0.0,95,0.00,,SKC,0.00,VWS V14.01,2013-01-17 16:07:00,
2013-01-18 06:08:00,31.7,30.4,30.25,NE,45,0.0,0.0,95,0.00,,SKC,0.00,VWS V14.01,2013-01-17 16:08:00,
2013-01-18 06:10:00,31.9,30.6,30.25,NE,45,0.0,0.0,95,0.00,,SKC,0.00,VWS V14.01,2013-01-17 16:10:00,
2013-01-18 06:11:00,32.2,31.2,30.25,NE,45,0.0,0.0,96,0.00,,SKC,0.00,VWS V14.01,2013-01-17 16:11:00,
2013-01-18 06:12:00,32.6,31.3,30.25,NE,45,0.0,0.0,95,0.00,,SKC,0.00,VWS V14.01,2013-01-17 16:12:00,
2013-01-18 06:13:00,32.5,31.5,30.25,NE,45,0.0,0.0,96,0.00,,SKC,0.00,VWS V14.01,2013-01-17 16:13:00,
2013-01-18 06:15:00,32.8,31.8,30.25,NE,45,0.0,0.0,96,0.00,,SKC,0.00,VWS V14.01,2013-01-17 16:15:00,
2013-01-18 06:17:00,32.8,31.5,30.25,NE,45,0.0,0.0,95,0.00,,SKC,0.00,VWS V14.01,2013-01-17 16:17:00,
2013-01-18 06:18:00,32.8,31.5,30.25,NE,45,0.0,1.0,95,0.00,,SKC,0.00,VWS V14.01,2013-01-17 16:18:00,
2013-01-18 06:19:00,32.8,31.5,30.25,NE,45,0.0,0.0,95,0.00,,SKC,0.00,VWS V14.01,2013-01-17 16:19:00,
2013-01-18 06:20:00,32.8,31.5,30.25,NE,45,0.0,0.0,95,0.00,,SKC,0.00,VWS V14.01,2013-01-17 16:20:00,
2013-01-18 06:22:00,33.3,32.0,30.25,NE,45,0.0,0.0,95,0.00,,SKC,0.00,VWS V14.01,2013-01-17 16:22:00,
2013-01-18 06:23:00,33.1,31.8,30.25,NE,45,0.0,0.0,95,0.00,,SKC,0.00,VWS V14.01,2013-01-17 16:23:00,
2013-01-18 06:27:00,34.2,32.9,30.25,NE,45,0.0,0.0,95,0.00,,SKC,0.00,VWS V14.01,2013-01-17 16:27:00,
2013-01-18 06:28:00,34.2,32.9,30.25,NE,45,0.0,0.0,95,0.00,,SKC,0.00,VWS V14.01,2013-01-17 16:28:00,
2013-01-18 06:32:00,34.6,33.0,30.26,NE,45,1.0,2.0,94,0.00,,SKC,0.00,VWS V14.01,2013-01-17 16:32:00,
2013-01-18 06:33:00,34.5,33.0,30.26,NE,45,2.0,2.0,94,0.00,,SKC,0.00,VWS V14.01,2013-01-17 16:33:00,
2013-01-18 06:34:00,34.6,33.0,30.26,NE,45,1.0,2.0,94,0.00,,SKC,0.00,VWS V14.01,2013-01-17 16:34:00,
2013-01-18 06:35:00,34.8,33.2,30.26,NE,45,0.0,2.0,94,0.00,,SKC,0.00,VWS V14.01,2013-01-17 16:35:00,
2013-01-18 06:36:00,35.1,33.5,30.26,NE,45,0.0,1.0,94,0.00,,SKC,0.00,VWS V14.01,2013-01-17 16:36:00,
2013-01-18 06:37:00,35.8,34.2,30.26,NE,45,0.0,1.0,94,0.00,,SKC,0.00,VWS V14.01,2013-01-17 16:37:00,
2013-01-18 06:38:00,35.6,34.0,30.26,NE,45,0.0,0.0,94,0.00,,SKC,0.00,VWS V14.01,2013-01-17 16:38:00,
2013-01-18 06:40:00,36.2,34.4,30.26,NE,45,0.0,0.0,93,0.00,,SKC,0.00,VWS V14.01,2013-01-17 16:40:00,
2013-01-18 06:41:00,36.4,34.6,30.26,NE,45,0.0,1.0,93,0.00,,SKC,0.00,VWS V14.01,2013-01-17 16:41:00,
2013-01-18 06:42:00,36.9,34.8,30.26,NE,45,0.0,0.0,92,0.00,,SKC,0.00,VWS V14.01,2013-01-17 16:42:00,
2013-01-18 06:43:00,36.8,34.7,30.26,NE,45,0.0,0.0,92,0.00,,SKC,0.00,VWS V14.01,2013-01-17 16:43:00,
2013-01-18 06:44:00,36.9,34.8,30.26,NE,45,0.0,0.0,92,0.00,,SKC,0.00,VWS V14.01,2013-01-17 16:44:00,
2013-01-18 06:45:00,37.1,35.0,30.26,NE,45,0.0,0.0,92,0.00,,SKC,0.00,VWS V14.01,2013-01-17 16:45:00,
2013-01-18 06:46:00,37.3,34.9,30.26,NE,45,0.0,0.0,91,0.00,,SKC,0.00,VWS V14.01,2013-01-17 16:46:00,
2013-01-18 06:47:00,37.8,35.1,30.26,NE,45,0.0,0.0,90,0.00,,SKC,0.00,VWS V14.01,2013-01-17 16:47:00,
2013-01-18 06:48:00,37.7,35.0,30.26,NE,45,0.0,0.0,90,0.00,,SKC,0.00,VWS V14.01,2013-01-17 16:48:00,
2013-01-18 06:49:00,37.8,35.1,30.26,NE,45,0.0,0.0,90,0.00,,SKC,0.00,VWS V14.01,2013-01-17 16:49:00,
2013-01-18 06:50:00,38.0,35.3,30.26,NE,45,0.0,1.0,90,0.00,,SKC,0.00,VWS V14.01,2013-01-17 16:50:00,
2013-01-18 06:51:00,38.2,35.2,30.26,NE,45,0.0,0.0,89,0.00,,SKC,0.00,VWS V14.01,2013-01-17 16:51:00,
2013-01-18 06:52:00,38.7,35.7,30.26,NE,45,0.0,0.0,89,0.00,,SKC,0.00,VWS V14.01,2013-01-17 16:52:00,
2013-01-18 06:53:00,38.6,35.6,30.26,NE,45,0.0,0.0,89,0.00,,SKC,0.00,VWS V14.01,2013-01-17 16:53:00,
2013-01-18 06:54:00,38.8,35.6,30.26,NE,45,0.0,0.0,88,0.00,,SKC,0.00,VWS V14.01,2013-01-17 16:54:00,
2013-01-18 06:55:00,38.9,35.7,30.26,NE,45,0.0,0.0,88,0.00,,SKC,0.00,VWS V14.01,2013-01-17 16:55:00,
2013-01-18 06:56:00,39.1,35.6,30.26,NE,45,0.0,0.0,87,0.00,,SKC,0.00,VWS V14.01,2013-01-17 16:56:00,
2013-01-18 06:57:00,39.5,35.7,30.26,NE,45,0.0,0.0,86,0.00,,SKC,0.00,VWS V14.01,2013-01-17 16:57:00,
2013-01-18 06:58:00,39.4,35.6,30.26,NE,45,0.0,0.0,86,0.00,,SKC,0.00,VWS V14.01,2013-01-17 16:58:00,
2013-01-18 06:59:00,39.6,35.8,30.26,NE,45,0.0,0.0,86,0.00,,SKC,0.00,VWS V14.01,2013-01-17 16:59:00,
2013-01-18 07:00:00,39.7,35.9,30.26,NE,45,0.0,1.0,86,0.00,,SKC,0.00,VWS V14.01,2013-01-17 17:00:00,
2013-01-18 07:01:00,39.8,35.7,30.26,NE,45,1.0,1.0,85,0.00,,SKC,0.00,VWS V14.01,2013-01-17 17:01:00,
2013-01-18 07:02:00,40.1,36.0,30.26,NE,45,0.0,1.0,85,0.00,,FEW150,0.00,VWS V14.01,2013-01-17 17:02:00,
2013-01-18 07:03:00,40.0,35.9,30.26,NE,45,0.0,1.0,85,0.00,,SKC,0.00,VWS V14.01,2013-01-17 17:03:00,
2013-01-18 07:04:00,40.1,35.7,30.26,NE,45,0.0,1.0,84,0.00,,SKC,0.00,VWS V14.01,2013-01-17 17:04:00,
2013-01-18 07:05:00,40.4,36.0,30.26,NE,45,1.0,1.0,84,0.00,,SKC,0.00,VWS V14.01,2013-01-17 17:05:00,
2013-01-18 07:06:00,40.6,36.2,30.26,NE,45,0.0,1.0,84,0.00,,SKC,0.00,VWS V14.01,2013-01-17 17:06:00,
2013-01-18 07:07:00,41.2,36.1,30.26,NE,45,0.0,1.0,82,0.00,,FEW150,0.00,VWS V14.01,2013-01-17 17:07:00,
2013-01-18 07:08:00,41.1,36.3,30.26,NE,45,1.0,1.0,83,0.00,,SKC,0.00,VWS V14.01,2013-01-17 17:08:00,
2013-01-18 07:09:00,41.3,36.2,30.26,NE,45,0.0,1.0,82,0.00,,SKC,0.00,VWS V14.01,2013-01-17 17:09:00,
2013-01-18 07:10:00,41.5,36.1,30.26,NE,45,0.0,1.0,81,0.00,,SKC,0.00,VWS V14.01,2013-01-17 17:10:00,
2013-01-18 07:11:00,41.6,36.2,30.26,NE,45,0.0,0.0,81,0.00,,SKC,0.00,VWS V14.01,2013-01-17 17:11:00,
2013-01-18 07:12:00,42.1,36.4,30.26,NE,45,0.0,1.0,80,0.00,,FEW150,0.00,VWS V14.01,2013-01-17 17:12:00,
2013-01-18 07:13:00,42.0,36.3,30.26,NE,45,0.0,0.0,80,0.00,,SKC,0.00,VWS V14.01,2013-01-17 17:13:00,
2013-01-18 07:14:00,42.2,36.5,30.26,NE,45,0.0,1.0,80,0.00,,SKC,0.00,VWS V14.01,2013-01-17 17:14:00,
2013-01-18 07:15:00,42.4,36.7,30.26,NE,45,1.0,1.0,80,0.00,,SKC,0.00,VWS V14.01,2013-01-17 17:15:00,
2013-01-18 07:16:00,42.5,36.5,30.26,NE,45,1.0,1.0,79,0.00,,SKC,0.00,VWS V14.01,2013-01-17 17:16:00,
2013-01-18 07:17:00,43.1,36.7,30.26,NE,45,0.0,1.0,78,0.00,,FEW150,0.00,VWS V14.01,2013-01-17 17:17:00,
2013-01-18 07:18:00,42.9,36.5,30.26,NE,45,0.0,1.0,78,0.00,,SKC,0.00,VWS V14.01,2013-01-17 17:18:00,
2013-01-18 07:19:00,43.2,36.8,30.26,NE,45,0.0,1.0,78,0.00,,SKC,0.00,VWS V14.01,2013-01-17 17:19:00,
2013-01-18 07:20:00,43.3,36.9,30.26,NE,45,1.0,2.0,78,0.00,,SKC,0.00,VWS V14.01,2013-01-17 17:20:00,
2013-01-18 07:21:00,43.5,36.8,30.26,NE,45,1.0,1.0,77,0.00,,SKC,0.00,VWS V14.01,2013-01-17 17:21:00,
2013-01-18 07:22:00,44.0,36.9,30.26,NE,45,0.0,0.0,76,0.00,,FEW150,0.00,VWS V14.01,2013-01-17 17:22:00,
2013-01-18 07:23:00,43.9,36.8,30.26,NE,45,0.0,0.0,76,0.00,,SKC,0.00,VWS V14.01,2013-01-17 17:23:00,
2013-01-18 07:24:00,44.0,36.9,30.26,NE,45,1.0,1.0,76,0.00,,SKC,0.00,VWS V14.01,2013-01-17 17:24:00,
2013-01-18 07:25:00,44.2,37.1,30.26,NE,45,0.0,1.0,76,0.00,,SKC,0.00,VWS V14.01,2013-01-17 17:25:00,
2013-01-18 07:26:00,44.4,37.3,30.26,NE,45,0.0,1.0,76,0.00,,SKC,0.00,VWS V14.01,2013-01-17 17:26:00,
2013-01-18 07:27:00,45.1,37.7,30.26,NE,45,1.0,2.0,75,0.00,,FEW150,0.00,VWS V14.01,2013-01-17 17:27:00,
2013-01-18 07:29:00,45.2,37.4,30.26,NE,45,1.0,2.0,74,0.00,,SKC,0.00,VWS V14.01,2013-01-17 17:29:00,
2013-01-18 07:30:00,45.4,37.6,30.26,NE,45,0.0,2.0,74,0.00,,SKC,0.00,VWS V14.01,2013-01-17 17:30:00,
2013-01-18 07:31:00,45.5,37.7,30.26,NE,45,1.0,1.0,74,0.00,,SKC,0.00,VWS V14.01,2013-01-17 17:31:00,
2013-01-18 07:32:00,46.0,37.1,30.26,NE,45,0.0,0.0,71,0.00,,FEW150,0.00,VWS V14.01,2013-01-17 17:32:00,
2013-01-18 07:33:00,45.9,37.4,30.26,NE,45,0.0,1.0,72,0.00,,SKC,0.00,VWS V14.01,2013-01-17 17:33:00,
2013-01-18 07:34:00,46.1,37.6,30.26,NE,45,0.0,0.0,72,0.00,,SKC,0.00,VWS V14.01,2013-01-17 17:34:00,
2013-01-18 07:35:00,46.4,37.9,30.26,NE,45,0.0,0.0,72,0.00,,SKC,0.00,VWS V14.01,2013-01-17 17:35:00,
2013-01-18 07:37:00,47.2,37.6,30.26,NE,45,1.0,1.0,69,0.00,,FEW150,0.00,VWS V14.01,2013-01-17 17:37:00,
2013-01-18 07:38:00,47.1,37.8,30.26,NE,45,0.0,0.0,70,0.00,,SKC,0.00,VWS V14.01,2013-01-17 17:38:00,
2013-01-18 07:39:00,47.3,37.7,30.26,NE,45,0.0,1.0,69,0.00,,SKC,0.00,VWS V14.01,2013-01-17 17:39:00,
2013-01-18 07:40:00,47.3,36.9,30.26,NE,45,0.0,1.0,67,0.00,,SKC,0.00,VWS V14.01,2013-01-17 17:40:00,
2013-01-18 07:41:00,47.3,36.9,30.26,NE,45,1.0,2.0,67,0.00,,SKC,0.00,VWS V14.01,2013-01-17 17:41:00,
2013-01-18 07:42:00,47.2,36.4,30.26,NE,45,1.0,3.0,66,0.00,,FEW150,0.00,VWS V14.01,2013-01-17 17:42:00,
2013-01-18 07:43:00,47.2,36.8,30.26,NE,45,3.0,4.0,67,0.00,,SKC,0.00,VWS V14.01,2013-01-17 17:43:00,
2013-01-18 07:44:00,47.2,36.4,30.26,NE,45,2.0,3.0,66,0.00,,SKC,0.00,VWS V14.01,2013-01-17 17:44:00,
2013-01-18 07:45:00,47.2,36.4,30.26,NE,45,4.0,4.0,66,0.00,,SKC,0.00,VWS V14.01,2013-01-17 17:45:00,
2013-01-18 07:46:00,47.3,36.5,30.26,NE,44,2.0,5.0,66,0.00,,SKC,0.00,VWS V14.01,2013-01-17 17:46:00,
2013-01-18 07:47:00,47.3,36.2,30.26,NE,46,1.0,2.0,65,0.00,,FEW150,0.00,VWS V14.01,2013-01-17 17:47:00,
2013-01-18 07:48:00,47.3,36.2,30.26,NE,46,2.0,3.0,65,0.00,,SKC,0.00,VWS V14.01,2013-01-17 17:48:00,
2013-01-18 07:49:00,47.3,36.2,30.26,NE,46,2.0,2.0,65,0.00,,SKC,0.00,VWS V14.01,2013-01-17 17:49:00,
2013-01-18 07:50:00,47.3,36.2,30.26,NE,46,2.0,2.0,65,0.00,,SKC,0.00,VWS V14.01,2013-01-17 17:50:00,
2013-01-18 07:51:00,47.3,36.2,30.26,NE,46,3.0,3.0,65,0.00,,SKC,0.00,VWS V14.01,2013-01-17 17:51:00,
2013-01-18 07:52:00,47.2,35.7,30.26,NE,42,1.0,2.0,64,0.00,,FEW150,0.00,VWS V14.01,2013-01-17 17:52:00,
2013-01-18 07:53:00,47.3,35.8,30.26,NE,42,1.0,4.0,64,0.00,,SKC,0.00,VWS V14.01,2013-01-17 17:53:00,
2013-01-18 07:54:00,47.3,35.8,30.26,NE,42,0.0,2.0,64,0.00,,SKC,0.00,VWS V14.01,2013-01-17 17:54:00,
2013-01-18 07:55:00,47.3,36.2,30.26,NE,42,0.0,1.0,65,0.00,,SKC,0.00,VWS V14.01,2013-01-17 17:55:00,
2013-01-18 07:56:00,47.4,36.2,30.26,NE,42,1.0,1.0,65,0.00,,SKC,0.00,VWS V14.01,2013-01-17 17:56:00,
2013-01-18 07:57:00,47.6,36.4,30.26,NE,42,1.0,1.0,65,0.00,,FEW150,0.00,VWS V14.01,2013-01-17 17:57:00,
2013-01-18 07:58:00,47.6,36.4,30.26,NE,42,0.0,2.0,65,0.00,,SKC,0.00,VWS V14.01,2013-01-17 17:58:00,
2013-01-18 07:59:00,47.6,36.4,30.26,NE,42,1.0,1.0,65,0.00,,SKC,0.00,VWS V14.01,2013-01-17 17:59:00,
2013-01-18 08:00:00,47.7,36.5,30.26,NE,42,1.0,2.0,65,0.00,,SKC,0.00,VWS V14.01,2013-01-17 18:00:00,
2013-01-18 08:01:00,47.6,36.0,30.26,NE,42,0.0,2.0,64,0.00,,SKC,0.00,VWS V14.01,2013-01-17 18:01:00,
2013-01-18 08:02:00,47.7,36.5,30.26,NE,42,1.0,1.0,65,0.00,,FEW015,0.00,VWS V14.01,2013-01-17 18:02:00,
2013-01-18 08:03:00,47.7,36.5,30.26,NE,42,1.0,3.0,65,0.00,,SKC,0.00,VWS V14.01,2013-01-17 18:03:00,
2013-01-18 08:04:00,47.7,36.5,30.26,NE,42,2.0,2.0,65,0.00,,SKC,0.00,VWS V14.01,2013-01-17 18:04:00,
2013-01-18 08:05:00,47.6,36.4,30.26,NE,42,2.0,2.0,65,0.00,,SKC,0.00,VWS V14.01,2013-01-17 18:05:00,
2013-01-18 08:06:00,47.6,36.4,30.26,NE,42,0.0,2.0,65,0.00,,SKC,0.00,VWS V14.01,2013-01-17 18:06:00,
2013-01-18 08:07:00,47.6,36.8,30.26,NE,42,3.0,3.0,66,0.00,,FEW015,0.00,VWS V14.01,2013-01-17 18:07:00,
2013-01-18 08:08:00,47.5,36.7,30.26,NE,42,2.0,4.0,66,0.00,,SKC,0.00,VWS V14.01,2013-01-17 18:08:00,
2013-01-18 08:09:00,47.5,37.1,30.26,NE,42,3.0,3.0,67,0.00,,SKC,0.00,VWS V14.01,2013-01-17 18:09:00,
2013-01-18 08:10:00,47.4,37.4,30.26,NE,42,2.0,3.0,68,0.00,,SKC,0.00,VWS V14.01,2013-01-17 18:10:00,
2013-01-18 08:11:00,47.3,37.7,30.26,NE,42,2.0,2.0,69,0.00,,SKC,0.00,VWS V14.01,2013-01-17 18:11:00,
2013-01-18 08:12:00,47.0,37.7,30.26,NE,42,2.0,2.0,70,0.00,,FEW015,0.00,VWS V14.01,2013-01-17 18:12:00,
2013-01-18 08:13:00,47.0,37.7,30.26,NE,42,2.0,3.0,70,0.00,,SKC,0.00,VWS V14.01,2013-01-17 18:13:00,
2013-01-18 08:14:00,46.9,37.6,30.26,NE,42,1.0,2.0,70,0.00,,SKC,0.00,VWS V14.01,2013-01-17 18:14:00,
2013-01-18 08:15:00,46.8,37.9,30.26,NE,42,3.0,3.0,71,0.00,,SKC,0.00,VWS V14.01,2013-01-17 18:15:00,
2013-01-18 08:16:00,46.7,37.8,30.26,NE,42,2.0,4.0,71,0.00,,SKC,0.00,VWS V14.01,2013-01-17 18:16:00,
2013-01-18 08:17:00,46.6,37.7,30.26,NE,42,1.0,2.0,71,0.00,,FEW015,0.00,VWS V14.01,2013-01-17 18:17:00,
2013-01-18 08:18:00,46.6,37.7,30.26,NE,42,1.0,2.0,71,0.00,,SKC,0.00,VWS V14.01,2013-01-17 18:18:00,
2013-01-18 08:19:00,46.6,37.7,30.26,NE,42,0.0,2.0,71,0.00,,SKC,0.00,VWS V14.01,2013-01-17 18:19:00,
2013-01-18 08:20:00,46.6,38.1,30.26,NE,42,1.0,1.0,72,0.00,,SKC,0.00,VWS V14.01,2013-01-17 18:20:00,
2013-01-18 08:21:00,46.7,37.8,30.26,NE,42,1.0,2.0,71,0.00,,SKC,0.00,VWS V14.01,2013-01-17 18:21:00,
2013-01-18 08:22:00,46.6,37.7,30.26,NE,42,1.0,1.0,71,0.00,,FEW015,0.00,VWS V14.01,2013-01-17 18:22:00,
2013-01-18 08:23:00,46.6,38.1,30.26,NE,42,1.0,3.0,72,0.00,,SKC,0.00,VWS V14.01,2013-01-17 18:23:00,
2013-01-18 08:24:00,46.6,37.7,30.26,NE,42,1.0,1.0,71,0.00,,SKC,0.00,VWS V14.01,2013-01-17 18:24:00,
2013-01-18 08:25:00,46.7,37.8,30.26,NE,42,0.0,2.0,71,0.00,,SKC,0.00,VWS V14.01,2013-01-17 18:25:00,
2013-01-18 08:26:00,46.8,37.9,30.26,NE,42,0.0,1.0,71,0.00,,SKC,0.00,VWS V14.01,2013-01-17 18:26:00,
2013-01-18 08:27:00,46.9,38.0,30.26,NE,42,1.0,1.0,71,0.00,,FEW015,0.00,VWS V14.01,2013-01-17 18:27:00,
2013-01-18 08:28:00,46.8,37.9,30.26,NE,42,0.0,1.0,71,0.00,,SKC,0.00,VWS V14.01,2013-01-17 18:28:00,
2013-01-18 08:29:00,47.0,38.1,30.26,NE,42,1.0,2.0,71,0.00,,SKC,0.00,VWS V14.01,2013-01-17 18:29:00,
2013-01-18 08:32:00,47.4,38.1,30.26,NE,42,0.0,1.0,70,0.00,,FEW015,0.00,VWS V14.01,2013-01-17 18:32:00,
2013-01-18 08:33:00,47.4,38.1,30.26,NE,42,0.0,1.0,70,0.00,,SKC,0.00,VWS V14.01,2013-01-17 18:33:00,
2013-01-18 08:34:00,47.5,38.2,30.26,NE,42,0.0,1.0,70,0.00,,SKC,0.00,VWS V14.01,2013-01-17 18:34:00,
2013-01-18 08:35:00,47.6,38.3,30.26,NE,42,1.0,2.0,70,0.00,,SKC,0.00,VWS V14.01,2013-01-17 18:35:00,
2013-01-18 08:36:00,47.7,38.4,30.26,NE,42,0.0,1.0,70,0.00,,SKC,0.00,VWS V14.01,2013-01-17 18:36:00,
2013-01-18 08:37:00,47.8,38.1,30.25,NE,42,1.0,1.0,69,0.00,,FEW015,0.00,VWS V14.01,2013-01-17 18:37:00,
2013-01-18 08:38:00,47.8,38.1,30.26,NE,42,0.0,2.0,69,0.00,,SKC,0.00,VWS V14.01,2013-01-17 18:38:00,
2013-01-18 08:39:00,47.8,38.1,30.26,NE,42,1.0,1.0,69,0.00,,SKC,0.00,VWS V14.01,2013-01-17 18:39:00,
2013-01-18 08:40:00,47.8,38.1,30.25,NE,42,0.0,1.0,69,0.00,,SKC,0.00,VWS V14.01,2013-01-17 18:40:00,
2013-01-18 08:41:00,47.9,38.2,30.25,NE,42,0.0,0.0,69,0.00,,SKC,0.00,VWS V14.01,2013-01-17 18:41:00,
2013-01-18 08:42:00,48.0,38.3,30.25,NE,42,0.0,1.0,69,0.00,,FEW015,0.00,VWS V14.01,2013-01-17 18:42:00,
2013-01-18 08:43:00,47.9,38.2,30.25,NE,42,0.0,1.0,69,0.00,,SKC,0.00,VWS V14.01,2013-01-17 18:43:00,
2013-01-18 08:44:00,48.1,38.4,30.25,NE,42,0.0,1.0,69,0.00,,SKC,0.00,VWS V14.01,2013-01-17 18:44:00,
2013-01-18 08:45:00,48.2,38.5,30.25,NE,42,0.0,0.0,69,0.00,,SKC,0.00,VWS V14.01,2013-01-17 18:45:00,
2013-01-18 08:46:00,48.2,38.5,30.25,NE,42,2.0,2.0,69,0.00,,SKC,0.00,VWS V14.01,2013-01-17 18:46:00,
2013-01-18 08:47:00,48.4,38.3,30.25,NE,42,1.0,2.0,68,0.00,,FEW015,0.00,VWS V14.01,2013-01-17 18:47:00,
2013-01-18 08:48:00,48.3,38.2,30.25,NE,42,1.0,2.0,68,0.00,,SKC,0.00,VWS V14.01,2013-01-17 18:48:00,
2013-01-18 08:49:00,48.4,38.3,30.25,NE,42,1.0,2.0,68,0.00,,SKC,0.00,VWS V14.01,2013-01-17 18:49:00,
2013-01-18 08:50:00,48.5,38.4,30.25,NE,42,0.0,2.0,68,0.00,,SKC,0.00,VWS V14.01,2013-01-17 18:50:00,
2013-01-18 08:51:00,48.7,38.6,30.25,NE,42,1.0,2.0,68,0.00,,SKC,0.00,VWS V14.01,2013-01-17 18:51:00,
2013-01-18 08:52:00,49.0,38.2,30.25,NE,42,0.0,1.0,66,0.00,,FEW015,0.00,VWS V14.01,2013-01-17 18:52:00,
2013-01-18 08:53:00,48.9,38.1,30.25,NE,42,1.0,1.0,66,0.00,,SKC,0.00,VWS V14.01,2013-01-17 18:53:00,
2013-01-18 08:54:00,49.0,38.2,30.25,NE,42,0.0,1.0,66,0.00,,SKC,0.00,VWS V14.01,2013-01-17 18:54:00,
2013-01-18 08:55:00,49.1,38.2,30.25,NE,42,0.0,1.0,66,0.00,,SKC,0.00,VWS V14.01,2013-01-17 18:55:00,
2013-01-18 08:56:00,49.1,38.2,30.25,NE,42,0.0,1.0,66,0.00,,SKC,0.00,VWS V14.01,2013-01-17 18:56:00,
2013-01-18 08:57:00,49.4,38.5,30.25,NE,42,0.0,1.0,66,0.00,,FEW015,0.00,VWS V14.01,2013-01-17 18:57:00,
2013-01-18 08:59:00,49.5,38.6,30.25,NE,42,0.0,1.0,66,0.00,,SKC,0.00,VWS V14.01,2013-01-17 18:59:00,
2013-01-18 09:00:00,49.6,38.7,30.24,NE,42,1.0,1.0,66,0.00,,SKC,0.00,VWS V14.01,2013-01-17 19:00:00,
2013-01-18 09:01:00,49.6,38.3,30.24,NE,42,0.0,1.0,65,0.00,,SKC,0.00,VWS V14.01,2013-01-17 19:01:00,
2013-01-18 09:02:00,49.9,38.6,30.24,NE,42,0.0,0.0,65,0.00,,FEW150,0.00,VWS V14.01,2013-01-17 19:02:00,
2013-01-18 09:04:00,50.0,38.7,30.24,NE,42,0.0,1.0,65,0.00,,SKC,0.00,VWS V14.01,2013-01-17 19:04:00,
2013-01-18 09:05:00,50.2,38.9,30.24,NE,42,0.0,1.0,65,0.00,,SKC,0.00,VWS V14.01,2013-01-17 19:05:00,
2013-01-18 09:06:00,50.4,39.1,30.24,NE,42,1.0,1.0,65,0.00,,SKC,0.00,VWS V14.01,2013-01-17 19:06:00,
2013-01-18 09:07:00,50.7,38.2,30.24,NE,42,1.0,2.0,62,0.00,,FEW150,0.00,VWS V14.01,2013-01-17 19:07:00,
2013-01-18 09:09:00,50.7,38.6,30.24,NE,42,2.0,2.0,63,0.00,,SKC,0.00,VWS V14.01,2013-01-17 19:09:00,
2013-01-18 09:10:00,50.7,38.2,30.24,NE,42,0.0,2.0,62,0.00,,SKC,0.00,VWS V14.01,2013-01-17 19:10:00,
2013-01-18 09:11:00,50.8,38.3,30.24,NE,42,2.0,2.0,62,0.00,,SKC,0.00,VWS V14.01,2013-01-17 19:11:00,
2013-01-18 09:12:00,51.3,38.3,30.24,NE,42,0.0,1.0,61,0.00,,FEW150,0.00,VWS V14.01,2013-01-17 19:12:00,
2013-01-18 09:13:00,51.2,38.2,30.24,NE,42,0.0,1.0,61,0.00,,SKC,0.00,VWS V14.01,2013-01-17 19:13:00,
2013-01-18 09:14:00,51.3,38.3,30.24,NE,42,1.0,1.0,61,0.00,,SKC,0.00,VWS V14.01,2013-01-17 19:14:00,
2013-01-18 09:15:00,51.3,37.9,30.24,NE,42,0.0,1.0,60,0.00,,SKC,0.00,VWS V14.01,2013-01-17 19:15:00,
2013-01-18 09:16:00,51.3,37.9,30.24,NE,42,0.0,0.0,60,0.00,,SKC,0.00,VWS V14.01,2013-01-17 19:16:00,
2013-01-18 09:17:00,51.7,38.3,30.24,NE,42,0.0,1.0,60,0.00,,FEW150,0.00,VWS V14.01,2013-01-17 19:17:00,
2013-01-18 09:18:00,51.6,38.6,30.24,NE,42,0.0,1.0,61,0.00,,SKC,0.00,VWS V14.01,2013-01-17 19:18:00,
2013-01-18 09:19:00,51.8,38.4,30.24,NE,42,0.0,1.0,60,0.00,,SKC,0.00,VWS V14.01,2013-01-17 19:19:00,
2013-01-18 09:20:00,52.1,38.7,30.24,NE,42,0.0,1.0,60,0.00,,SKC,0.00,VWS V14.01,2013-01-17 19:20:00,
2013-01-18 09:21:00,52.4,39.4,30.23,NE,42,1.0,1.0,61,0.00,,SKC,0.00,VWS V14.01,2013-01-17 19:21:00,
2013-01-18 09:22:00,53.1,39.2,30.23,NE,42,0.0,1.0,59,0.00,,FEW150,0.00,VWS V14.01,2013-01-17 19:22:00,
2013-01-18 09:23:00,53.0,39.5,30.23,NE,42,0.0,1.0,60,0.00,,SKC,0.00,VWS V14.01,2013-01-17 19:23:00,
2013-01-18 09:24:00,53.2,39.3,30.23,NE,42,0.0,1.0,59,0.00,,SKC,0.00,VWS V14.01,2013-01-17 19:24:00,
2013-01-18 09:25:00,53.1,38.7,30.23,NE,42,0.0,1.0,58,0.00,,SKC,0.00,VWS V14.01,2013-01-17 19:25:00,
2013-01-18 09:26:00,53.0,38.6,30.23,NE,42,0.0,1.0,58,0.00,,SKC,0.00,VWS V14.01,2013-01-17 19:26:00,
2013-01-18 09:27:00,52.8,38.5,30.23,NE,42,0.0,1.0,58,0.00,,FEW150,0.00,VWS V14.01,2013-01-17 19:27:00,
2013-01-18 09:28:00,52.8,38.5,30.23,NE,42,0.0,1.0,58,0.00,,SKC,0.00,VWS V14.01,2013-01-17 19:28:00,
2013-01-18 09:29:00,52.9,38.5,30.23,NE,42,0.0,1.0,58,0.00,,SKC,0.00,VWS V14.01,2013-01-17 19:29:00,
2013-01-18 09:30:00,52.9,38.1,30.23,NE,42,1.0,1.0,57,0.00,,SKC,0.00,VWS V14.01,2013-01-17 19:30:00,
2013-01-18 09:31:00,53.0,37.7,30.23,NE,42,1.0,1.0,56,0.00,,SKC,0.00,VWS V14.01,2013-01-17 19:31:00,
2013-01-18 09:32:00,53.2,37.5,30.23,NE,42,1.0,3.0,55,0.00,,FEW150,0.00,VWS V14.01,2013-01-17 19:32:00,
2013-01-18 09:33:00,53.1,37.4,30.23,NE,42,0.0,0.0,55,0.00,,SKC,0.00,VWS V14.01,2013-01-17 19:33:00,
2013-01-18 09:34:00,53.3,37.6,30.23,NE,42,1.0,3.0,55,0.00,,SKC,0.00,VWS V14.01,2013-01-17 19:34:00,
2013-01-18 09:35:00,53.4,37.7,30.23,NE,42,1.0,2.0,55,0.00,,SKC,0.00,VWS V14.01,2013-01-17 19:35:00,
2013-01-18 09:36:00,53.4,37.7,30.23,NE,42,0.0,1.0,55,0.00,,SKC,0.00,VWS V14.01,2013-01-17 19:36:00,
2013-01-18 09:37:00,53.7,37.9,30.22,NE,42,0.0,1.0,55,0.00,,FEW150,0.00,VWS V14.01,2013-01-17 19:37:00,
2013-01-18 09:39:00,53.8,38.0,30.22,NE,42,0.0,1.0,55,0.00,,SKC,0.00,VWS V14.01,2013-01-17 19:39:00,
2013-01-18 09:40:00,53.8,38.0,30.22,NE,42,0.0,1.0,55,0.00,,SKC,0.00,VWS V14.01,2013-01-17 19:40:00,
2013-01-18 09:41:00,53.8,37.6,30.22,NE,42,1.0,1.0,54,0.00,,SKC,0.00,VWS V14.01,2013-01-17 19:41:00,
2013-01-18 09:42:00,54.1,37.4,30.22,NE,42,0.0,0.0,53,0.00,,FEW150,0.00,VWS V14.01,2013-01-17 19:42:00,
2013-01-18 09:43:00,54.0,37.3,30.22,NE,42,0.0,0.0,53,0.00,,SKC,0.00,VWS V14.01,2013-01-17 19:43:00,
2013-01-18 09:44:00,54.1,37.4,30.22,NE,42,0.0,1.0,53,0.00,,SKC,0.00,VWS V14.01,2013-01-17 19:44:00,
2013-01-18 09:45:00,54.1,36.9,30.22,NE,42,1.0,2.0,52,0.00,,SKC,0.00,VWS V14.01,2013-01-17 19:45:00,
2013-01-18 09:46:00,54.1,36.9,30.22,NE,42,0.0,1.0,52,0.00,,SKC,0.00,VWS V14.01,2013-01-17 19:46:00,
2013-01-18 09:47:00,54.2,36.5,30.22,NE,42,2.0,3.0,51,0.00,,FEW150,0.00,VWS V14.01,2013-01-17 19:47:00,
2013-01-18 09:48:00,54.2,36.5,30.22,NE,42,3.0,3.0,51,0.00,,SKC,0.00,VWS V14.01,2013-01-17 19:48:00,
2013-01-18 09:49:00,54.2,36.5,30.22,NE,42,2.0,3.0,51,0.00,,SKC,0.00,VWS V14.01,2013-01-17 19:49:00,
2013-01-18 09:50:00,54.1,36.4,30.22,NE,42,0.0,2.0,51,0.00,,SKC,0.00,VWS V14.01,2013-01-17 19:50:00,
2013-01-18 09:51:00,54.0,36.3,30.22,NE,42,1.0,2.0,51,0.00,,SKC,0.00,VWS V14.01,2013-01-17 19:51:00,
2013-01-18 09:52:00,54.1,36.4,30.22,NE,42,0.0,0.0,51,0.00,,FEW150,0.00,VWS V14.01,2013-01-17 19:52:00,
2013-01-18 09:53:00,54.1,36.4,30.22,NE,42,0.0,1.0,51,0.00,,SKC,0.00,VWS V14.01,2013-01-17 19:53:00,
2013-01-18 09:54:00,54.2,37.0,30.21,NE,42,0.0,0.0,52,0.00,,SKC,0.00,VWS V14.01,2013-01-17 19:54:00,
2013-01-18 09:55:00,54.3,36.6,30.21,NE,42,2.0,3.0,51,0.00,,SKC,0.00,VWS V14.01,2013-01-17 19:55:00,
2013-01-18 09:56:00,54.3,35.6,30.21,NE,42,0.0,3.0,49,0.00,,SKC,0.00,VWS V14.01,2013-01-17 19:56:00,
2013-01-18 09:57:00,54.4,36.2,30.21,NE,42,0.0,3.0,50,0.00,,FEW150,0.00,VWS V14.01,2013-01-17 19:57:00,
2013-01-18 09:58:00,54.4,36.2,30.21,NE,42,3.0,3.0,50,0.00,,SKC,0.00,VWS V14.01,2013-01-17 19:58:00,
2013-01-18 09:59:00,54.3,36.1,30.21,NE,42,0.0,3.0,50,0.00,,SKC,0.00,VWS V14.01,2013-01-17 19:59:00,
2013-01-18 10:00:00,54.5,36.3,30.21,NE,42,1.0,1.0,50,0.00,,SKC,0.00,VWS V14.01,2013-01-17 20:00:00,
2013-01-18 10:01:00,54.6,36.3,30.21,NE,42,0.0,2.0,50,0.00,,SKC,0.00,VWS V14.01,2013-01-17 20:01:00,
2013-01-18 10:02:00,54.8,36.0,30.21,NE,42,0.0,1.0,49,0.00,,FEW150,0.00,VWS V14.01,2013-01-17 20:02:00,
2013-01-18 10:03:00,54.8,36.5,30.21,NE,42,1.0,2.0,50,0.00,,SKC,0.00,VWS V14.01,2013-01-17 20:03:00,
2013-01-18 10:04:00,54.8,36.0,30.21,NE,42,0.0,1.0,49,0.00,,SKC,0.00,VWS V14.01,2013-01-17 20:04:00,
2013-01-18 10:06:00,55.1,36.8,30.20,NE,42,1.0,1.0,50,0.00,,SKC,0.00,VWS V14.01,2013-01-17 20:06:00,
2013-01-18 10:07:00,55.4,37.1,30.20,NE,42,0.0,1.0,50,0.00,,FEW150,0.00,VWS V14.01,2013-01-17 20:07:00,
2013-01-18 10:08:00,55.3,37.0,30.20,NE,42,0.0,1.0,50,0.00,,SKC,0.00,VWS V14.01,2013-01-17 20:08:00,
2013-01-18 10:09:00,55.4,37.1,30.20,NE,42,0.0,1.0,50,0.00,,SKC,0.00,VWS V14.01,2013-01-17 20:09:00,
2013-01-18 10:10:00,55.5,36.7,30.20,NE,42,1.0,2.0,49,0.00,,SKC,0.00,VWS V14.01,2013-01-17 20:10:00,
2013-01-18 10:11:00,55.8,36.9,30.20,NE,42,1.0,1.0,49,0.00,,SKC,0.00,VWS V14.01,2013-01-17 20:11:00,
2013-01-18 10:12:00,55.9,36.0,30.20,NE,42,0.0,0.0,47,0.00,,FEW150,0.00,VWS V14.01,2013-01-17 20:12:00,
2013-01-18 10:13:00,56.0,36.1,30.20,NE,42,0.0,2.0,47,0.00,,SKC,0.00,VWS V14.01,2013-01-17 20:13:00,
2013-01-18 10:14:00,55.9,36.5,30.20,NE,42,0.0,1.0,48,0.00,,SKC,0.00,VWS V14.01,2013-01-17 20:14:00,
2013-01-18 10:15:00,55.8,36.4,30.20,NE,42,1.0,1.0,48,0.00,,SKC,0.00,VWS V14.01,2013-01-17 20:15:00,
2013-01-18 10:16:00,55.8,36.4,30.20,NE,42,1.0,2.0,48,0.00,,SKC,0.00,VWS V14.01,2013-01-17 20:16:00,
2013-01-18 10:17:00,55.9,36.5,30.20,NE,42,3.0,3.0,48,0.00,,FEW150,0.00,VWS V14.01,2013-01-17 20:17:00,
2013-01-18 10:18:00,55.9,36.5,30.20,NE,42,1.0,1.0,48,0.00,,SKC,0.00,VWS V14.01,2013-01-17 20:18:00,
2013-01-18 10:19:00,55.8,36.4,30.20,NE,42,1.0,3.0,48,0.00,,SKC,0.00,VWS V14.01,2013-01-17 20:19:00,
2013-01-18 10:20:00,55.7,36.3,30.20,NE,42,1.0,2.0,48,0.00,,SKC,0.00,VWS V14.01,2013-01-17 20:20:00,
2013-01-18 10:21:00,55.5,36.2,30.20,NE,42,1.0,3.0,48,0.00,,SKC,0.00,VWS V14.01,2013-01-17 20:21:00,
2013-01-18 10:22:00,55.7,36.8,30.20,NE,42,3.0,3.0,49,0.00,,FEW150,0.00,VWS V14.01,2013-01-17 20:22:00,
2013-01-18 10:23:00,55.5,36.2,30.20,NE,42,1.0,2.0,48,0.00,,SKC,0.00,VWS V14.01,2013-01-17 20:23:00,
2013-01-18 10:24:00,55.7,36.3,30.20,NE,42,3.0,3.0,48,0.00,,SKC,0.00,VWS V14.01,2013-01-17 20:24:00,
2013-01-18 10:25:00,55.5,36.2,30.20,NE,42,2.0,3.0,48,0.00,,SKC,0.00,VWS V14.01,2013-01-17 20:25:00,
2013-01-18 10:26:00,55.4,36.1,30.20,NE,42,1.0,2.0,48,0.00,,SKC,0.00,VWS V14.01,2013-01-17 20:26:00,
2013-01-18 10:27:00,55.7,36.8,30.20,NE,42,0.0,0.0,49,0.00,,FEW150,0.00,VWS V14.01,2013-01-17 20:27:00,
2013-01-18 10:28:00,55.5,36.7,30.20,NE,42,0.0,1.0,49,0.00,,SKC,0.00,VWS V14.01,2013-01-17 20:28:00,
2013-01-18 10:29:00,55.9,37.0,30.20,NE,42,0.0,0.0,49,0.00,,SKC,0.00,VWS V14.01,2013-01-17 20:29:00,
2013-01-18 10:30:00,56.2,37.3,30.20,NE,44,1.0,2.0,49,0.00,,SKC,0.00,VWS V14.01,2013-01-17 20:30:00,
2013-01-18 10:31:00,56.4,37.5,30.20,NE,44,0.0,1.0,49,0.00,,SKC,0.00,VWS V14.01,2013-01-17 20:31:00,
2013-01-18 10:32:00,56.7,37.2,30.20,NE,44,0.0,0.0,48,0.00,,FEW150,0.00,VWS V14.01,2013-01-17 20:32:00,
2013-01-18 10:33:00,56.6,37.2,30.20,NE,44,0.0,1.0,48,0.00,,SKC,0.00,VWS V14.01,2013-01-17 20:33:00,
2013-01-18 10:34:00,56.7,37.2,30.20,NE,44,0.0,1.0,48,0.00,,SKC,0.00,VWS V14.01,2013-01-17 20:34:00,
2013-01-18 10:35:00,56.8,37.3,30.20,NE,44,0.0,1.0,48,0.00,,SKC,0.00,VWS V14.01,2013-01-17 20:35:00,
2013-01-18 10:36:00,57.1,37.6,30.20,NE,44,1.0,1.0,48,0.00,,SKC,0.00,VWS V14.01,2013-01-17 20:36:00,
2013-01-18 10:37:00,56.9,37.4,30.19,NE,47,1.0,2.0,48,0.00,,FEW150,0.00,VWS V14.01,2013-01-17 20:37:00,
2013-01-18 10:38:00,57.0,37.0,30.19,NE,47,2.0,4.0,47,0.00,,SKC,0.00,VWS V14.01,2013-01-17 20:38:00,
2013-01-18 10:39:00,56.9,37.4,30.19,NE,47,2.0,2.0,48,0.00,,SKC,0.00,VWS V14.01,2013-01-17 20:39:00,
2013-01-18 10:40:00,56.6,37.2,30.19,NE,46,3.0,4.0,48,0.00,,SKC,0.00,VWS V14.01,2013-01-17 20:40:00,
2013-01-18 10:41:00,56.5,37.1,30.19,NE,46,2.0,3.0,48,0.00,,SKC,0.00,VWS V14.01,2013-01-17 20:41:00,
2013-01-18 10:42:00,56.4,37.5,30.19,NE,46,1.0,1.0,49,0.00,,FEW150,0.00,VWS V14.01,2013-01-17 20:42:00,
2013-01-18 10:44:00,56.4,37.5,30.19,NE,46,3.0,3.0,49,0.00,,SKC,0.00,VWS V14.01,2013-01-17 20:44:00,
2013-01-18 10:45:00,56.4,37.5,30.19,NE,43,2.0,5.0,49,0.00,,SKC,0.00,VWS V14.01,2013-01-17 20:45:00,
2013-01-18 10:46:00,56.4,37.5,30.19,NE,43,1.0,2.0,49,0.00,,SKC,0.00,VWS V14.01,2013-01-17 20:46:00,
2013-01-18 10:47:00,56.7,37.2,30.19,NE,44,0.0,0.0,48,0.00,,FEW150,0.00,VWS V14.01,2013-01-17 20:47:00,
2013-01-18 10:48:00,56.6,37.2,30.19,NE,44,0.0,3.0,48,0.00,,SKC,0.00,VWS V14.01,2013-01-17 20:48:00,
2013-01-18 10:49:00,56.9,37.4,30.19,NE,44,1.0,1.0,48,0.00,,SKC,0.00,VWS V14.01,2013-01-17 20:49:00,
2013-01-18 10:50:00,57.1,37.6,30.19,NE,44,1.0,2.0,48,0.00,,SKC,0.00,VWS V14.01,2013-01-17 20:50:00,
2013-01-18 10:51:00,57.1,37.6,30.19,NE,53,2.0,2.0,48,0.00,,SKC,0.00,VWS V14.01,2013-01-17 20:51:00,
2013-01-18 10:52:00,57.6,38.1,30.19,NE,53,0.0,1.0,48,0.00,,FEW150,0.00,VWS V14.01,2013-01-17 20:52:00,
2013-01-18 10:53:00,57.6,38.1,30.19,NE,53,0.0,1.0,48,0.00,,SKC,0.00,VWS V14.01,2013-01-17 20:53:00,
2013-01-18 10:55:00,57.5,38.0,30.19,NE,53,1.0,2.0,48,0.00,,SKC,0.00,VWS V14.01,2013-01-17 20:55:00,
2013-01-18 10:56:00,57.5,37.5,30.19,NE,53,2.0,2.0,47,0.00,,SKC,0.00,VWS V14.01,2013-01-17 20:56:00,
2013-01-18 10:57:00,57.6,37.5,30.19,NE,53,1.0,1.0,47,0.00,,FEW150,0.00,VWS V14.01,2013-01-17 20:57:00,
2013-01-18 10:58:00,57.4,37.3,30.19,NE,53,0.0,1.0,47,0.00,,SKC,0.00,VWS V14.01,2013-01-17 20:58:00,
2013-01-18 11:00:00,57.6,38.1,30.19,NE,53,0.0,0.0,48,0.00,,SKC,0.00,VWS V14.01,2013-01-17 21:00:00,
2013-01-18 11:02:00,58.3,38.2,30.18,NE,36,0.0,1.0,47,0.00,,FEW150,0.00,VWS V14.01,2013-01-17 21:02:00,
2013-01-18 11:03:00,58.2,38.1,30.18,NE,36,1.0,2.0,47,0.00,,SKC,0.00,VWS V14.01,2013-01-17 21:03:00,
2013-01-18 11:04:00,58.4,38.3,30.18,NE,36,0.0,1.0,47,0.00,,SKC,0.00,VWS V14.01,2013-01-17 21:04:00,
2013-01-18 11:06:00,58.6,37.9,30.18,NE,36,1.0,2.0,46,0.00,,SKC,0.00,VWS V14.01,2013-01-17 21:06:00,
2013-01-18 11:07:00,58.5,38.4,30.18,NE,36,0.0,1.0,47,0.00,,FEW150,0.00,VWS V14.01,2013-01-17 21:07:00,
2013-01-18 11:08:00,58.6,37.9,30.18,NE,36,1.0,1.0,46,0.00,,SKC,0.00,VWS V14.01,2013-01-17 21:08:00,
2013-01-18 11:09:00,58.5,38.4,30.18,NE,36,1.0,1.0,47,0.00,,SKC,0.00,VWS V14.01,2013-01-17 21:09:00,
2013-01-18 11:10:00,58.6,37.9,30.18,NE,36,0.0,1.0,46,0.00,,SKC,0.00,VWS V14.01,2013-01-17 21:10:00,
2013-01-18 11:11:00,58.7,38.0,30.18,NE,36,0.0,1.0,46,0.00,,SKC,0.00,VWS V14.01,2013-01-17 21:11:00,
2013-01-18 11:12:00,58.9,38.2,30.18,East,101,1.0,1.0,46,0.00,,FEW150,0.00,VWS V14.01,2013-01-17 21:12:00,
2013-01-18 11:13:00,58.9,38.7,30.18,East,101,0.0,1.0,47,0.00,,SKC,0.00,VWS V14.01,2013-01-17 21:13:00,
2013-01-18 11:14:00,59.0,38.3,30.18,East,101,1.0,2.0,46,0.00,,SKC,0.00,VWS V14.01,2013-01-17 21:14:00,
2013-01-18 11:15:00,59.0,38.3,30.18,East,101,1.0,1.0,46,0.00,,SKC,0.00,VWS V14.01,2013-01-17 21:15:00,
2013-01-18 11:16:00,59.0,38.8,30.18,East,101,0.0,1.0,47,0.00,,SKC,0.00,VWS V14.01,2013-01-17 21:16:00,
2013-01-18 11:17:00,59.7,38.9,30.18,East,101,0.0,1.0,46,0.00,,FEW150,0.00,VWS V14.01,2013-01-17 21:17:00,
2013-01-18 11:18:00,59.5,38.7,30.18,East,101,0.0,1.0,46,0.00,,SKC,0.00,VWS V14.01,2013-01-17 21:18:00,
2013-01-18 11:19:00,59.8,38.4,30.18,SE,129,3.0,3.0,45,0.00,,SKC,0.00,VWS V14.01,2013-01-17 21:19:00,
2013-01-18 11:20:00,60.2,39.4,30.18,SE,129,0.0,3.0,46,0.00,,SKC,0.00,VWS V14.01,2013-01-17 21:20:00,
2013-01-18 11:21:00,60.7,39.3,30.18,SE,129,1.0,1.0,45,0.00,,SKC,0.00,VWS V14.01,2013-01-17 21:21:00,
2013-01-18 11:22:00,61.0,39.0,30.18,SE,129,1.0,2.0,44,0.00,,FEW150,0.00,VWS V14.01,2013-01-17 21:22:00,
2013-01-18 11:23:00,61.1,39.0,30.18,SE,129,0.0,2.0,44,0.00,,SKC,0.00,VWS V14.01,2013-01-17 21:23:00,
2013-01-18 11:24:00,60.8,38.8,30.18,SE,129,2.0,2.0,44,0.00,,SKC,0.00,VWS V14.01,2013-01-17 21:24:00,
2013-01-18 11:25:00,60.5,38.5,30.17,SE,129,0.0,2.0,44,0.00,,SKC,0.00,VWS V14.01,2013-01-17 21:25:00,
2013-01-18 11:26:00,60.4,38.4,30.17,SE,129,1.0,1.0,44,0.00,,SKC,0.00,VWS V14.01,2013-01-17 21:26:00,
2013-01-18 11:27:00,60.3,38.9,30.17,SE,129,1.0,2.0,45,0.00,,FEW150,0.00,VWS V14.01,2013-01-17 21:27:00,
2013-01-18 11:28:00,60.3,38.9,30.17,SE,129,2.0,2.0,45,0.00,,SKC,0.00,VWS V14.01,2013-01-17 21:28:00,
2013-01-18 11:29:00,60.2,38.8,30.17,SE,129,1.0,2.0,45,0.00,,SKC,0.00,VWS V14.01,2013-01-17 21:29:00,
2013-01-18 11:30:00,60.2,38.8,30.17,SE,129,0.0,3.0,45,0.00,,SKC,0.00,VWS V14.01,2013-01-17 21:30:00,
2013-01-18 11:31:00,60.1,38.7,30.17,ESE,119,1.0,5.0,45,0.00,,SKC,0.00,VWS V14.01,2013-01-17 21:31:00,
2013-01-18 11:32:00,60.1,39.8,30.17,East,91,2.0,2.0,47,0.00,,FEW150,0.00,VWS V14.01,2013-01-17 21:32:00,
2013-01-18 11:33:00,59.9,39.1,30.17,SE,142,0.0,3.0,46,0.00,,SKC,0.00,VWS V14.01,2013-01-17 21:33:00,
2013-01-18 11:34:00,60.1,39.3,30.17,ENE,75,2.0,3.0,46,0.00,,SKC,0.00,VWS V14.01,2013-01-17 21:34:00,
2013-01-18 11:35:00,60.0,38.6,30.17,ENE,75,0.0,3.0,45,0.00,,SKC,0.00,VWS V14.01,2013-01-17 21:35:00,
2013-01-18 11:36:00,59.9,38.5,30.17,ENE,74,3.0,3.0,45,0.00,,SKC,0.00,VWS V14.01,2013-01-17 21:36:00,
2013-01-18 11:37:00,60.0,39.2,30.17,ENE,74,0.0,2.0,46,0.00,,FEW150,0.00,VWS V14.01,2013-01-17 21:37:00,
2013-01-18 11:38:00,59.9,39.1,30.17,ENE,74,1.0,1.0,46,0.00,,SKC,0.00,VWS V14.01,2013-01-17 21:38:00,
2013-01-18 11:39:00,60.0,39.2,30.17,ENE,64,2.0,3.0,46,0.00,,SKC,0.00,VWS V14.01,2013-01-17 21:39:00,
2013-01-18 11:40:00,59.9,39.1,30.17,ENE,64,0.0,2.0,46,0.00,,SKC,0.00,VWS V14.01,2013-01-17 21:40:00,
2013-01-18 11:41:00,59.8,39.0,30.17,ENE,64,0.0,0.0,46,0.00,,SKC,0.00,VWS V14.01,2013-01-17 21:41:00,
2013-01-18 11:42:00,60.0,39.2,30.17,East,98,2.0,2.0,46,0.00,,FEW150,0.00,VWS V14.01,2013-01-17 21:42:00,
2013-01-18 11:43:00,59.9,39.1,30.17,ENE,64,0.0,1.0,46,0.00,,SKC,0.00,VWS V14.01,2013-01-17 21:43:00,
2013-01-18 11:44:00,60.0,39.2,30.17,East,101,1.0,3.0,46,0.00,,SKC,0.00,VWS V14.01,2013-01-17 21:44:00,
2013-01-18 11:45:00,60.0,39.2,30.17,ENE,71,2.0,4.0,46,0.00,,SKC,0.00,VWS V14.01,2013-01-17 21:45:00,
2013-01-18 11:46:00,60.1,39.3,30.17,ENE,71,0.0,3.0,46,0.00,,SKC,0.00,VWS V14.01,2013-01-17 21:46:00,
2013-01-18 11:47:00,60.0,38.6,30.17,SE,131,1.0,2.0,45,0.00,,FEW150,0.00,VWS V14.01,2013-01-17 21:47:00,
2013-01-18 11:48:00,60.0,38.6,30.17,ENE,71,1.0,2.0,45,0.00,,SKC,0.00,VWS V14.01,2013-01-17 21:48:00,
2013-01-18 11:49:00,60.0,39.2,30.17,SE,127,0.0,3.0,46,0.00,,SKC,0.00,VWS V14.01,2013-01-17 21:49:00,
2013-01-18 11:50:00,60.0,39.2,30.17,SE,127,0.0,2.0,46,0.00,,SKC,0.00,VWS V14.01,2013-01-17 21:50:00,
2013-01-18 11:51:00,60.2,39.4,30.17,SE,127,0.0,2.0,46,0.00,,SKC,0.00,VWS V14.01,2013-01-17 21:51:00,
2013-01-18 11:52:00,60.5,39.6,30.17,SE,127,2.0,3.0,46,0.00,,FEW150,0.00,VWS V14.01,2013-01-17 21:52:00,
2013-01-18 11:53:00,60.5,39.6,30.17,SE,127,0.0,2.0,46,0.00,,SKC,0.00,VWS V14.01,2013-01-17 21:53:00,
2013-01-18 11:54:00,60.5,39.1,30.17,SE,127,0.0,3.0,45,0.00,,SKC,0.00,VWS V14.01,2013-01-17 21:54:00,
2013-01-18 11:55:00,60.5,39.1,30.17,SE,127,1.0,1.0,45,0.00,,SKC,0.00,VWS V14.01,2013-01-17 21:55:00,
2013-01-18 11:56:00,60.6,40.3,30.16,SE,126,1.0,2.0,47,0.00,,SKC,0.00,VWS V14.01,2013-01-17 21:56:00,
2013-01-18 11:57:00,60.7,39.3,30.16,East,83,1.0,1.0,45,0.00,,FEW150,0.00,VWS V14.01,2013-01-17 21:57:00,
2013-01-18 11:58:00,60.7,39.3,30.16,East,85,1.0,2.0,45,0.00,,SKC,0.00,VWS V14.01,2013-01-17 21:58:00,
2013-01-18 11:59:00,60.8,39.3,30.16,East,83,0.0,2.0,45,0.00,,SKC,0.00,VWS V14.01,2013-01-17 21:59:00,
2013-01-18 12:00:00,60.9,39.4,30.16,ENE,68,3.0,4.0,45,0.00,,SKC,0.00,VWS V14.01,2013-01-17 22:00:00,
2013-01-18 12:01:00,60.8,39.3,30.16,ENE,68,1.0,3.0,45,0.00,,SKC,0.00,VWS V14.01,2013-01-17 22:01:00,
2013-01-18 12:02:00,60.6,39.7,30.16,ENE,57,2.0,3.0,46,0.00,,FEW150,0.00,VWS V14.01,2013-01-17 22:02:00,
2013-01-18 12:03:00,60.6,39.7,30.16,ENE,68,1.0,3.0,46,0.00,,SKC,0.00,VWS V14.01,2013-01-17 22:03:00,
2013-01-18 12:04:00,60.5,39.6,30.16,NE,51,1.0,3.0,46,0.00,,SKC,0.00,VWS V14.01,2013-01-17 22:04:00,
2013-01-18 12:05:00,60.6,39.7,30.16,NE,51,1.0,2.0,46,0.00,,SKC,0.00,VWS V14.01,2013-01-17 22:05:00,
2013-01-18 12:06:00,60.7,39.8,30.16,NE,54,5.0,5.0,46,0.00,,SKC,0.00,VWS V14.01,2013-01-17 22:06:00,
2013-01-18 12:07:00,60.5,39.1,30.16,ENE,58,0.0,2.0,45,0.00,,FEW150,0.00,VWS V14.01,2013-01-17 22:07:00,
2013-01-18 12:08:00,60.5,39.1,30.16,ENE,58,2.0,2.0,45,0.00,,SKC,0.00,VWS V14.01,2013-01-17 22:08:00,
2013-01-18 12:09:00,60.5,39.1,30.16,ENE,58,1.0,2.0,45,0.00,,SKC,0.00,VWS V14.01,2013-01-17 22:09:00,
2013-01-18 12:10:00,60.5,39.6,30.16,ENE,58,0.0,3.0,46,0.00,,SKC,0.00,VWS V14.01,2013-01-17 22:10:00,
2013-01-18 12:11:00,60.6,39.7,30.16,ENE,58,2.0,2.0,46,0.00,,SKC,0.00,VWS V14.01,2013-01-17 22:11:00,
2013-01-18 12:12:00,60.5,39.1,30.16,ENE,58,2.0,2.0,45,0.00,,FEW150,0.00,VWS V14.01,2013-01-17 22:12:00,
2013-01-18 12:13:00,60.5,39.1,30.16,ENE,58,1.0,3.0,45,0.00,,SKC,0.00,VWS V14.01,2013-01-17 22:13:00,
2013-01-18 12:14:00,60.5,39.1,30.16,ENE,58,0.0,2.0,45,0.00,,SKC,0.00,VWS V14.01,2013-01-17 22:14:00,
2013-01-18 12:15:00,60.5,39.1,30.16,ENE,58,1.0,2.0,45,0.00,,SKC,0.00,VWS V14.01,2013-01-17 22:15:00,
2013-01-18 12:16:00,60.4,39.0,30.16,ENE,58,1.0,1.0,45,0.00,,SKC,0.00,VWS V14.01,2013-01-17 22:16:00,
2013-01-18 12:17:00,60.7,39.3,30.16,ENE,58,2.0,2.0,45,0.00,,FEW150,0.00,VWS V14.01,2013-01-17 22:17:00,
2013-01-18 12:18:00,60.7,39.3,30.16,ENE,58,1.0,2.0,45,0.00,,SKC,0.00,VWS V14.01,2013-01-17 22:18:00,
2013-01-18 12:20:00,60.9,39.4,30.16,ENE,58,1.0,1.0,45,0.00,,SKC,0.00,VWS V14.01,2013-01-17 22:20:00,
2013-01-18 12:21:00,61.3,39.8,30.16,ENE,58,0.0,1.0,45,0.00,,SKC,0.00,VWS V14.01,2013-01-17 22:21:00,
2013-01-18 12:22:00,61.1,39.0,30.16,ENE,58,0.0,2.0,44,0.00,,FEW150,0.00,VWS V14.01,2013-01-17 22:22:00,
2013-01-18 12:23:00,61.2,39.1,30.16,ENE,58,2.0,4.0,44,0.00,,SKC,0.00,VWS V14.01,2013-01-17 22:23:00,
2013-01-18 12:25:00,60.9,38.9,30.16,ENE,58,0.0,3.0,44,0.00,,SKC,0.00,VWS V14.01,2013-01-17 22:25:00,
2013-01-18 12:26:00,60.8,39.3,30.16,ENE,58,1.0,1.0,45,0.00,,SKC,0.00,VWS V14.01,2013-01-17 22:26:00,
2013-01-18 12:27:00,61.2,39.7,30.16,NNE,28,2.0,3.0,45,0.00,,FEW150,0.00,VWS V14.01,2013-01-17 22:27:00,
2013-01-18 12:28:00,61.2,39.7,30.16,North,355,2.0,4.0,45,0.00,,SKC,0.00,VWS V14.01,2013-01-17 22:28:00,
2013-01-18 12:29:00,61.2,39.1,30.16,NNE,28,0.0,3.0,44,0.00,,SKC,0.00,VWS V14.01,2013-01-17 22:29:00,
2013-01-18 12:30:00,61.3,39.2,30.16,NNE,28,1.0,2.0,44,0.00,,SKC,0.00,VWS V14.01,2013-01-17 22:30:00,
2013-01-18 12:31:00,61.2,39.7,30.16,NNE,28,1.0,2.0,45,0.00,,SKC,0.00,VWS V14.01,2013-01-17 22:31:00,
2013-01-18 12:32:00,61.3,39.8,30.15,NNE,28,3.0,3.0,45,0.00,,FEW150,0.00,VWS V14.01,2013-01-17 22:32:00,
2013-01-18 12:33:00,61.2,39.7,30.16,NNE,28,1.0,1.0,45,0.00,,SKC,0.00,VWS V14.01,2013-01-17 22:33:00,
2013-01-18 12:34:00,61.3,39.2,30.15,NNE,26,2.0,3.0,44,0.00,,SKC,0.00,VWS V14.01,2013-01-17 22:34:00,
2013-01-18 12:35:00,61.4,39.3,30.16,NNE,26,1.0,2.0,44,0.00,,SKC,0.00,VWS V14.01,2013-01-17 22:35:00,
2013-01-18 12:36:00,61.3,39.2,30.16,NNE,29,1.0,2.0,44,0.00,,SKC,0.00,VWS V14.01,2013-01-17 22:36:00,
2013-01-18 12:37:00,61.0,39.5,30.15,NNE,29,1.0,1.0,45,0.00,,FEW150,0.00,VWS V14.01,2013-01-17 22:37:00,
2013-01-18 12:38:00,60.9,39.4,30.16,NNE,29,0.0,1.0,45,0.00,,SKC,0.00,VWS V14.01,2013-01-17 22:38:00,
2013-01-18 12:39:00,61.1,39.6,30.15,NNE,29,1.0,2.0,45,0.00,,SKC,0.00,VWS V14.01,2013-01-17 22:39:00,
2013-01-18 12:40:00,61.1,39.0,30.15,NNE,32,1.0,3.0,44,0.00,,SKC,0.00,VWS V14.01,2013-01-17 22:40:00,
2013-01-18 12:41:00,61.0,39.0,30.15,NNE,32,1.0,2.0,44,0.00,,SKC,0.00,VWS V14.01,2013-01-17 22:41:00,
2013-01-18 12:42:00,61.0,39.0,30.15,NE,39,0.0,0.0,44,0.00,,FEW150,0.00,VWS V14.01,2013-01-17 22:42:00,
2013-01-18 12:43:00,61.0,39.0,30.15,NE,39,0.0,2.0,44,0.00,,SKC,0.00,VWS V14.01,2013-01-17 22:43:00,
2013-01-18 12:44:00,61.3,39.2,30.15,NE,39,1.0,2.0,44,0.00,,SKC,0.00,VWS V14.01,2013-01-17 22:44:00,
2013-01-18 12:45:00,61.5,39.4,30.15,NE,39,0.0,1.0,44,0.00,,SKC,0.00,VWS V14.01,2013-01-17 22:45:00,
2013-01-18 12:46:00,61.4,38.7,30.15,NE,39,0.0,1.0,43,0.00,,SKC,0.00,VWS V14.01,2013-01-17 22:46:00,
2013-01-18 12:47:00,61.3,39.2,30.15,NE,39,1.0,1.0,44,0.00,,FEW150,0.00,VWS V14.01,2013-01-17 22:47:00,
2013-01-18 12:48:00,61.3,39.2,30.15,NE,39,0.0,1.0,44,0.00,,SKC,0.00,VWS V14.01,2013-01-17 22:48:00,
2013-01-18 12:49:00,61.3,39.2,30.15,NE,39,2.0,2.0,44,0.00,,SKC,0.00,VWS V14.01,2013-01-17 22:49:00,
2013-01-18 12:50:00,61.3,39.2,30.15,NE,39,0.0,3.0,44,0.00,,SKC,0.00,VWS V14.01,2013-01-17 22:50:00,
2013-01-18 12:51:00,61.2,39.1,30.15,NE,39,0.0,1.0,44,0.00,,SKC,0.00,VWS V14.01,2013-01-17 22:51:00,
2013-01-18 12:52:00,61.0,38.4,30.15,NE,39,1.0,2.0,43,0.00,,FEW150,0.00,VWS V14.01,2013-01-17 22:52:00,
2013-01-18 12:53:00,61.0,39.0,30.15,NE,39,1.0,2.0,44,0.00,,SKC,0.00,VWS V14.01,2013-01-17 22:53:00,
2013-01-18 12:54:00,61.0,38.4,30.15,NE,39,1.0,2.0,43,0.00,,SKC,0.00,VWS V14.01,2013-01-17 22:54:00,
2013-01-18 12:55:00,61.2,39.1,30.15,NE,39,1.0,1.0,44,0.00,,SKC,0.00,VWS V14.01,2013-01-17 22:55:00,
2013-01-18 12:56:00,61.4,39.3,30.15,NE,39,1.0,2.0,44,0.00,,SKC,0.00,VWS V14.01,2013-01-17 22:56:00,
2013-01-18 12:57:00,61.4,38.7,30.15,NE,39,2.0,2.0,43,0.00,,FEW150,0.00,VWS V14.01,2013-01-17 22:57:00,
2013-01-18 12:58:00,61.4,38.7,30.15,NE,39,1.0,2.0,43,0.00,,SKC,0.00,VWS V14.01,2013-01-17 22:58:00,
2013-01-18 12:59:00,61.3,38.6,30.15,NE,39,1.0,2.0,43,0.00,,SKC,0.00,VWS V14.01,2013-01-17 22:59:00,
2013-01-18 13:00:00,61.2,38.5,30.15,NE,39,1.0,2.0,43,0.00,,SKC,0.00,VWS V14.01,2013-01-17 23:00:00,
2013-01-18 13:01:00,61.2,38.5,30.15,NE,39,0.0,1.0,43,0.00,,SKC,0.00,VWS V14.01,2013-01-17 23:01:00,
2013-01-18 13:02:00,61.4,38.7,30.15,NE,39,0.0,0.0,43,0.00,,SKC,0.00,VWS V14.01,2013-01-17 23:02:00,
2013-01-18 13:03:00,61.4,38.7,30.15,NE,39,0.0,0.0,43,0.00,,SKC,0.00,VWS V14.01,2013-01-17 23:03:00,
2013-01-18 13:04:00,61.7,39.6,30.15,NE,39,0.0,0.0,44,0.00,,SKC,0.00,VWS V14.01,2013-01-17 23:04:00,
2013-01-18 13:05:00,62.0,39.9,30.15,NE,39,0.0,0.0,44,0.00,,SKC,0.00,VWS V14.01,2013-01-17 23:05:00,
2013-01-18 13:06:00,62.1,39.4,30.15,NE,39,0.0,1.0,43,0.00,,SKC,0.00,VWS V14.01,2013-01-17 23:06:00,
2013-01-18 13:07:00,61.8,38.5,30.15,NE,39,0.0,1.0,42,0.00,,SKC,0.00,VWS V14.01,2013-01-17 23:07:00,
2013-01-18 13:08:00,61.8,38.5,30.15,NE,39,1.0,3.0,42,0.00,,SKC,0.00,VWS V14.01,2013-01-17 23:08:00,
2013-01-18 13:09:00,61.8,39.1,30.15,NE,39,0.0,1.0,43,0.00,,SKC,0.00,VWS V14.01,2013-01-17 23:09:00,
2013-01-18 13:10:00,62.0,39.3,30.15,NE,39,1.0,1.0,43,0.00,,SKC,0.00,VWS V14.01,2013-01-17 23:10:00,
2013-01-18 13:11:00,62.1,38.8,30.15,NE,39,0.0,1.0,42,0.00,,SKC,0.00,VWS V14.01,2013-01-17 23:11:00,
2013-01-18 13:12:00,62.0,38.7,30.15,NE,39,1.0,1.0,42,0.00,,SKC,0.00,VWS V14.01,2013-01-17 23:12:00,
2013-01-18 13:13:00,62.0,38.7,30.15,NE,39,1.0,1.0,42,0.00,,SKC,0.00,VWS V14.01,2013-01-17 23:13:00,
2013-01-18 13:14:00,62.0,39.3,30.15,NE,39,1.0,1.0,43,0.00,,SKC,0.00,VWS V14.01,2013-01-17 23:14:00,
2013-01-18 13:15:00,62.0,38.7,30.15,NE,39,0.0,2.0,42,0.00,,SKC,0.00,VWS V14.01,2013-01-17 23:15:00,
2013-01-18 13:16:00,62.1,39.4,30.15,NE,39,1.0,1.0,43,0.00,,SKC,0.00,VWS V14.01,2013-01-17 23:16:00,
2013-01-18 13:17:00,62.0,38.7,30.15,NE,39,0.0,1.0,42,0.00,,SKC,0.00,VWS V14.01,2013-01-17 23:17:00,
2013-01-18 13:18:00,62.1,38.8,30.15,NE,39,1.0,2.0,42,0.00,,SKC,0.00,VWS V14.01,2013-01-17 23:18:00,
2013-01-18 13:19:00,62.0,39.3,30.15,NE,39,1.0,1.0,43,0.00,,SKC,0.00,VWS V14.01,2013-01-17 23:19:00,
2013-01-18 13:21:00,61.8,39.1,30.15,NE,39,1.0,2.0,43,0.00,,SKC,0.00,VWS V14.01,2013-01-17 23:21:00,
2013-01-18 13:22:00,61.7,39.0,30.15,NE,39,2.0,2.0,43,0.00,,SKC,0.00,VWS V14.01,2013-01-17 23:22:00,
2013-01-18 13:23:00,61.7,39.0,30.15,NE,39,0.0,3.0,43,0.00,,SKC,0.00,VWS V14.01,2013-01-17 23:23:00,
2013-01-18 13:24:00,61.7,39.0,30.15,NE,39,0.0,2.0,43,0.00,,SKC,0.00,VWS V14.01,2013-01-17 23:24:00,
2013-01-18 13:25:00,61.8,39.7,30.15,NE,39,0.0,0.0,44,0.00,,SKC,0.00,VWS V14.01,2013-01-17 23:25:00,
2013-01-18 13:26:00,61.9,39.2,30.15,NE,39,0.0,1.0,43,0.00,,SKC,0.00,VWS V14.01,2013-01-17 23:26:00,
2013-01-18 13:27:00,61.7,39.0,30.15,NE,39,0.0,0.0,43,0.00,,SKC,0.00,VWS V14.01,2013-01-17 23:27:00,
2013-01-18 13:29:00,61.6,38.9,30.15,NE,39,2.0,2.0,43,0.00,,SKC,0.00,VWS V14.01,2013-01-17 23:29:00,
2013-01-18 13:30:00,61.6,38.9,30.15,NE,39,0.0,2.0,43,0.00,,SKC,0.00,VWS V14.01,2013-01-17 23:30:00,
2013-01-18 13:31:00,61.7,39.0,30.15,NE,39,0.0,2.0,43,0.00,,SKC,0.00,VWS V14.01,2013-01-17 23:31:00,
2013-01-18 13:32:00,61.7,39.0,30.15,NE,48,3.0,3.0,43,0.00,,SKC,0.00,VWS V14.01,2013-01-17 23:32:00,
2013-01-18 13:33:00,61.7,39.0,30.15,NE,39,2.0,2.0,43,0.00,,SKC,0.00,VWS V14.01,2013-01-17 23:33:00,
2013-01-18 13:34:00,61.6,38.9,30.15,NE,51,2.0,4.0,43,0.00,,SKC,0.00,VWS V14.01,2013-01-17 23:34:00,
2013-01-18 13:35:00,61.6,38.9,30.15,NE,51,2.0,2.0,43,0.00,,SKC,0.00,VWS V14.01,2013-01-17 23:35:00,
2013-01-18 13:36:00,61.5,38.8,30.15,NE,51,2.0,3.0,43,0.00,,SKC,0.00,VWS V14.01,2013-01-17 23:36:00,
2013-01-18 13:37:00,61.5,38.8,30.15,NE,51,1.0,1.0,43,0.00,,SKC,0.00,VWS V14.01,2013-01-17 23:37:00,
2013-01-18 13:38:00,61.5,38.8,30.15,NE,51,0.0,1.0,43,0.00,,SKC,0.00,VWS V14.01,2013-01-17 23:38:00,
2013-01-18 13:39:00,61.5,39.4,30.15,NE,51,0.0,1.0,44,0.00,,SKC,0.00,VWS V14.01,2013-01-17 23:39:00,
2013-01-18 13:40:00,61.5,38.8,30.15,NE,51,0.0,1.0,43,0.00,,SKC,0.00,VWS V14.01,2013-01-17 23:40:00,
2013-01-18 13:41:00,61.5,38.8,30.15,NE,51,1.0,2.0,43,0.00,,SKC,0.00,VWS V14.01,2013-01-17 23:41:00,
2013-01-18 13:42:00,61.6,38.9,30.15,NE,44,2.0,3.0,43,0.00,,SKC,0.00,VWS V14.01,2013-01-17 23:42:00,
2013-01-18 13:43:00,61.6,38.9,30.15,NE,44,2.0,3.0,43,0.00,,SKC,0.00,VWS V14.01,2013-01-17 23:43:00,
2013-01-18 13:44:00,61.7,39.0,30.15,NE,44,1.0,3.0,43,0.00,,SKC,0.00,VWS V14.01,2013-01-17 23:44:00,
2013-01-18 13:45:00,61.9,39.2,30.15,NE,44,0.0,1.0,43,0.00,,SKC,0.00,VWS V14.01,2013-01-17 23:45:00,
2013-01-18 13:46:00,61.9,39.8,30.15,NE,44,1.0,1.0,44,0.00,,SKC,0.00,VWS V14.01,2013-01-17 23:46:00,
2013-01-18 13:47:00,61.8,38.5,30.15,NE,44,1.0,2.0,42,0.00,,SKC,0.00,VWS V14.01,2013-01-17 23:47:00,
2013-01-18 13:48:00,61.9,38.6,30.15,NE,44,1.0,2.0,42,0.00,,SKC,0.00,VWS V14.01,2013-01-17 23:48:00,
2013-01-18 13:49:00,61.8,38.5,30.15,NE,44,0.0,2.0,42,0.00,,SKC,0.00,VWS V14.01,2013-01-17 23:49:00,
2013-01-18 13:51:00,61.8,38.5,30.15,NE,44,1.0,2.0,42,0.00,,SKC,0.00,VWS V14.01,2013-01-17 23:51:00,
2013-01-18 13:52:00,61.8,39.1,30.15,NE,44,1.0,2.0,43,0.00,,SKC,0.00,VWS V14.01,2013-01-17 23:52:00,
2013-01-18 13:53:00,61.7,38.4,30.15,NE,44,1.0,2.0,42,0.00,,SKC,0.00,VWS V14.01,2013-01-17 23:53:00,
2013-01-18 13:54:00,61.8,39.1,30.15,NE,44,0.0,2.0,43,0.00,,SKC,0.00,VWS V14.01,2013-01-17 23:54:00,
2013-01-18 13:55:00,61.7,39.0,30.15,NE,44,1.0,2.0,43,0.00,,SKC,0.00,VWS V14.01,2013-01-17 23:55:00,
2013-01-18 13:56:00,61.5,38.8,30.15,NE,44,0.0,1.0,43,0.00,,SKC,0.00,VWS V14.01,2013-01-17 23:56:00,
2013-01-18 13:57:00,61.2,38.0,30.15,NE,44,2.0,2.0,42,0.00,,SKC,0.00,VWS V14.01,2013-01-17 23:57:00,
2013-01-18 13:58:00,61.3,38.0,30.15,NE,44,1.0,2.0,42,0.00,,SKC,0.00,VWS V14.01,2013-01-17 23:58:00,
2013-01-18 14:00:00,61.2,38.5,30.15,NE,44,0.0,2.0,43,0.00,,SKC,0.00,VWS V14.01,2013-01-18 00:00:00,
2013-01-18 14:01:00,61.3,38.6,30.15,NE,44,0.0,1.0,43,0.00,,SKC,0.00,VWS V14.01,2013-01-18 00:01:00,
2013-01-18 14:02:00,61.6,39.5,30.15,NE,44,2.0,3.0,44,0.00,,,0.00,VWS V14.01,2013-01-18 00:02:00,
2013-01-18 14:03:00,61.5,39.4,30.15,NE,44,1.0,1.0,44,0.00,,SKC,0.00,VWS V14.01,2013-01-18 00:03:00,
2013-01-18 14:04:00,61.6,38.9,30.15,NE,44,2.0,3.0,43,0.00,,SKC,0.00,VWS V14.01,2013-01-18 00:04:00,
2013-01-18 14:05:00,61.7,39.0,30.15,NE,44,0.0,2.0,43,0.00,,SKC,0.00,VWS V14.01,2013-01-18 00:05:00,
2013-01-18 14:07:00,61.5,39.4,30.15,NE,44,0.0,0.0,44,0.00,,,0.00,VWS V14.01,2013-01-18 00:07:00,
2013-01-18 14:08:00,61.6,39.5,30.14,NE,44,0.0,2.0,44,0.00,,SKC,0.00,VWS V14.01,2013-01-18 00:08:00,
2013-01-18 14:09:00,61.3,39.2,30.15,NE,44,0.0,0.0,44,0.00,,SKC,0.00,VWS V14.01,2013-01-18 00:09:00,
2013-01-18 14:10:00,61.2,39.7,30.14,NE,44,0.0,1.0,45,0.00,,SKC,0.00,VWS V14.01,2013-01-18 00:10:00,
2013-01-18 14:11:00,61.1,39.6,30.15,NE,44,0.0,1.0,45,0.00,,SKC,0.00,VWS V14.01,2013-01-18 00:11:00,
2013-01-18 14:12:00,61.0,39.0,30.14,NE,44,1.0,1.0,44,0.00,,,0.00,VWS V14.01,2013-01-18 00:12:00,
2013-01-18 14:13:00,61.0,39.0,30.15,NE,44,1.0,2.0,44,0.00,,SKC,0.00,VWS V14.01,2013-01-18 00:13:00,
2013-01-18 14:14:00,61.0,39.0,30.14,NE,44,0.0,1.0,44,0.00,,SKC,0.00,VWS V14.01,2013-01-18 00:14:00,
2013-01-18 14:15:00,61.0,39.0,30.15,NE,44,1.0,1.0,44,0.00,,SKC,0.00,VWS V14.01,2013-01-18 00:15:00,
2013-01-18 14:16:00,61.0,38.4,30.15,NE,44,0.0,1.0,43,0.00,,SKC,0.00,VWS V14.01,2013-01-18 00:16:00,
2013-01-18 14:17:00,61.1,39.0,30.15,NE,44,1.0,1.0,44,0.00,,,0.00,VWS V14.01,2013-01-18 00:17:00,
2013-01-18 14:18:00,61.1,39.0,30.15,NE,44,1.0,1.0,44,0.00,,SKC,0.00,VWS V14.01,2013-01-18 00:18:00,
2013-01-18 14:19:00,61.2,38.5,30.15,NE,44,1.0,1.0,43,0.00,,SKC,0.00,VWS V14.01,2013-01-18 00:19:00,
2013-01-18 14:20:00,61.1,39.0,30.15,NE,44,0.0,1.0,44,0.00,,SKC,0.00,VWS V14.01,2013-01-18 00:20:00,
2013-01-18 14:21:00,61.1,38.5,30.15,NE,44,0.0,1.0,43,0.00,,SKC,0.00,VWS V14.01,2013-01-18 00:21:00,
2013-01-18 14:22:00,61.0,38.4,30.15,NE,44,1.0,1.0,43,0.00,,,0.00,VWS V14.01,2013-01-18 00:22:00,
2013-01-18 14:23:00,61.0,39.0,30.15,NE,44,1.0,2.0,44,0.00,,SKC,0.00,VWS V14.01,2013-01-18 00:23:00,
2013-01-18 14:24:00,61.0,38.4,30.15,NE,44,0.0,1.0,43,0.00,,SKC,0.00,VWS V14.01,2013-01-18 00:24:00,
2013-01-18 14:25:00,61.0,38.4,30.15,NE,44,0.0,1.0,43,0.00,,SKC,0.00,VWS V14.01,2013-01-18 00:25:00,
2013-01-18 14:26:00,61.0,38.4,30.15,NE,44,2.0,2.0,43,0.00,,SKC,0.00,VWS V14.01,2013-01-18 00:26:00,
2013-01-18 14:27:00,60.9,38.9,30.15,NE,44,0.0,1.0,44,0.00,,,0.00,VWS V14.01,2013-01-18 00:27:00,
2013-01-18 14:28:00,60.9,38.9,30.15,NE,44,0.0,0.0,44,0.00,,SKC,0.00,VWS V14.01,2013-01-18 00:28:00,
2013-01-18 14:29:00,60.9,38.9,30.15,NE,44,0.0,1.0,44,0.00,,SKC,0.00,VWS V14.01,2013-01-18 00:29:00,
2013-01-18 14:30:00,60.9,38.9,30.15,NE,44,0.0,0.0,44,0.00,,SKC,0.00,VWS V14.01,2013-01-18 00:30:00,
2013-01-18 14:31:00,60.9,38.9,30.15,NE,44,0.0,0.0,44,0.00,,SKC,0.00,VWS V14.01,2013-01-18 00:31:00,
2013-01-18 14:32:00,60.8,38.8,30.15,NE,44,0.0,1.0,44,0.00,,,0.00,VWS V14.01,2013-01-18 00:32:00,
2013-01-18 14:33:00,60.8,38.8,30.15,NE,44,0.0,0.0,44,0.00,,SKC,0.00,VWS V14.01,2013-01-18 00:33:00,
2013-01-18 14:34:00,60.7,38.7,30.15,NE,44,0.0,1.0,44,0.00,,SKC,0.00,VWS V14.01,2013-01-18 00:34:00,
2013-01-18 14:36:00,60.5,39.1,30.15,NE,44,0.0,0.0,45,0.00,,SKC,0.00,VWS V14.01,2013-01-18 00:36:00,
2013-01-18 14:37:00,60.3,38.9,30.15,NE,44,0.0,1.0,45,0.00,,,0.00,VWS V14.01,2013-01-18 00:37:00,
2013-01-18 14:38:00,60.3,38.9,30.15,NE,44,0.0,0.0,45,0.00,,SKC,0.00,VWS V14.01,2013-01-18 00:38:00,
2013-01-18 14:39:00,60.3,38.3,30.15,NE,44,0.0,1.0,44,0.00,,SKC,0.00,VWS V14.01,2013-01-18 00:39:00,
2013-01-18 14:40:00,60.3,38.3,30.15,NE,44,0.0,0.0,44,0.00,,SKC,0.00,VWS V14.01,2013-01-18 00:40:00,
2013-01-18 14:41:00,60.3,38.9,30.15,NE,44,0.0,0.0,45,0.00,,SKC,0.00,VWS V14.01,2013-01-18 00:41:00,
2013-01-18 14:42:00,60.1,38.1,30.15,NE,44,1.0,1.0,44,0.00,,,0.00,VWS V14.01,2013-01-18 00:42:00,
2013-01-18 14:43:00,60.2,38.2,30.15,NE,44,0.0,2.0,44,0.00,,SKC,0.00,VWS V14.01,2013-01-18 00:43:00,
2013-01-18 14:44:00,60.1,38.7,30.15,NE,44,1.0,1.0,45,0.00,,SKC,0.00,VWS V14.01,2013-01-18 00:44:00,
2013-01-18 14:45:00,60.0,38.0,30.15,NE,44,1.0,2.0,44,0.00,,SKC,0.00,VWS V14.01,2013-01-18 00:45:00,
2013-01-18 14:46:00,60.1,38.1,30.15,NE,44,0.0,1.0,44,0.00,,SKC,0.00,VWS V14.01,2013-01-18 00:46:00,
2013-01-18 14:47:00,60.1,38.1,30.15,NE,44,1.0,1.0,44,0.00,,,0.00,VWS V14.01,2013-01-18 00:47:00,
2013-01-18 14:48:00,60.1,38.1,30.15,NE,44,0.0,0.0,44,0.00,,SKC,0.00,VWS V14.01,2013-01-18 00:48:00,
2013-01-18 14:49:00,60.0,37.5,30.15,NE,44,0.0,1.0,43,0.00,,SKC,0.00,VWS V14.01,2013-01-18 00:49:00,
2013-01-18 14:50:00,60.1,37.5,30.15,NE,44,0.0,1.0,43,0.00,,SKC,0.00,VWS V14.01,2013-01-18 00:50:00,
2013-01-18 14:52:00,59.9,38.0,30.15,NE,44,0.0,0.0,44,0.00,,,0.00,VWS V14.01,2013-01-18 00:52:00,
2013-01-18 14:53:00,59.9,38.0,30.15,NE,44,0.0,0.0,44,0.00,,SKC,0.00,VWS V14.01,2013-01-18 00:53:00,
2013-01-18 14:54:00,59.8,39.0,30.15,NE,44,0.0,0.0,46,0.00,,SKC,0.00,VWS V14.01,2013-01-18 00:54:00,
2013-01-18 14:55:00,59.8,39.5,30.15,NE,44,0.0,0.0,47,0.00,,SKC,0.00,VWS V14.01,2013-01-18 00:55:00,
2013-01-18 14:56:00,59.6,39.4,30.15,NE,44,0.0,0.0,47,0.00,,SKC,0.00,VWS V14.01,2013-01-18 00:56:00,
2013-01-18 14:57:00,59.4,38.6,30.15,NE,44,0.0,0.0,46,0.00,,,0.00,VWS V14.01,2013-01-18 00:57:00,
2013-01-18 14:58:00,59.4,38.6,30.15,NE,44,0.0,0.0,46,0.00,,SKC,0.00,VWS V14.01,2013-01-18 00:58:00,
2013-01-18 14:59:00,59.3,38.5,30.15,NE,44,0.0,0.0,46,0.00,,SKC,0.00,VWS V14.01,2013-01-18 00:59:00,
2013-01-18 15:00:00,59.1,38.9,30.15,NE,44,0.0,0.0,47,0.00,,SKC,0.00,VWS V14.01,2013-01-18 01:00:00,
2013-01-18 15:01:00,58.9,38.7,30.15,NE,44,0.0,1.0,47,0.00,,SKC,0.00,VWS V14.01,2013-01-18 01:01:00,
2013-01-18 15:02:00,58.8,38.1,30.15,NE,44,0.0,1.0,46,0.00,,SKC,0.00,VWS V14.01,2013-01-18 01:02:00,
2013-01-18 15:03:00,58.8,37.5,30.15,NE,44,0.0,1.0,45,0.00,,SKC,0.00,VWS V14.01,2013-01-18 01:03:00,
2013-01-18 15:04:00,58.8,38.1,30.15,NE,44,1.0,1.0,46,0.00,,SKC,0.00,VWS V14.01,2013-01-18 01:04:00,
2013-01-18 15:05:00,58.6,37.9,30.15,NE,44,0.0,1.0,46,0.00,,SKC,0.00,VWS V14.01,2013-01-18 01:05:00,
2013-01-18 15:06:00,58.6,37.9,30.15,NE,44,1.0,1.0,46,0.00,,SKC,0.00,VWS V14.01,2013-01-18 01:06:00,
2013-01-18 15:07:00,58.6,38.5,30.15,NE,44,0.0,1.0,47,0.00,,SKC,0.00,VWS V14.01,2013-01-18 01:07:00,
2013-01-18 15:08:00,58.6,37.9,30.15,NE,44,0.0,1.0,46,0.00,,SKC,0.00,VWS V14.01,2013-01-18 01:08:00,
2013-01-18 15:09:00,58.5,38.4,30.15,NE,44,0.0,1.0,47,0.00,,SKC,0.00,VWS V14.01,2013-01-18 01:09:00,
2013-01-18 15:10:00,58.3,38.7,30.15,NE,44,0.0,0.0,48,0.00,,SKC,0.00,VWS V14.01,2013-01-18 01:10:00,
2013-01-18 15:11:00,58.1,39.1,30.15,NE,44,0.0,0.0,49,0.00,,SKC,0.00,VWS V14.01,2013-01-18 01:11:00,
2013-01-18 15:12:00,57.6,39.1,30.15,NE,44,0.0,0.0,50,0.00,,SKC,0.00,VWS V14.01,2013-01-18 01:12:00,
2013-01-18 15:13:00,57.7,39.2,30.15,NE,44,0.0,0.0,50,0.00,,SKC,0.00,VWS V14.01,2013-01-18 01:13:00,
2013-01-18 15:14:00,57.5,39.0,30.15,NE,44,0.0,0.0,50,0.00,,SKC,0.00,VWS V14.01,2013-01-18 01:14:00,
2013-01-18 15:15:00,57.3,38.8,30.15,NE,44,0.0,0.0,50,0.00,,SKC,0.00,VWS V14.01,2013-01-18 01:15:00,
2013-01-18 15:16:00,57.2,38.8,30.15,NE,44,0.0,0.0,50,0.00,,SKC,0.00,VWS V14.01,2013-01-18 01:16:00,
2013-01-18 15:17:00,57.0,38.6,30.15,NE,44,0.0,0.0,50,0.00,,SKC,0.00,VWS V14.01,2013-01-18 01:17:00,
2013-01-18 15:18:00,57.0,38.6,30.15,NE,44,0.0,0.0,50,0.00,,SKC,0.00,VWS V14.01,2013-01-18 01:18:00,
2013-01-18 15:19:00,57.0,39.1,30.15,NE,44,0.0,0.0,51,0.00,,SKC,0.00,VWS V14.01,2013-01-18 01:19:00,
2013-01-18 15:20:00,56.9,39.0,30.15,NE,44,0.0,0.0,51,0.00,,SKC,0.00,VWS V14.01,2013-01-18 01:20:00,
2013-01-18 15:21:00,56.8,38.9,30.15,NE,44,0.0,0.0,51,0.00,,SKC,0.00,VWS V14.01,2013-01-18 01:21:00,
2013-01-18 15:22:00,56.4,38.5,30.15,NE,44,0.0,0.0,51,0.00,,SKC,0.00,VWS V14.01,2013-01-18 01:22:00,
2013-01-18 15:23:00,56.5,38.6,30.15,NE,44,0.0,0.0,51,0.00,,SKC,0.00,VWS V14.01,2013-01-18 01:23:00,
2013-01-18 15:24:00,56.3,38.9,30.15,NE,44,0.0,0.0,52,0.00,,SKC,0.00,VWS V14.01,2013-01-18 01:24:00,
2013-01-18 15:25:00,56.1,39.2,30.15,NE,44,0.0,0.0,53,0.00,,SKC,0.00,VWS V14.01,2013-01-18 01:25:00,
2013-01-18 15:27:00,55.6,38.8,30.15,NE,44,0.0,0.0,53,0.00,,SKC,0.00,VWS V14.01,2013-01-18 01:27:00,
2013-01-18 15:28:00,55.6,38.8,30.15,NE,44,0.0,1.0,53,0.00,,SKC,0.00,VWS V14.01,2013-01-18 01:28:00,
2013-01-18 15:29:00,55.5,38.7,30.15,NE,44,0.0,0.0,53,0.00,,SKC,0.00,VWS V14.01,2013-01-18 01:29:00,
2013-01-18 15:30:00,55.5,38.7,30.15,NE,44,0.0,0.0,53,0.00,,SKC,0.00,VWS V14.01,2013-01-18 01:30:00,
2013-01-18 15:31:00,55.5,39.6,30.15,NE,44,0.0,0.0,55,0.00,,SKC,0.00,VWS V14.01,2013-01-18 01:31:00,
2013-01-18 15:32:00,55.4,40.4,30.15,NE,44,0.0,0.0,57,0.00,,SKC,0.00,VWS V14.01,2013-01-18 01:32:00,
2013-01-18 15:33:00,55.4,40.4,30.15,NE,44,0.0,0.0,57,0.00,,SKC,0.00,VWS V14.01,2013-01-18 01:33:00,
2013-01-18 15:34:00,55.2,39.8,30.15,NE,44,0.0,0.0,56,0.00,,SKC,0.00,VWS V14.01,2013-01-18 01:34:00,
2013-01-18 15:35:00,55.0,39.6,30.15,NE,44,0.0,0.0,56,0.00,,SKC,0.00,VWS V14.01,2013-01-18 01:35:00,
2013-01-18 15:36:00,54.8,39.4,30.15,NE,44,0.0,0.0,56,0.00,,SKC,0.00,VWS V14.01,2013-01-18 01:36:00,
2013-01-18 15:37:00,54.5,40.5,30.15,NE,44,0.0,0.0,59,0.00,,SKC,0.00,VWS V14.01,2013-01-18 01:37:00,
2013-01-18 15:38:00,54.5,39.6,30.15,NE,44,0.0,0.0,57,0.00,,SKC,0.00,VWS V14.01,2013-01-18 01:38:00,
2013-01-18 15:39:00,54.4,40.4,30.15,NE,44,0.0,0.0,59,0.00,,SKC,0.00,VWS V14.01,2013-01-18 01:39:00,
2013-01-18 15:40:00,54.3,40.3,30.15,NE,44,0.0,0.0,59,0.00,,SKC,0.00,VWS V14.01,2013-01-18 01:40:00,
2013-01-18 15:41:00,54.4,40.8,30.15,NE,44,0.0,0.0,60,0.00,,SKC,0.00,VWS V14.01,2013-01-18 01:41:00,
2013-01-18 15:42:00,54.4,40.4,30.15,NE,44,0.0,0.0,59,0.00,,SKC,0.00,VWS V14.01,2013-01-18 01:42:00,
2013-01-18 15:44:00,54.4,40.4,30.15,NE,44,0.0,0.0,59,0.00,,SKC,0.00,VWS V14.01,2013-01-18 01:44:00,
2013-01-18 15:45:00,54.4,40.4,30.15,NE,44,0.0,0.0,59,0.00,,SKC,0.00,VWS V14.01,2013-01-18 01:45:00,
2013-01-18 15:46:00,54.4,40.4,30.15,NE,44,0.0,0.0,59,0.00,,SKC,0.00,VWS V14.01,2013-01-18 01:46:00,
2013-01-18 15:47:00,54.3,40.3,30.15,NE,44,0.0,0.0,59,0.00,,SKC,0.00,VWS V14.01,2013-01-18 01:47:00,
2013-01-18 15:48:00,54.3,40.3,30.15,NE,44,0.0,0.0,59,0.00,,SKC,0.00,VWS V14.01,2013-01-18 01:48:00,
2013-01-18 15:49:00,54.2,40.6,30.15,NE,44,0.0,0.0,60,0.00,,SKC,0.00,VWS V14.01,2013-01-18 01:49:00,
2013-01-18 15:50:00,54.2,40.6,30.15,NE,44,0.0,0.0,60,0.00,,SKC,0.00,VWS V14.01,2013-01-18 01:50:00,
2013-01-18 15:51:00,54.2,41.1,30.15,NE,44,0.0,0.0,61,0.00,,SKC,0.00,VWS V14.01,2013-01-18 01:51:00,
2013-01-18 15:52:00,54.2,40.6,30.15,NE,44,0.0,0.0,60,0.00,,SKC,0.00,VWS V14.01,2013-01-18 01:52:00,
2013-01-18 15:54:00,54.3,41.2,30.15,NE,44,0.0,0.0,61,0.00,,SKC,0.00,VWS V14.01,2013-01-18 01:54:00,
2013-01-18 15:55:00,54.3,41.2,30.15,NE,44,0.0,0.0,61,0.00,,SKC,0.00,VWS V14.01,2013-01-18 01:55:00,
2013-01-18 15:56:00,54.2,40.6,30.15,NE,44,0.0,0.0,60,0.00,,SKC,0.00,VWS V14.01,2013-01-18 01:56:00,
2013-01-18 15:57:00,54.2,41.1,30.16,NE,44,0.0,0.0,61,0.00,,SKC,0.00,VWS V14.01,2013-01-18 01:57:00,
2013-01-18 15:58:00,54.3,41.2,30.16,NE,44,0.0,0.0,61,0.00,,SKC,0.00,VWS V14.01,2013-01-18 01:58:00,
2013-01-18 15:59:00,54.2,41.1,30.16,NE,44,0.0,0.0,61,0.00,,SKC,0.00,VWS V14.01,2013-01-18 01:59:00,
2013-01-18 16:00:00,54.1,41.0,30.16,NE,44,0.0,0.0,61,0.00,,SKC,0.00,VWS V14.01,2013-01-18 02:00:00,
2013-01-18 16:01:00,53.9,40.3,30.16,NE,44,0.0,1.0,60,0.00,,SKC,0.00,VWS V14.01,2013-01-18 02:01:00,
2013-01-18 16:02:00,53.5,40.0,30.16,NE,44,0.0,0.0,60,0.00,,SKC,0.00,VWS V14.01,2013-01-18 02:02:00,
2013-01-18 16:03:00,53.5,40.0,30.15,NE,44,0.0,0.0,60,0.00,,SKC,0.00,VWS V14.01,2013-01-18 02:03:00,
2013-01-18 16:04:00,53.4,40.3,30.16,NE,44,0.0,0.0,61,0.00,,SKC,0.00,VWS V14.01,2013-01-18 02:04:00,
2013-01-18 16:05:00,53.2,40.1,30.16,NE,44,0.0,0.0,61,0.00,,SKC,0.00,VWS V14.01,2013-01-18 02:05:00,
2013-01-18 16:06:00,53.1,40.4,30.16,NE,44,0.0,0.0,62,0.00,,SKC,0.00,VWS V14.01,2013-01-18 02:06:00,
2013-01-18 16:07:00,53.0,40.3,30.16,NE,44,0.0,0.0,62,0.00,,SKC,0.00,VWS V14.01,2013-01-18 02:07:00,
2013-01-18 16:08:00,53.0,40.3,30.16,NE,44,0.0,0.0,62,0.00,,SKC,0.00,VWS V14.01,2013-01-18 02:08:00,
2013-01-18 16:09:00,52.8,39.7,30.16,NE,44,0.0,0.0,61,0.00,,SKC,0.00,VWS V14.01,2013-01-18 02:09:00,
2013-01-18 16:10:00,52.7,39.6,30.16,NE,44,0.0,0.0,61,0.00,,SKC,0.00,VWS V14.01,2013-01-18 02:10:00,
2013-01-18 16:11:00,52.7,40.1,30.16,NE,44,0.0,0.0,62,0.00,,SKC,0.00,VWS V14.01,2013-01-18 02:11:00,
2013-01-18 16:12:00,52.9,40.7,30.16,NE,44,0.0,0.0,63,0.00,,SKC,0.00,VWS V14.01,2013-01-18 02:12:00,
2013-01-18 16:13:00,52.8,40.6,30.16,NE,44,0.0,0.0,63,0.00,,SKC,0.00,VWS V14.01,2013-01-18 02:13:00,
2013-01-18 16:14:00,52.9,40.7,30.16,NE,44,0.0,0.0,63,0.00,,SKC,0.00,VWS V14.01,2013-01-18 02:14:00,
2013-01-18 16:15:00,52.9,40.2,30.16,NE,44,0.0,0.0,62,0.00,,SKC,0.00,VWS V14.01,2013-01-18 02:15:00,
2013-01-18 16:16:00,52.8,39.7,30.16,NE,44,0.0,0.0,61,0.00,,SKC,0.00,VWS V14.01,2013-01-18 02:16:00,
2013-01-18 16:17:00,52.6,40.0,30.16,NE,44,0.0,0.0,62,0.00,,SKC,0.00,VWS V14.01,2013-01-18 02:17:00,
2013-01-18 16:18:00,52.6,40.0,30.16,NE,44,0.0,0.0,62,0.00,,SKC,0.00,VWS V14.01,2013-01-18 02:18:00,
2013-01-18 16:19:00,52.6,40.0,30.16,NE,44,0.0,0.0,62,0.00,,SKC,0.00,VWS V14.01,2013-01-18 02:19:00,
2013-01-18 16:20:00,52.4,39.8,30.16,NE,44,0.0,0.0,62,0.00,,SKC,0.00,VWS V14.01,2013-01-18 02:20:00,
2013-01-18 16:21:00,52.1,39.5,30.16,NE,44,0.0,0.0,62,0.00,,SKC,0.00,VWS V14.01,2013-01-18 02:21:00,
2013-01-18 16:22:00,51.8,39.6,30.16,NE,44,0.0,0.0,63,0.00,,SKC,0.00,VWS V14.01,2013-01-18 02:22:00,
2013-01-18 16:23:00,51.8,39.6,30.16,NE,44,0.0,0.0,63,0.00,,SKC,0.00,VWS V14.01,2013-01-18 02:23:00,
2013-01-18 16:24:00,51.7,39.5,30.16,NE,44,0.0,0.0,63,0.00,,SKC,0.00,VWS V14.01,2013-01-18 02:24:00,
2013-01-18 16:25:00,51.6,39.8,30.16,NE,44,0.0,0.0,64,0.00,,SKC,0.00,VWS V14.01,2013-01-18 02:25:00,
2013-01-18 16:26:00,51.4,39.7,30.16,NE,44,0.0,0.0,64,0.00,,SKC,0.00,VWS V14.01,2013-01-18 02:26:00,
2013-01-18 16:27:00,51.0,39.7,30.16,NE,44,0.0,0.0,65,0.00,,SKC,0.00,VWS V14.01,2013-01-18 02:27:00,
2013-01-18 16:28:00,51.0,39.7,30.16,NE,44,0.0,0.0,65,0.00,,SKC,0.00,VWS V14.01,2013-01-18 02:28:00,
2013-01-18 16:29:00,50.9,39.6,30.16,NE,44,0.0,0.0,65,0.00,,SKC,0.00,VWS V14.01,2013-01-18 02:29:00,
2013-01-18 16:30:00,50.9,40.0,30.16,NE,44,0.0,0.0,66,0.00,,SKC,0.00,VWS V14.01,2013-01-18 02:30:00,
2013-01-18 16:31:00,50.8,39.9,30.16,NE,44,0.0,0.0,66,0.00,,SKC,0.00,VWS V14.01,2013-01-18 02:31:00,
2013-01-18 16:32:00,50.8,40.2,30.16,NE,44,0.0,0.0,67,0.00,,SKC,0.00,VWS V14.01,2013-01-18 02:32:00,
2013-01-18 16:33:00,50.8,40.2,30.16,NE,44,0.0,0.0,67,0.00,,SKC,0.00,VWS V14.01,2013-01-18 02:33:00,
2013-01-18 16:34:00,50.8,40.2,30.16,NE,44,0.0,0.0,67,0.00,,SKC,0.00,VWS V14.01,2013-01-18 02:34:00,
2013-01-18 16:35:00,50.6,39.7,30.16,NE,44,0.0,0.0,66,0.00,,SKC,0.00,VWS V14.01,2013-01-18 02:35:00,
2013-01-18 16:36:00,50.4,39.5,30.16,NE,44,0.0,0.0,66,0.00,,SKC,0.00,VWS V14.01,2013-01-18 02:36:00,
2013-01-18 16:37:00,49.7,39.2,30.16,NE,44,0.0,0.0,67,0.00,,SKC,0.00,VWS V14.01,2013-01-18 02:37:00,
2013-01-18 16:38:00,49.8,39.3,30.16,NE,44,0.0,0.0,67,0.00,,SKC,0.00,VWS V14.01,2013-01-18 02:38:00,
2013-01-18 16:39:00,49.4,38.9,30.16,NE,44,0.0,0.0,67,0.00,,SKC,0.00,VWS V14.01,2013-01-18 02:39:00,
2013-01-18 16:40:00,49.1,39.0,30.16,NE,44,0.0,0.0,68,0.00,,SKC,0.00,VWS V14.01,2013-01-18 02:40:00,
2013-01-18 16:41:00,48.8,39.1,30.16,NE,44,0.0,0.0,69,0.00,,SKC,0.00,VWS V14.01,2013-01-18 02:41:00,
2013-01-18 16:42:00,48.5,39.2,30.16,NE,44,0.0,0.0,70,0.00,,SKC,0.00,VWS V14.01,2013-01-18 02:42:00,
2013-01-18 16:43:00,48.4,39.1,30.16,NE,44,0.0,0.0,70,0.00,,SKC,0.00,VWS V14.01,2013-01-18 02:43:00,
2013-01-18 16:44:00,48.4,39.4,30.16,NE,44,0.0,0.0,71,0.00,,SKC,0.00,VWS V14.01,2013-01-18 02:44:00,
2013-01-18 16:45:00,48.3,39.0,30.16,NE,44,0.0,0.0,70,0.00,,SKC,0.00,VWS V14.01,2013-01-18 02:45:00,
2013-01-18 16:46:00,48.1,39.2,30.16,NE,44,0.0,0.0,71,0.00,,SKC,0.00,VWS V14.01,2013-01-18 02:46:00,
2013-01-18 16:47:00,47.8,38.9,30.16,NE,44,0.0,0.0,71,0.00,,SKC,0.00,VWS V14.01,2013-01-18 02:47:00,
2013-01-18 16:48:00,47.8,38.9,30.16,NE,44,0.0,0.0,71,0.00,,SKC,0.00,VWS V14.01,2013-01-18 02:48:00,
2013-01-18 16:49:00,47.8,39.2,30.16,NE,44,0.0,0.0,72,0.00,,SKC,0.00,VWS V14.01,2013-01-18 02:49:00,
2013-01-18 16:50:00,47.7,39.1,30.16,NE,44,0.0,0.0,72,0.00,,SKC,0.00,VWS V14.01,2013-01-18 02:50:00,
2013-01-18 16:51:00,47.6,39.0,30.16,NE,44,0.0,0.0,72,0.00,,SKC,0.00,VWS V14.01,2013-01-18 02:51:00,
2013-01-18 16:52:00,47.6,39.4,30.16,NE,44,0.0,0.0,73,0.00,,SKC,0.00,VWS V14.01,2013-01-18 02:52:00,
2013-01-18 16:53:00,47.6,39.4,30.16,NE,44,0.0,0.0,73,0.00,,SKC,0.00,VWS V14.01,2013-01-18 02:53:00,
2013-01-18 16:54:00,47.5,39.3,30.16,NE,44,0.0,0.0,73,0.00,,SKC,0.00,VWS V14.01,2013-01-18 02:54:00,
2013-01-18 16:56:00,47.5,39.6,30.16,NE,44,0.0,0.0,74,0.00,,SKC,0.00,VWS V14.01,2013-01-18 02:56:00,
2013-01-18 16:57:00,47.6,39.7,30.16,NE,44,0.0,0.0,74,0.00,,SKC,0.00,VWS V14.01,2013-01-18 02:57:00,
2013-01-18 16:58:00,47.6,39.7,30.16,NE,44,0.0,0.0,74,0.00,,SKC,0.00,VWS V14.01,2013-01-18 02:58:00,
2013-01-18 16:59:00,47.7,39.8,30.16,NE,44,0.0,0.0,74,0.00,,SKC,0.00,VWS V14.01,2013-01-18 02:59:00,
2013-01-18 17:00:00,47.7,39.8,30.16,NE,44,0.0,0.0,74,0.00,,SKC,0.00,VWS V14.01,2013-01-18 03:00:00,
2013-01-18 17:01:00,47.6,39.7,30.16,NE,44,0.0,0.0,74,0.00,,SKC,0.00,VWS V14.01,2013-01-18 03:01:00,
2013-01-18 17:02:00,47.5,39.3,30.16,NE,44,0.0,0.0,73,0.00,,SKC,0.00,VWS V14.01,2013-01-18 03:02:00,
2013-01-18 17:03:00,47.5,39.3,30.16,NE,44,0.0,0.0,73,0.00,,SKC,0.00,VWS V14.01,2013-01-18 03:03:00,
2013-01-18 17:04:00,47.4,39.2,30.16,NE,44,0.0,0.0,73,0.00,,SKC,0.00,VWS V14.01,2013-01-18 03:04:00,
2013-01-18 17:05:00,47.3,39.1,30.16,NE,44,0.0,0.0,73,0.00,,SKC,0.00,VWS V14.01,2013-01-18 03:05:00,
2013-01-18 17:06:00,47.2,39.0,30.16,NE,44,0.0,0.0,73,0.00,,SKC,0.00,VWS V14.01,2013-01-18 03:06:00,
2013-01-18 17:07:00,47.0,39.2,30.16,NE,44,0.0,0.0,74,0.00,,SKC,0.00,VWS V14.01,2013-01-18 03:07:00,
2013-01-18 17:08:00,47.0,39.2,30.16,NE,44,0.0,0.0,74,0.00,,SKC,0.00,VWS V14.01,2013-01-18 03:08:00,
2013-01-18 17:09:00,46.9,39.1,30.16,NE,44,0.0,0.0,74,0.00,,SKC,0.00,VWS V14.01,2013-01-18 03:09:00,
2013-01-18 17:11:00,46.9,39.1,30.16,NE,44,0.0,0.0,74,0.00,,SKC,0.00,VWS V14.01,2013-01-18 03:11:00,
2013-01-18 17:12:00,46.7,39.2,30.16,NE,44,0.0,0.0,75,0.00,,SKC,0.00,VWS V14.01,2013-01-18 03:12:00,
2013-01-18 17:13:00,46.7,39.2,30.16,NE,44,0.0,0.0,75,0.00,,SKC,0.00,VWS V14.01,2013-01-18 03:13:00,
2013-01-18 17:14:00,46.6,39.1,30.16,NE,44,0.0,0.0,75,0.00,,SKC,0.00,VWS V14.01,2013-01-18 03:14:00,
2013-01-18 17:15:00,46.5,39.0,30.16,NE,44,0.0,0.0,75,0.00,,SKC,0.00,VWS V14.01,2013-01-18 03:15:00,
2013-01-18 17:16:00,46.5,39.0,30.16,NE,44,0.0,0.0,75,0.00,,SKC,0.00,VWS V14.01,2013-01-18 03:16:00,
2013-01-18 17:17:00,46.5,39.0,30.16,NE,44,0.0,0.0,75,0.00,,SKC,0.00,VWS V14.01,2013-01-18 03:17:00,
2013-01-18 17:18:00,46.5,39.4,30.16,NE,44,0.0,0.0,76,0.00,,SKC,0.00,VWS V14.01,2013-01-18 03:18:00,
2013-01-18 17:19:00,46.5,39.4,30.16,NE,44,0.0,0.0,76,0.00,,SKC,0.00,VWS V14.01,2013-01-18 03:19:00,
2013-01-18 17:20:00,46.5,39.4,30.16,NE,44,0.0,0.0,76,0.00,,SKC,0.00,VWS V14.01,2013-01-18 03:20:00,
2013-01-18 17:21:00,46.3,39.2,30.16,NE,44,0.0,0.0,76,0.00,,SKC,0.00,VWS V14.01,2013-01-18 03:21:00,
2013-01-18 17:22:00,46.1,39.0,30.16,NE,44,0.0,0.0,76,0.00,,SKC,0.00,VWS V14.01,2013-01-18 03:22:00,
2013-01-18 17:23:00,46.2,39.1,30.16,NE,44,0.0,0.0,76,0.00,,SKC,0.00,VWS V14.01,2013-01-18 03:23:00,
2013-01-18 17:24:00,46.1,39.0,30.16,NE,44,0.0,0.0,76,0.00,,SKC,0.00,VWS V14.01,2013-01-18 03:24:00,
2013-01-18 17:26:00,46.0,39.2,30.16,NE,44,0.0,0.0,77,0.00,,SKC,0.00,VWS V14.01,2013-01-18 03:26:00,
2013-01-18 17:27:00,45.8,39.0,30.16,NE,44,0.0,0.0,77,0.00,,SKC,0.00,VWS V14.01,2013-01-18 03:27:00,
2013-01-18 17:28:00,45.8,39.0,30.16,NE,44,0.0,0.0,77,0.00,,SKC,0.00,VWS V14.01,2013-01-18 03:28:00,
2013-01-18 17:30:00,45.6,38.8,30.16,NE,44,0.0,0.0,77,0.00,,SKC,0.00,VWS V14.01,2013-01-18 03:30:00,
2013-01-18 17:31:00,45.6,39.2,30.16,NE,44,0.0,0.0,78,0.00,,SKC,0.00,VWS V14.01,2013-01-18 03:31:00,
2013-01-18 17:32:00,45.6,39.2,30.16,NE,44,0.0,0.0,78,0.00,,SKC,0.00,VWS V14.01,2013-01-18 03:32:00,
2013-01-18 17:33:00,45.6,39.2,30.16,NE,44,0.0,0.0,78,0.00,,SKC,0.00,VWS V14.01,2013-01-18 03:33:00,
2013-01-18 17:34:00,45.5,39.0,30.16,NE,44,0.0,0.0,78,0.00,,SKC,0.00,VWS V14.01,2013-01-18 03:34:00,
2013-01-18 17:35:00,45.5,39.0,30.16,NE,44,0.0,0.0,78,0.00,,SKC,0.00,VWS V14.01,2013-01-18 03:35:00,
2013-01-18 17:36:00,45.4,39.0,30.16,NE,44,0.0,0.0,78,0.00,,SKC,0.00,VWS V14.01,2013-01-18 03:36:00,
2013-01-18 17:37:00,45.3,38.9,30.16,NE,44,0.0,0.0,78,0.00,,SKC,0.00,VWS V14.01,2013-01-18 03:37:00,
2013-01-18 17:38:00,45.3,38.9,30.16,NE,44,0.0,0.0,78,0.00,,SKC,0.00,VWS V14.01,2013-01-18 03:38:00,
2013-01-18 17:39:00,45.2,39.1,30.16,NE,44,0.0,0.0,79,0.00,,SKC,0.00,VWS V14.01,2013-01-18 03:39:00,
2013-01-18 17:40:00,45.2,39.1,30.16,NE,44,0.0,0.0,79,0.00,,SKC,0.00,VWS V14.01,2013-01-18 03:40:00,
2013-01-18 17:41:00,45.1,39.0,30.16,NE,44,0.0,0.0,79,0.00,,SKC,0.00,VWS V14.01,2013-01-18 03:41:00,
2013-01-18 17:42:00,45.1,39.0,30.16,NE,44,0.0,0.0,79,0.00,,SKC,0.00,VWS V14.01,2013-01-18 03:42:00,
2013-01-18 17:43:00,45.1,39.0,30.16,NE,44,0.0,0.0,79,0.00,,SKC,0.00,VWS V14.01,2013-01-18 03:43:00,
2013-01-18 17:44:00,45.1,39.0,30.16,NE,44,0.0,0.0,79,0.00,,SKC,0.00,VWS V14.01,2013-01-18 03:44:00,
2013-01-18 17:45:00,45.0,38.9,30.16,NE,44,0.0,0.0,79,0.00,,SKC,0.00,VWS V14.01,2013-01-18 03:45:00,
2013-01-18 17:46:00,45.0,38.9,30.16,NE,44,0.0,0.0,79,0.00,,SKC,0.00,VWS V14.01,2013-01-18 03:46:00,
2013-01-18 17:47:00,45.1,39.0,30.16,NE,44,0.0,0.0,79,0.00,,SKC,0.00,VWS V14.01,2013-01-18 03:47:00,
2013-01-18 17:48:00,45.1,39.0,30.16,NE,44,0.0,0.0,79,0.00,,SKC,0.00,VWS V14.01,2013-01-18 03:48:00,
2013-01-18 17:49:00,45.1,39.0,30.16,NE,44,0.0,0.0,79,0.00,,SKC,0.00,VWS V14.01,2013-01-18 03:49:00,
2013-01-18 17:50:00,45.1,39.0,30.16,NE,44,0.0,0.0,79,0.00,,SKC,0.00,VWS V14.01,2013-01-18 03:50:00,
2013-01-18 17:51:00,45.0,38.9,30.16,NE,44,0.0,0.0,79,0.00,,SKC,0.00,VWS V14.01,2013-01-18 03:51:00,
2013-01-18 17:52:00,45.0,38.9,30.16,NE,44,0.0,0.0,79,0.00,,SKC,0.00,VWS V14.01,2013-01-18 03:52:00,
2013-01-18 17:53:00,45.0,38.9,30.16,NE,44,0.0,0.0,79,0.00,,SKC,0.00,VWS V14.01,2013-01-18 03:53:00,
2013-01-18 17:54:00,45.0,38.9,30.16,NE,44,0.0,0.0,79,0.00,,SKC,0.00,VWS V14.01,2013-01-18 03:54:00,
2013-01-18 17:55:00,45.0,38.9,30.16,NE,44,0.0,0.0,79,0.00,,SKC,0.00,VWS V14.01,2013-01-18 03:55:00,
2013-01-18 17:56:00,45.0,38.9,30.16,NE,44,0.0,0.0,79,0.00,,SKC,0.00,VWS V14.01,2013-01-18 03:56:00,
2013-01-18 17:57:00,45.1,39.0,30.16,NE,44,0.0,0.0,79,0.00,,SKC,0.00,VWS V14.01,2013-01-18 03:57:00,
2013-01-18 17:58:00,45.1,39.0,30.16,NE,44,0.0,0.0,79,0.00,,SKC,0.00,VWS V14.01,2013-01-18 03:58:00,
2013-01-18 17:59:00,45.0,38.9,30.16,NE,44,0.0,0.0,79,0.00,,SKC,0.00,VWS V14.01,2013-01-18 03:59:00,
2013-01-18 18:00:00,45.0,38.9,30.16,NE,44,0.0,0.0,79,0.00,,SKC,0.00,VWS V14.01,2013-01-18 04:00:00,
2013-01-18 18:01:00,45.0,38.9,30.16,NE,44,0.0,0.0,79,0.00,,SKC,0.00,VWS V14.01,2013-01-18 04:01:00,
2013-01-18 18:02:00,44.9,38.8,30.16,NE,44,0.0,0.0,79,0.00,,SKC,0.00,VWS V14.01,2013-01-18 04:02:00,
2013-01-18 18:03:00,44.9,38.8,30.16,NE,44,0.0,0.0,79,0.00,,SKC,0.00,VWS V14.01,2013-01-18 04:03:00,
2013-01-18 18:04:00,44.9,39.1,30.16,NE,44,0.0,0.0,80,0.00,,SKC,0.00,VWS V14.01,2013-01-18 04:04:00,
2013-01-18 18:05:00,44.9,39.1,30.16,NE,44,0.0,0.0,80,0.00,,SKC,0.00,VWS V14.01,2013-01-18 04:05:00,
2013-01-18 18:06:00,44.9,38.8,30.16,NE,44,0.0,0.0,79,0.00,,SKC,0.00,VWS V14.01,2013-01-18 04:06:00,
2013-01-18 18:07:00,44.6,38.8,30.16,NE,44,0.0,0.0,80,0.00,,SKC,0.00,VWS V14.01,2013-01-18 04:07:00,
2013-01-18 18:08:00,44.6,38.8,30.16,NE,44,0.0,0.0,80,0.00,,SKC,0.00,VWS V14.01,2013-01-18 04:08:00,
2013-01-18 18:09:00,44.6,38.8,30.16,NE,44,0.0,0.0,80,0.00,,SKC,0.00,VWS V14.01,2013-01-18 04:09:00,
2013-01-18 18:10:00,44.5,38.7,30.16,NE,44,0.0,0.0,80,0.00,,SKC,0.00,VWS V14.01,2013-01-18 04:10:00,
2013-01-18 18:11:00,44.5,38.7,30.16,NE,44,0.0,0.0,80,0.00,,SKC,0.00,VWS V14.01,2013-01-18 04:11:00,
2013-01-18 18:12:00,44.4,38.6,30.16,NE,44,0.0,0.0,80,0.00,,SKC,0.00,VWS V14.01,2013-01-18 04:12:00,
2013-01-18 18:13:00,44.4,38.6,30.16,NE,44,0.0,0.0,80,0.00,,SKC,0.00,VWS V14.01,2013-01-18 04:13:00,
2013-01-18 18:14:00,44.4,38.6,30.16,NE,44,0.0,0.0,80,0.00,,SKC,0.00,VWS V14.01,2013-01-18 04:14:00,
2013-01-18 18:15:00,44.3,38.5,30.16,NE,44,0.0,0.0,80,0.00,,SKC,0.00,VWS V14.01,2013-01-18 04:15:00,
2013-01-18 18:16:00,44.2,38.4,30.16,NE,44,0.0,0.0,80,0.00,,SKC,0.00,VWS V14.01,2013-01-18 04:16:00,
2013-01-18 18:17:00,44.0,38.2,30.16,NE,44,0.0,0.0,80,0.00,,SKC,0.00,VWS V14.01,2013-01-18 04:17:00,
2013-01-18 18:19:00,44.0,38.2,30.16,NE,44,0.0,0.0,80,0.00,,SKC,0.00,VWS V14.01,2013-01-18 04:19:00,
2013-01-18 18:20:00,44.0,38.2,30.16,NE,44,0.0,0.0,80,0.00,,SKC,0.00,VWS V14.01,2013-01-18 04:20:00,
2013-01-18 18:21:00,43.9,38.1,30.16,NE,44,0.0,1.0,80,0.00,,SKC,0.00,VWS V14.01,2013-01-18 04:21:00,
2013-01-18 18:22:00,43.8,38.0,30.16,NE,44,0.0,0.0,80,0.00,,SKC,0.00,VWS V14.01,2013-01-18 04:22:00,
2013-01-18 18:25:00,43.8,38.4,30.16,NE,44,0.0,1.0,81,0.00,,SKC,0.00,VWS V14.01,2013-01-18 04:25:00,
2013-01-18 18:26:00,43.7,38.3,30.16,NE,44,0.0,1.0,81,0.00,,SKC,0.00,VWS V14.01,2013-01-18 04:26:00,
2013-01-18 18:27:00,43.6,38.2,30.16,NE,44,0.0,0.0,81,0.00,,SKC,0.00,VWS V14.01,2013-01-18 04:27:00,
2013-01-18 18:28:00,43.6,38.2,30.16,NE,44,0.0,0.0,81,0.00,,SKC,0.00,VWS V14.01,2013-01-18 04:28:00,
2013-01-18 18:29:00,43.6,38.2,30.16,NE,44,0.0,1.0,81,0.00,,SKC,0.00,VWS V14.01,2013-01-18 04:29:00,
2013-01-18 18:30:00,43.6,38.2,30.16,NE,44,0.0,1.0,81,0.00,,SKC,0.00,VWS V14.01,2013-01-18 04:30:00,
2013-01-18 18:31:00,43.5,38.1,30.16,NE,44,0.0,0.0,81,0.00,,SKC,0.00,VWS V14.01,2013-01-18 04:31:00,
2013-01-18 18:32:00,43.5,38.1,30.16,NE,44,0.0,0.0,81,0.00,,SKC,0.00,VWS V14.01,2013-01-18 04:32:00,
2013-01-18 18:33:00,43.5,38.1,30.16,NE,44,0.0,0.0,81,0.00,,SKC,0.00,VWS V14.01,2013-01-18 04:33:00,
2013-01-18 18:34:00,43.5,38.1,30.16,NE,44,0.0,0.0,81,0.00,,SKC,0.00,VWS V14.01,2013-01-18 04:34:00,
2013-01-18 18:35:00,43.5,38.1,30.16,NE,44,0.0,0.0,81,0.00,,SKC,0.00,VWS V14.01,2013-01-18 04:35:00,
2013-01-18 18:36:00,43.6,38.2,30.16,NE,44,0.0,0.0,81,0.00,,SKC,0.00,VWS V14.01,2013-01-18 04:36:00,
2013-01-18 18:37:00,43.5,38.1,30.16,NE,44,0.0,0.0,81,0.00,,SKC,0.00,VWS V14.01,2013-01-18 04:37:00,
2013-01-18 18:38:00,43.5,38.1,30.16,NE,44,0.0,0.0,81,0.00,,SKC,0.00,VWS V14.01,2013-01-18 04:38:00,
2013-01-18 18:39:00,43.4,38.0,30.16,NE,44,0.0,0.0,81,0.00,,SKC,0.00,VWS V14.01,2013-01-18 04:39:00,
2013-01-18 18:40:00,43.4,38.0,30.16,NE,44,0.0,0.0,81,0.00,,SKC,0.00,VWS V14.01,2013-01-18 04:40:00,
2013-01-18 18:41:00,43.3,37.9,30.16,NE,44,0.0,0.0,81,0.00,,SKC,0.00,VWS V14.01,2013-01-18 04:41:00,
2013-01-18 18:42:00,43.2,37.8,30.16,NE,44,1.0,1.0,81,0.00,,SKC,0.00,VWS V14.01,2013-01-18 04:42:00,
2013-01-18 18:43:00,43.2,37.8,30.16,NE,44,0.0,1.0,81,0.00,,SKC,0.00,VWS V14.01,2013-01-18 04:43:00,
2013-01-18 18:44:00,43.1,37.7,30.16,NE,44,0.0,1.0,81,0.00,,SKC,0.00,VWS V14.01,2013-01-18 04:44:00,
2013-01-18 18:45:00,43.0,37.6,30.16,NE,44,0.0,0.0,81,0.00,,SKC,0.00,VWS V14.01,2013-01-18 04:45:00,
2013-01-18 18:46:00,42.9,37.5,30.16,NE,44,0.0,0.0,81,0.00,,SKC,0.00,VWS V14.01,2013-01-18 04:46:00,
2013-01-18 18:47:00,42.8,37.7,30.16,NE,44,0.0,0.0,82,0.00,,SKC,0.00,VWS V14.01,2013-01-18 04:47:00,
2013-01-18 18:48:00,42.8,37.7,30.16,NE,44,0.0,0.0,82,0.00,,SKC,0.00,VWS V14.01,2013-01-18 04:48:00,
2013-01-18 18:49:00,42.7,37.6,30.16,NE,44,0.0,0.0,82,0.00,,SKC,0.00,VWS V14.01,2013-01-18 04:49:00,
2013-01-18 18:50:00,42.6,37.5,30.16,NE,44,0.0,0.0,82,0.00,,SKC,0.00,VWS V14.01,2013-01-18 04:50:00,
2013-01-18 18:51:00,42.5,37.4,30.16,NE,44,0.0,0.0,82,0.00,,SKC,0.00,VWS V14.01,2013-01-18 04:51:00,
2013-01-18 18:52:00,42.4,37.6,30.16,NE,44,0.0,0.0,83,0.00,,SKC,0.00,VWS V14.01,2013-01-18 04:52:00,
2013-01-18 18:53:00,42.4,37.6,30.16,NE,44,0.0,0.0,83,0.00,,SKC,0.00,VWS V14.01,2013-01-18 04:53:00,
2013-01-18 18:54:00,42.4,37.6,30.16,NE,44,0.0,0.0,83,0.00,,SKC,0.00,VWS V14.01,2013-01-18 04:54:00,
2013-01-18 18:55:00,42.4,37.6,30.17,NE,44,0.0,0.0,83,0.00,,SKC,0.00,VWS V14.01,2013-01-18 04:55:00,
2013-01-18 18:57:00,42.4,37.6,30.17,NE,44,0.0,0.0,83,0.00,,SKC,0.00,VWS V14.01,2013-01-18 04:57:00,
2013-01-18 18:58:00,42.4,37.6,30.17,NE,44,0.0,0.0,83,0.00,,SKC,0.00,VWS V14.01,2013-01-18 04:58:00,
2013-01-18 19:00:00,42.1,37.3,30.17,NE,44,0.0,0.0,83,0.00,,SKC,0.00,VWS V14.01,2013-01-18 05:00:00,
2013-01-18 19:01:00,42.1,37.3,30.17,NE,44,0.0,0.0,83,0.00,,SKC,0.00,VWS V14.01,2013-01-18 05:01:00,
2013-01-18 19:02:00,42.1,37.3,30.17,NE,44,0.0,0.0,83,0.00,,SKC,0.00,VWS V14.01,2013-01-18 05:02:00,
2013-01-18 19:03:00,41.9,37.1,30.17,NE,44,0.0,0.0,83,0.00,,SKC,0.00,VWS V14.01,2013-01-18 05:03:00,
2013-01-18 19:04:00,42.0,37.2,30.17,NE,44,0.0,0.0,83,0.00,,SKC,0.00,VWS V14.01,2013-01-18 05:04:00,
2013-01-18 19:05:00,41.9,37.1,30.17,NE,44,0.0,0.0,83,0.00,,SKC,0.00,VWS V14.01,2013-01-18 05:05:00,
2013-01-18 19:06:00,41.9,37.1,30.17,NE,44,0.0,0.0,83,0.00,,SKC,0.00,VWS V14.01,2013-01-18 05:06:00,
2013-01-18 19:08:00,41.8,37.0,30.17,NE,44,0.0,0.0,83,0.00,,SKC,0.00,VWS V14.01,2013-01-18 05:08:00,
2013-01-18 19:10:00,41.8,37.0,30.17,NE,44,0.0,0.0,83,0.00,,SKC,0.00,VWS V14.01,2013-01-18 05:10:00,
2013-01-18 19:12:00,41.9,37.1,30.17,NE,44,0.0,0.0,83,0.00,,SKC,0.00,VWS V14.01,2013-01-18 05:12:00,
2013-01-18 19:13:00,41.9,37.1,30.17,NE,44,0.0,0.0,83,0.00,,SKC,0.00,VWS V14.01,2013-01-18 05:13:00,
2013-01-18 19:14:00,41.8,37.0,30.17,NE,44,0.0,0.0,83,0.00,,SKC,0.00,VWS V14.01,2013-01-18 05:14:00,
2013-01-18 19:15:00,41.9,37.1,30.17,NE,44,0.0,1.0,83,0.00,,SKC,0.00,VWS V14.01,2013-01-18 05:15:00,
2013-01-18 19:16:00,41.9,37.1,30.17,NE,44,0.0,0.0,83,0.00,,SKC,0.00,VWS V14.01,2013-01-18 05:16:00,
2013-01-18 19:18:00,41.9,37.1,30.17,NE,44,0.0,0.0,83,0.00,,SKC,0.00,VWS V14.01,2013-01-18 05:18:00,
2013-01-18 19:21:00,41.9,37.1,30.16,NE,44,0.0,0.0,83,0.00,,SKC,0.00,VWS V14.01,2013-01-18 05:21:00,
2013-01-18 19:22:00,41.9,37.1,30.17,NE,44,0.0,0.0,83,0.00,,SKC,0.00,VWS V14.01,2013-01-18 05:22:00,
2013-01-18 19:23:00,41.8,37.0,30.17,NE,44,0.0,0.0,83,0.00,,SKC,0.00,VWS V14.01,2013-01-18 05:23:00,
2013-01-18 19:24:00,41.9,37.1,30.17,NE,44,0.0,0.0,83,0.00,,SKC,0.00,VWS V14.01,2013-01-18 05:24:00,
2013-01-18 19:27:00,42.0,37.2,30.17,NE,44,0.0,0.0,83,0.00,,SKC,0.00,VWS V14.01,2013-01-18 05:27:00,
2013-01-18 19:28:00,41.8,37.0,30.17,NE,44,0.0,0.0,83,0.00,,SKC,0.00,VWS V14.01,2013-01-18 05:28:00,
2013-01-18 19:29:00,41.9,37.1,30.17,NE,44,0.0,0.0,83,0.00,,SKC,0.00,VWS V14.01,2013-01-18 05:29:00,
2013-01-18 19:33:00,41.5,36.7,30.17,NE,44,0.0,0.0,83,0.00,,SKC,0.00,VWS V14.01,2013-01-18 05:33:00,
2013-01-18 19:34:00,41.5,36.7,30.17,NE,44,0.0,0.0,83,0.00,,SKC,0.00,VWS V14.01,2013-01-18 05:34:00,
2013-01-18 19:35:00,41.5,36.7,30.17,NE,44,0.0,0.0,83,0.00,,SKC,0.00,VWS V14.01,2013-01-18 05:35:00,
2013-01-18 19:36:00,41.4,36.6,30.17,NE,44,0.0,0.0,83,0.00,,SKC,0.00,VWS V14.01,2013-01-18 05:36:00,
2013-01-18 19:38:00,41.3,36.8,30.17,NE,44,0.0,0.0,84,0.00,,SKC,0.00,VWS V14.01,2013-01-18 05:38:00,
2013-01-18 19:40:00,41.2,36.7,30.17,NE,44,0.0,0.0,84,0.00,,SKC,0.00,VWS V14.01,2013-01-18 05:40:00,
2013-01-18 19:41:00,41.1,36.3,30.17,NE,44,0.0,0.0,83,0.00,,SKC,0.00,VWS V14.01,2013-01-18 05:41:00,
2013-01-18 19:42:00,41.0,36.5,30.17,NE,44,0.0,0.0,84,0.00,,SKC,0.00,VWS V14.01,2013-01-18 05:42:00,
2013-01-18 19:43:00,40.9,36.5,30.17,NE,44,0.0,0.0,84,0.00,,SKC,0.00,VWS V14.01,2013-01-18 05:43:00,
2013-01-18 19:44:00,40.9,36.5,30.17,NE,44,0.0,0.0,84,0.00,,SKC,0.00,VWS V14.01,2013-01-18 05:44:00,
2013-01-18 19:45:00,40.9,36.5,30.17,NE,44,0.0,0.0,84,0.00,,SKC,0.00,VWS V14.01,2013-01-18 05:45:00,
2013-01-18 19:46:00,40.8,36.3,30.17,NE,44,0.0,0.0,84,0.00,,SKC,0.00,VWS V14.01,2013-01-18 05:46:00,
2013-01-18 19:47:00,40.7,36.2,30.17,NE,44,0.0,0.0,84,0.00,,SKC,0.00,VWS V14.01,2013-01-18 05:47:00,
2013-01-18 19:48:00,40.8,36.7,30.17,NE,44,0.0,0.0,85,0.00,,SKC,0.00,VWS V14.01,2013-01-18 05:48:00,
2013-01-18 19:50:00,40.8,36.7,30.17,NE,44,0.0,0.0,85,0.00,,SKC,0.00,VWS V14.01,2013-01-18 05:50:00,
2013-01-18 19:51:00,40.8,36.7,30.17,NE,44,0.0,0.0,85,0.00,,SKC,0.00,VWS V14.01,2013-01-18 05:51:00,
2013-01-18 19:52:00,40.7,36.5,30.17,NE,44,0.0,0.0,85,0.00,,SKC,0.00,VWS V14.01,2013-01-18 05:52:00,
2013-01-18 19:53:00,40.6,36.5,30.17,NE,44,0.0,0.0,85,0.00,,SKC,0.00,VWS V14.01,2013-01-18 05:53:00,
2013-01-18 19:54:00,40.6,36.5,30.17,NE,44,0.0,0.0,85,0.00,,SKC,0.00,VWS V14.01,2013-01-18 05:54:00,
2013-01-18 19:55:00,40.6,36.5,30.17,NE,44,0.0,0.0,85,0.00,,SKC,0.00,VWS V14.01,2013-01-18 05:55:00,
2013-01-18 19:56:00,40.6,36.5,30.17,NE,44,0.0,0.0,85,0.00,,SKC,0.00,VWS V14.01,2013-01-18 05:56:00,
2013-01-18 19:57:00,40.6,36.5,30.17,NE,44,0.0,0.0,85,0.00,,SKC,0.00,VWS V14.01,2013-01-18 05:57:00,
2013-01-18 19:58:00,40.4,36.3,30.17,NE,44,0.0,0.0,85,0.00,,SKC,0.00,VWS V14.01,2013-01-18 05:58:00,
2013-01-18 19:59:00,40.4,36.3,30.17,NE,44,0.0,0.0,85,0.00,,SKC,0.00,VWS V14.01,2013-01-18 05:59:00,
2013-01-18 20:00:00,40.3,36.2,30.17,NE,44,0.0,0.0,85,0.00,,SKC,0.00,VWS V14.01,2013-01-18 06:00:00,
2013-01-18 20:01:00,40.2,36.1,30.17,NE,44,0.0,0.0,85,0.00,,SKC,0.00,VWS V14.01,2013-01-18 06:01:00,
2013-01-18 20:02:00,40.2,36.1,30.17,NE,44,0.0,0.0,85,0.00,,SKC,0.00,VWS V14.01,2013-01-18 06:02:00,
2013-01-18 20:03:00,40.0,36.2,30.17,NE,44,0.0,0.0,86,0.00,,SKC,0.00,VWS V14.01,2013-01-18 06:03:00,
2013-01-18 20:04:00,40.1,36.3,30.17,NE,44,0.0,0.0,86,0.00,,SKC,0.00,VWS V14.01,2013-01-18 06:04:00,
2013-01-18 20:05:00,40.0,36.2,30.17,NE,44,0.0,0.0,86,0.00,,SKC,0.00,VWS V14.01,2013-01-18 06:05:00,
2013-01-18 20:06:00,40.0,36.2,30.17,NE,44,0.0,0.0,86,0.00,,SKC,0.00,VWS V14.01,2013-01-18 06:06:00,
2013-01-18 20:07:00,39.9,36.1,30.17,NE,44,0.0,0.0,86,0.00,,SKC,0.00,VWS V14.01,2013-01-18 06:07:00,
2013-01-18 20:08:00,39.7,35.9,30.17,NE,44,0.0,0.0,86,0.00,,SKC,0.00,VWS V14.01,2013-01-18 06:08:00,
2013-01-18 20:09:00,39.8,36.0,30.17,NE,44,0.0,0.0,86,0.00,,SKC,0.00,VWS V14.01,2013-01-18 06:09:00,
2013-01-18 20:10:00,39.7,35.9,30.17,NE,44,0.0,0.0,86,0.00,,SKC,0.00,VWS V14.01,2013-01-18 06:10:00,
2013-01-18 20:11:00,39.7,35.9,30.17,NE,44,0.0,0.0,86,0.00,,SKC,0.00,VWS V14.01,2013-01-18 06:11:00,
2013-01-18 20:12:00,39.6,35.8,30.17,NE,44,0.0,0.0,86,0.00,,SKC,0.00,VWS V14.01,2013-01-18 06:12:00,
2013-01-18 20:13:00,39.5,35.7,30.17,NE,44,0.0,0.0,86,0.00,,SKC,0.00,VWS V14.01,2013-01-18 06:13:00,
2013-01-18 20:14:00,39.6,35.8,30.17,NE,44,0.0,0.0,86,0.00,,SKC,0.00,VWS V14.01,2013-01-18 06:14:00,
2013-01-18 20:15:00,39.5,35.7,30.17,NE,44,0.0,0.0,86,0.00,,SKC,0.00,VWS V14.01,2013-01-18 06:15:00,
2013-01-18 20:16:00,39.4,35.9,30.17,NE,44,0.0,0.0,87,0.00,,SKC,0.00,VWS V14.01,2013-01-18 06:16:00,
2013-01-18 20:18:00,39.2,35.7,30.17,NE,44,0.0,0.0,87,0.00,,SKC,0.00,VWS V14.01,2013-01-18 06:18:00,
2013-01-18 20:19:00,39.2,35.7,30.17,NE,44,0.0,0.0,87,0.00,,SKC,0.00,VWS V14.01,2013-01-18 06:19:00,
2013-01-18 20:22:00,39.1,35.6,30.17,NE,44,0.0,0.0,87,0.00,,SKC,0.00,VWS V14.01,2013-01-18 06:22:00,
2013-01-18 20:23:00,39.1,35.6,30.17,NE,44,0.0,0.0,87,0.00,,SKC,0.00,VWS V14.01,2013-01-18 06:23:00,
2013-01-18 20:24:00,39.1,35.6,30.17,NE,44,0.0,0.0,87,0.00,,SKC,0.00,VWS V14.01,2013-01-18 06:24:00,
2013-01-18 20:25:00,39.1,35.6,30.17,NE,44,0.0,0.0,87,0.00,,SKC,0.00,VWS V14.01,2013-01-18 06:25:00,
2013-01-18 20:26:00,39.1,35.8,30.17,NE,44,0.0,0.0,88,0.00,,SKC,0.00,VWS V14.01,2013-01-18 06:26:00,
2013-01-18 20:27:00,39.1,35.8,30.17,NE,44,0.0,0.0,88,0.00,,SKC,0.00,VWS V14.01,2013-01-18 06:27:00,
2013-01-18 20:28:00,39.2,36.0,30.17,NE,44,0.0,0.0,88,0.00,,SKC,0.00,VWS V14.01,2013-01-18 06:28:00,
2013-01-18 20:29:00,39.2,36.0,30.17,NE,44,0.0,0.0,88,0.00,,SKC,0.00,VWS V14.01,2013-01-18 06:29:00,
2013-01-18 20:30:00,39.2,36.0,30.17,NE,44,0.0,0.0,88,0.00,,SKC,0.00,VWS V14.01,2013-01-18 06:30:00,
2013-01-18 20:31:00,39.2,36.0,30.17,NE,44,0.0,0.0,88,0.00,,SKC,0.00,VWS V14.01,2013-01-18 06:31:00,
2013-01-18 20:32:00,39.2,36.0,30.17,NE,44,0.0,0.0,88,0.00,,SKC,0.00,VWS V14.01,2013-01-18 06:32:00,
2013-01-18 20:33:00,39.0,35.8,30.17,NE,44,0.0,0.0,88,0.00,,SKC,0.00,VWS V14.01,2013-01-18 06:33:00,
2013-01-18 20:34:00,39.0,35.8,30.17,NE,44,0.0,0.0,88,0.00,,SKC,0.00,VWS V14.01,2013-01-18 06:34:00,
2013-01-18 20:35:00,39.0,35.5,30.17,NE,44,0.0,0.0,87,0.00,,SKC,0.00,VWS V14.01,2013-01-18 06:35:00,
2013-01-18 20:36:00,39.0,35.8,30.17,NE,44,0.0,0.0,88,0.00,,SKC,0.00,VWS V14.01,2013-01-18 06:36:00,
2013-01-18 20:37:00,39.0,35.8,30.17,NE,44,0.0,0.0,88,0.00,,SKC,0.00,VWS V14.01,2013-01-18 06:37:00,
2013-01-18 20:38:00,38.9,35.4,30.17,NE,44,0.0,0.0,87,0.00,,SKC,0.00,VWS V14.01,2013-01-18 06:38:00,
2013-01-18 20:39:00,38.9,35.4,30.17,NE,44,0.0,0.0,87,0.00,,SKC,0.00,VWS V14.01,2013-01-18 06:39:00,
2013-01-18 20:40:00,38.8,35.3,30.17,NE,44,0.0,0.0,87,0.00,,SKC,0.00,VWS V14.01,2013-01-18 06:40:00,
2013-01-18 20:41:00,38.8,35.6,30.17,NE,44,0.0,0.0,88,0.00,,SKC,0.00,VWS V14.01,2013-01-18 06:41:00,
2013-01-18 20:43:00,38.6,35.4,30.17,NE,44,0.0,0.0,88,0.00,,SKC,0.00,VWS V14.01,2013-01-18 06:43:00,
2013-01-18 20:45:00,38.6,35.4,30.17,NE,44,0.0,0.0,88,0.00,,SKC,0.00,VWS V14.01,2013-01-18 06:45:00,
2013-01-18 20:47:00,38.6,35.4,30.17,NE,44,0.0,0.0,88,0.00,,SKC,0.00,VWS V14.01,2013-01-18 06:47:00,
2013-01-18 20:48:00,38.6,35.4,30.17,NE,44,0.0,0.0,88,0.00,,SKC,0.00,VWS V14.01,2013-01-18 06:48:00,
2013-01-18 20:49:00,38.6,35.4,30.17,NE,44,0.0,0.0,88,0.00,,SKC,0.00,VWS V14.01,2013-01-18 06:49:00,
2013-01-18 20:50:00,38.6,35.4,30.17,NE,44,0.0,0.0,88,0.00,,SKC,0.00,VWS V14.01,2013-01-18 06:50:00,
2013-01-18 20:51:00,38.6,35.4,30.17,NE,44,0.0,0.0,88,0.00,,SKC,0.00,VWS V14.01,2013-01-18 06:51:00,
2013-01-18 20:52:00,38.6,35.4,30.17,NE,44,0.0,0.0,88,0.00,,SKC,0.00,VWS V14.01,2013-01-18 06:52:00,
2013-01-18 20:53:00,38.5,35.5,30.17,NE,44,0.0,0.0,89,0.00,,SKC,0.00,VWS V14.01,2013-01-18 06:53:00,
2013-01-18 20:54:00,38.5,35.5,30.17,NE,44,0.0,0.0,89,0.00,,SKC,0.00,VWS V14.01,2013-01-18 06:54:00,
2013-01-18 20:56:00,38.5,35.5,30.17,NE,44,0.0,0.0,89,0.00,,SKC,0.00,VWS V14.01,2013-01-18 06:56:00,
2013-01-18 20:57:00,38.5,35.5,30.17,NE,44,0.0,0.0,89,0.00,,SKC,0.00,VWS V14.01,2013-01-18 06:57:00,
2013-01-18 20:58:00,38.4,35.2,30.17,NE,44,0.0,0.0,88,0.00,,SKC,0.00,VWS V14.01,2013-01-18 06:58:00,
2013-01-18 20:59:00,38.4,35.2,30.17,NE,44,0.0,0.0,88,0.00,,SKC,0.00,VWS V14.01,2013-01-18 06:59:00,
2013-01-18 21:00:00,38.3,35.1,30.17,NE,44,0.0,0.0,88,0.00,,SKC,0.00,VWS V14.01,2013-01-18 07:00:00,
2013-01-18 21:01:00,38.3,35.1,30.17,NE,44,0.0,0.0,88,0.00,,SKC,0.00,VWS V14.01,2013-01-18 07:01:00,
2013-01-18 21:02:00,38.3,35.3,30.17,NE,44,0.0,0.0,89,0.00,,SKC,0.00,VWS V14.01,2013-01-18 07:02:00,
2013-01-18 21:03:00,38.4,35.5,30.17,NE,44,0.0,0.0,89,0.00,,SKC,0.00,VWS V14.01,2013-01-18 07:03:00,
2013-01-18 21:04:00,38.3,35.3,30.17,NE,44,0.0,0.0,89,0.00,,SKC,0.00,VWS V14.01,2013-01-18 07:04:00,
2013-01-18 21:05:00,38.3,35.1,30.17,NE,44,0.0,0.0,88,0.00,,SKC,0.00,VWS V14.01,2013-01-18 07:05:00,
2013-01-18 21:06:00,38.2,35.0,30.17,NE,44,0.0,0.0,88,0.00,,SKC,0.00,VWS V14.01,2013-01-18 07:06:00,
2013-01-18 21:07:00,38.2,35.0,30.17,NE,44,0.0,0.0,88,0.00,,SKC,0.00,VWS V14.01,2013-01-18 07:07:00,
2013-01-18 21:08:00,38.4,35.5,30.17,NE,44,0.0,0.0,89,0.00,,SKC,0.00,VWS V14.01,2013-01-18 07:08:00,
2013-01-18 21:09:00,38.4,35.5,30.17,NE,44,0.0,0.0,89,0.00,,SKC,0.00,VWS V14.01,2013-01-18 07:09:00,
2013-01-18 21:10:00,38.4,35.5,30.17,NE,44,0.0,0.0,89,0.00,,SKC,0.00,VWS V14.01,2013-01-18 07:10:00,
2013-01-18 21:11:00,38.4,35.5,30.17,NE,44,0.0,0.0,89,0.00,,SKC,0.00,VWS V14.01,2013-01-18 07:11:00,
2013-01-18 21:12:00,38.4,35.5,30.17,NE,44,0.0,0.0,89,0.00,,SKC,0.00,VWS V14.01,2013-01-18 07:12:00,
2013-01-18 21:13:00,38.2,35.2,30.17,NE,44,0.0,0.0,89,0.00,,SKC,0.00,VWS V14.01,2013-01-18 07:13:00,
2013-01-18 21:15:00,38.3,35.3,30.17,NE,44,0.0,0.0,89,0.00,,SKC,0.00,VWS V14.01,2013-01-18 07:15:00,
2013-01-18 21:16:00,38.2,35.2,30.17,NE,44,0.0,0.0,89,0.00,,SKC,0.00,VWS V14.01,2013-01-18 07:16:00,
2013-01-18 21:17:00,38.2,35.2,30.17,NE,44,0.0,0.0,89,0.00,,SKC,0.00,VWS V14.01,2013-01-18 07:17:00,
2013-01-18 21:18:00,38.2,35.2,30.17,NE,44,0.0,0.0,89,0.00,,SKC,0.00,VWS V14.01,2013-01-18 07:18:00,
2013-01-18 21:19:00,38.2,35.2,30.17,NE,44,0.0,0.0,89,0.00,,SKC,0.00,VWS V14.01,2013-01-18 07:19:00,
2013-01-18 21:20:00,38.2,35.2,30.17,NE,44,0.0,0.0,89,0.00,,SKC,0.00,VWS V14.01,2013-01-18 07:20:00,
2013-01-18 21:21:00,38.2,35.2,30.18,NE,44,0.0,0.0,89,0.00,,SKC,0.00,VWS V14.01,2013-01-18 07:21:00,
2013-01-18 21:22:00,38.2,35.2,30.18,NE,44,0.0,0.0,89,0.00,,SKC,0.00,VWS V14.01,2013-01-18 07:22:00,
2013-01-18 21:23:00,38.2,35.2,30.18,NE,44,0.0,0.0,89,0.00,,SKC,0.00,VWS V14.01,2013-01-18 07:23:00,
2013-01-18 21:26:00,38.1,35.2,30.18,NE,44,0.0,0.0,89,0.00,,SKC,0.00,VWS V14.01,2013-01-18 07:26:00,
2013-01-18 21:27:00,38.1,35.2,30.18,NE,44,0.0,0.0,89,0.00,,SKC,0.00,VWS V14.01,2013-01-18 07:27:00,
2013-01-18 21:28:00,38.0,35.0,30.18,NE,44,0.0,0.0,89,0.00,,SKC,0.00,VWS V14.01,2013-01-18 07:28:00,
2013-01-18 21:29:00,38.0,35.0,30.18,NE,44,0.0,0.0,89,0.00,,SKC,0.00,VWS V14.01,2013-01-18 07:29:00,
2013-01-18 21:30:00,38.0,35.0,30.18,NE,44,0.0,0.0,89,0.00,,SKC,0.00,VWS V14.01,2013-01-18 07:30:00,
2013-01-18 21:31:00,37.9,35.0,30.18,NE,44,0.0,0.0,89,0.00,,SKC,0.00,VWS V14.01,2013-01-18 07:31:00,
2013-01-18 21:32:00,37.9,35.0,30.18,NE,44,0.0,0.0,89,0.00,,SKC,0.00,VWS V14.01,2013-01-18 07:32:00,
2013-01-18 21:33:00,37.7,34.8,30.18,NE,44,0.0,0.0,89,0.00,,SKC,0.00,VWS V14.01,2013-01-18 07:33:00,
2013-01-18 21:34:00,37.8,34.9,30.18,NE,44,0.0,0.0,89,0.00,,SKC,0.00,VWS V14.01,2013-01-18 07:34:00,
2013-01-18 21:35:00,37.7,34.8,30.18,NE,44,0.0,0.0,89,0.00,,SKC,0.00,VWS V14.01,2013-01-18 07:35:00,
2013-01-18 21:36:00,37.6,34.7,30.18,NE,44,0.0,0.0,89,0.00,,SKC,0.00,VWS V14.01,2013-01-18 07:36:00,
2013-01-18 21:37:00,37.6,34.7,30.18,NE,44,0.0,0.0,89,0.00,,SKC,0.00,VWS V14.01,2013-01-18 07:37:00,
2013-01-18 21:38:00,37.5,34.6,30.18,NE,44,0.0,0.0,89,0.00,,SKC,0.00,VWS V14.01,2013-01-18 07:38:00,
2013-01-18 21:39:00,37.5,34.6,30.18,NE,44,0.0,0.0,89,0.00,,SKC,0.00,VWS V14.01,2013-01-18 07:39:00,
2013-01-18 21:40:00,37.5,34.6,30.18,NE,44,0.0,0.0,89,0.00,,SKC,0.00,VWS V14.01,2013-01-18 07:40:00,
2013-01-18 21:41:00,37.4,34.5,30.18,NE,44,0.0,0.0,89,0.00,,SKC,0.00,VWS V14.01,2013-01-18 07:41:00,
2013-01-18 21:42:00,37.4,34.5,30.18,NE,44,0.0,0.0,89,0.00,,SKC,0.00,VWS V14.01,2013-01-18 07:42:00,
2013-01-18 21:43:00,37.3,34.4,30.18,NE,44,0.0,0.0,89,0.00,,SKC,0.00,VWS V14.01,2013-01-18 07:43:00,
2013-01-18 21:46:00,37.3,34.4,30.18,NE,44,0.0,0.0,89,0.00,,SKC,0.00,VWS V14.01,2013-01-18 07:46:00,
2013-01-18 21:47:00,37.2,34.3,30.18,NE,44,0.0,0.0,89,0.00,,SKC,0.00,VWS V14.01,2013-01-18 07:47:00,
2013-01-18 21:48:00,37.1,34.4,30.18,NE,44,0.0,0.0,90,0.00,,SKC,0.00,VWS V14.01,2013-01-18 07:48:00,
2013-01-18 21:49:00,37.1,34.4,30.18,NE,44,0.0,0.0,90,0.00,,SKC,0.00,VWS V14.01,2013-01-18 07:49:00,
2013-01-18 21:50:00,37.1,34.4,30.18,NE,44,0.0,0.0,90,0.00,,SKC,0.00,VWS V14.01,2013-01-18 07:50:00,
2013-01-18 21:51:00,37.2,34.5,30.18,NE,44,0.0,1.0,90,0.00,,SKC,0.00,VWS V14.01,2013-01-18 07:51:00,
2013-01-18 21:52:00,37.2,34.5,30.18,NE,44,0.0,1.0,90,0.00,,SKC,0.00,VWS V14.01,2013-01-18 07:52:00,
2013-01-18 21:53:00,37.2,34.5,30.18,NE,44,1.0,1.0,90,0.00,,SKC,0.00,VWS V14.01,2013-01-18 07:53:00,
2013-01-18 21:55:00,37.2,34.5,30.18,NE,44,2.0,2.0,90,0.00,,SKC,0.00,VWS V14.01,2013-01-18 07:55:00,
2013-01-18 21:56:00,37.3,34.6,30.18,NE,44,2.0,2.0,90,0.00,,SKC,0.00,VWS V14.01,2013-01-18 07:56:00,
2013-01-18 21:57:00,37.3,34.6,30.18,NE,44,2.0,2.0,90,0.00,,SKC,0.00,VWS V14.01,2013-01-18 07:57:00,
2013-01-18 21:58:00,37.4,34.7,30.18,NE,44,0.0,0.0,90,0.00,,SKC,0.00,VWS V14.01,2013-01-18 07:58:00,
2013-01-18 21:59:00,37.4,34.7,30.18,NE,44,0.0,1.0,90,0.00,,SKC,0.00,VWS V14.01,2013-01-18 07:59:00,
2013-01-18 22:00:00,37.5,34.8,30.18,NE,44,0.0,1.0,90,0.00,,SKC,0.00,VWS V14.01,2013-01-18 08:00:00,
2013-01-18 22:01:00,37.5,34.8,30.18,NE,44,0.0,1.0,90,0.00,,SKC,0.00,VWS V14.01,2013-01-18 08:01:00,
2013-01-18 22:02:00,37.5,34.8,30.18,NE,44,0.0,0.0,90,0.00,,SKC,0.00,VWS V14.01,2013-01-18 08:02:00,
2013-01-18 22:03:00,37.5,34.6,30.18,NE,44,0.0,0.0,89,0.00,,SKC,0.00,VWS V14.01,2013-01-18 08:03:00,
2013-01-18 22:04:00,37.5,34.6,30.18,NE,44,0.0,0.0,89,0.00,,SKC,0.00,VWS V14.01,2013-01-18 08:04:00,
2013-01-18 22:05:00,37.5,34.6,30.18,NE,44,0.0,0.0,89,0.00,,SKC,0.00,VWS V14.01,2013-01-18 08:05:00,
2013-01-18 22:06:00,37.4,34.5,30.18,NE,44,0.0,1.0,89,0.00,,SKC,0.00,VWS V14.01,2013-01-18 08:06:00,
2013-01-18 22:07:00,37.4,34.5,30.18,NE,44,0.0,1.0,89,0.00,,SKC,0.00,VWS V14.01,2013-01-18 08:07:00,
2013-01-18 22:08:00,37.5,34.6,30.18,NE,44,0.0,1.0,89,0.00,,SKC,0.00,VWS V14.01,2013-01-18 08:08:00,
2013-01-18 22:09:00,37.4,34.5,30.18,NE,44,0.0,1.0,89,0.00,,SKC,0.00,VWS V14.01,2013-01-18 08:09:00,
2013-01-18 22:10:00,37.5,34.8,30.18,NE,44,0.0,1.0,90,0.00,,SKC,0.00,VWS V14.01,2013-01-18 08:10:00,
2013-01-18 22:11:00,37.6,34.9,30.18,NE,44,1.0,1.0,90,0.00,,SKC,0.00,VWS V14.01,2013-01-18 08:11:00,
2013-01-18 22:12:00,37.7,35.0,30.18,NE,44,0.0,1.0,90,0.00,,SKC,0.00,VWS V14.01,2013-01-18 08:12:00,
2013-01-18 22:13:00,37.7,34.8,30.18,NE,44,0.0,0.0,89,0.00,,SKC,0.00,VWS V14.01,2013-01-18 08:13:00,
2013-01-18 22:14:00,37.7,34.8,30.18,NE,44,0.0,1.0,89,0.00,,SKC,0.00,VWS V14.01,2013-01-18 08:14:00,
2013-01-18 22:15:00,37.8,34.9,30.18,NE,44,0.0,0.0,89,0.00,,SKC,0.00,VWS V14.01,2013-01-18 08:15:00,
2013-01-18 22:16:00,37.8,34.9,30.18,NE,44,0.0,0.0,89,0.00,,SKC,0.00,VWS V14.01,2013-01-18 08:16:00,
2013-01-18 22:17:00,37.9,35.0,30.18,NE,44,0.0,0.0,89,0.00,,SKC,0.00,VWS V14.01,2013-01-18 08:17:00,
2013-01-18 22:18:00,38.0,35.0,30.18,NE,44,0.0,0.0,89,0.00,,SKC,0.00,VWS V14.01,2013-01-18 08:18:00,
2013-01-18 22:19:00,38.0,35.0,30.18,NE,44,0.0,0.0,89,0.00,,SKC,0.00,VWS V14.01,2013-01-18 08:19:00,
2013-01-18 22:20:00,38.1,35.2,30.18,NE,44,0.0,0.0,89,0.00,,SKC,0.00,VWS V14.01,2013-01-18 08:20:00,
2013-01-18 22:21:00,38.1,35.2,30.18,NE,44,0.0,0.0,89,0.00,,SKC,0.00,VWS V14.01,2013-01-18 08:21:00,
2013-01-18 22:22:00,38.2,35.2,30.18,NE,44,0.0,0.0,89,0.00,,SKC,0.00,VWS V14.01,2013-01-18 08:22:00,
2013-01-18 22:23:00,38.2,35.2,30.18,NE,44,0.0,0.0,89,0.00,,SKC,0.00,VWS V14.01,2013-01-18 08:23:00,
2013-01-18 22:24:00,38.2,35.2,30.18,NE,44,0.0,0.0,89,0.00,,SKC,0.00,VWS V14.01,2013-01-18 08:24:00,
2013-01-18 22:25:00,38.2,35.0,30.18,NE,44,0.0,0.0,88,0.00,,SKC,0.00,VWS V14.01,2013-01-18 08:25:00,
2013-01-18 22:26:00,38.2,35.0,30.18,NE,44,0.0,0.0,88,0.00,,SKC,0.00,VWS V14.01,2013-01-18 08:26:00,
2013-01-18 22:27:00,38.2,35.0,30.18,NE,44,0.0,1.0,88,0.00,,SKC,0.00,VWS V14.01,2013-01-18 08:27:00,
2013-01-18 22:28:00,38.0,34.8,30.18,NE,44,0.0,0.0,88,0.00,,SKC,0.00,VWS V14.01,2013-01-18 08:28:00,
2013-01-18 22:29:00,38.1,34.9,30.18,NE,44,0.0,0.0,88,0.00,,SKC,0.00,VWS V14.01,2013-01-18 08:29:00,
2013-01-18 22:32:00,38.0,34.8,30.18,NE,44,0.0,0.0,88,0.00,,SKC,0.00,VWS V14.01,2013-01-18 08:32:00,
2013-01-18 22:33:00,37.9,34.7,30.18,NE,44,0.0,0.0,88,0.00,,SKC,0.00,VWS V14.01,2013-01-18 08:33:00,
2013-01-18 22:34:00,37.9,34.7,30.18,NE,44,0.0,0.0,88,0.00,,SKC,0.00,VWS V14.01,2013-01-18 08:34:00,
2013-01-18 22:35:00,37.9,34.7,30.18,NE,44,0.0,0.0,88,0.00,,SKC,0.00,VWS V14.01,2013-01-18 08:35:00,
2013-01-18 22:36:00,37.7,34.2,30.18,NE,44,0.0,0.0,87,0.00,,SKC,0.00,VWS V14.01,2013-01-18 08:36:00,
2013-01-18 22:37:00,37.5,34.0,30.18,NE,44,0.0,0.0,87,0.00,,SKC,0.00,VWS V14.01,2013-01-18 08:37:00,
2013-01-18 22:38:00,37.2,34.0,30.18,NE,44,0.0,0.0,88,0.00,,SKC,0.00,VWS V14.01,2013-01-18 08:38:00,
2013-01-18 22:39:00,37.3,34.1,30.18,NE,44,0.0,0.0,88,0.00,,SKC,0.00,VWS V14.01,2013-01-18 08:39:00,
2013-01-18 22:40:00,37.1,33.9,30.18,NE,44,0.0,0.0,88,0.00,,SKC,0.00,VWS V14.01,2013-01-18 08:40:00,
2013-01-18 22:41:00,36.9,33.4,30.18,NE,44,0.0,0.0,87,0.00,,SKC,0.00,VWS V14.01,2013-01-18 08:41:00,
2013-01-18 22:42:00,36.8,33.6,30.18,NE,44,0.0,0.0,88,0.00,,SKC,0.00,VWS V14.01,2013-01-18 08:42:00,
2013-01-18 22:43:00,36.5,33.3,30.18,NE,44,0.0,0.0,88,0.00,,SKC,0.00,VWS V14.01,2013-01-18 08:43:00,
2013-01-18 22:44:00,36.6,33.4,30.18,NE,44,0.0,0.0,88,0.00,,SKC,0.00,VWS V14.01,2013-01-18 08:44:00,
2013-01-18 22:45:00,36.5,33.3,30.18,NE,44,0.0,0.0,88,0.00,,SKC,0.00,VWS V14.01,2013-01-18 08:45:00,
2013-01-18 22:46:00,36.4,33.5,30.18,NE,44,0.0,0.0,89,0.00,,SKC,0.00,VWS V14.01,2013-01-18 08:46:00,
2013-01-18 22:47:00,36.4,33.5,30.18,NE,44,0.0,0.0,89,0.00,,SKC,0.00,VWS V14.01,2013-01-18 08:47:00,
2013-01-18 22:48:00,36.4,33.5,30.18,NE,44,0.0,0.0,89,0.00,,SKC,0.00,VWS V14.01,2013-01-18 08:48:00,
2013-01-18 22:49:00,36.4,33.5,30.18,NE,44,0.0,0.0,89,0.00,,SKC,0.00,VWS V14.01,2013-01-18 08:49:00,
2013-01-18 22:50:00,36.3,33.4,30.18,NE,44,0.0,0.0,89,0.00,,SKC,0.00,VWS V14.01,2013-01-18 08:50:00,
2013-01-18 22:51:00,36.3,33.4,30.18,NE,44,0.0,0.0,89,0.00,,SKC,0.00,VWS V14.01,2013-01-18 08:51:00,
2013-01-18 22:52:00,36.3,33.7,30.18,NE,44,0.0,0.0,90,0.00,,SKC,0.00,VWS V14.01,2013-01-18 08:52:00,
2013-01-18 22:53:00,36.2,33.6,30.18,NE,44,0.0,0.0,90,0.00,,SKC,0.00,VWS V14.01,2013-01-18 08:53:00,
2013-01-18 22:54:00,36.2,33.6,30.18,NE,44,0.0,0.0,90,0.00,,SKC,0.00,VWS V14.01,2013-01-18 08:54:00,
2013-01-18 22:55:00,36.2,33.6,30.18,NE,44,0.0,0.0,90,0.00,,SKC,0.00,VWS V14.01,2013-01-18 08:55:00,
2013-01-18 22:56:00,36.2,33.6,30.18,NE,44,0.0,0.0,90,0.00,,SKC,0.00,VWS V14.01,2013-01-18 08:56:00,
2013-01-18 22:57:00,36.1,33.5,30.18,NE,44,0.0,0.0,90,0.00,,SKC,0.00,VWS V14.01,2013-01-18 08:57:00,
2013-01-18 22:58:00,36.1,33.5,30.18,NE,44,0.0,0.0,90,0.00,,SKC,0.00,VWS V14.01,2013-01-18 08:58:00,
2013-01-18 22:59:00,36.1,33.5,30.18,NE,44,0.0,0.0,90,0.00,,SKC,0.00,VWS V14.01,2013-01-18 08:59:00,
2013-01-18 23:00:00,36.1,33.5,30.18,NE,44,0.0,0.0,90,0.00,,SKC,0.00,VWS V14.01,2013-01-18 09:00:00,
2013-01-18 23:01:00,36.0,33.4,30.18,NE,44,0.0,0.0,90,0.00,,SKC,0.00,VWS V14.01,2013-01-18 09:01:00,
2013-01-18 23:02:00,36.0,33.4,30.18,NE,44,0.0,0.0,90,0.00,,SKC,0.00,VWS V14.01,2013-01-18 09:02:00,
2013-01-18 23:03:00,35.9,33.3,30.18,NE,44,0.0,0.0,90,0.00,,SKC,0.00,VWS V14.01,2013-01-18 09:03:00,
2013-01-18 23:04:00,35.9,33.3,30.18,NE,44,0.0,0.0,90,0.00,,SKC,0.00,VWS V14.01,2013-01-18 09:04:00,
2013-01-18 23:05:00,35.9,33.3,30.18,NE,44,0.0,0.0,90,0.00,,SKC,0.00,VWS V14.01,2013-01-18 09:05:00,
2013-01-18 23:06:00,35.9,33.3,30.18,NE,44,0.0,0.0,90,0.00,,SKC,0.00,VWS V14.01,2013-01-18 09:06:00,
2013-01-18 23:07:00,35.8,33.2,30.18,NE,44,1.0,1.0,90,0.00,,SKC,0.00,VWS V14.01,2013-01-18 09:07:00,
2013-01-18 23:08:00,35.7,33.1,30.18,NE,44,0.0,0.0,90,0.00,,SKC,0.00,VWS V14.01,2013-01-18 09:08:00,
2013-01-18 23:09:00,35.7,33.1,30.18,NE,44,0.0,0.0,90,0.00,,SKC,0.00,VWS V14.01,2013-01-18 09:09:00,
2013-01-18 23:10:00,35.6,33.0,30.18,NE,44,0.0,0.0,90,0.00,,SKC,0.00,VWS V14.01,2013-01-18 09:10:00,
2013-01-18 23:11:00,35.6,33.0,30.18,NE,44,0.0,0.0,90,0.00,,SKC,0.00,VWS V14.01,2013-01-18 09:11:00,
2013-01-18 23:12:00,35.6,33.2,30.18,NE,44,0.0,0.0,91,0.00,,SKC,0.00,VWS V14.01,2013-01-18 09:12:00,
2013-01-18 23:13:00,35.5,33.1,30.18,NE,44,0.0,0.0,91,0.00,,SKC,0.00,VWS V14.01,2013-01-18 09:13:00,
2013-01-18 23:14:00,35.5,33.1,30.18,NE,44,0.0,0.0,91,0.00,,SKC,0.00,VWS V14.01,2013-01-18 09:14:00,
2013-01-18 23:15:00,35.5,33.1,30.18,NE,44,0.0,0.0,91,0.00,,SKC,0.00,VWS V14.01,2013-01-18 09:15:00,
2013-01-18 23:16:00,35.5,33.1,30.18,NE,44,0.0,0.0,91,0.00,,SKC,0.00,VWS V14.01,2013-01-18 09:16:00,
2013-01-18 23:17:00,35.4,33.0,30.18,NE,44,0.0,0.0,91,0.00,,SKC,0.00,VWS V14.01,2013-01-18 09:17:00,
2013-01-18 23:18:00,35.3,32.9,30.18,NE,44,0.0,0.0,91,0.00,,SKC,0.00,VWS V14.01,2013-01-18 09:18:00,
2013-01-18 23:19:00,35.3,32.9,30.18,NE,44,0.0,0.0,91,0.00,,SKC,0.00,VWS V14.01,2013-01-18 09:19:00,
2013-01-18 23:20:00,35.3,32.9,30.18,NE,44,0.0,0.0,91,0.00,,SKC,0.00,VWS V14.01,2013-01-18 09:20:00,
2013-01-18 23:21:00,35.3,32.9,30.18,NE,44,0.0,0.0,91,0.00,,SKC,0.00,VWS V14.01,2013-01-18 09:21:00,
2013-01-18 23:22:00,35.3,32.9,30.18,NE,44,0.0,0.0,91,0.00,,SKC,0.00,VWS V14.01,2013-01-18 09:22:00,
2013-01-18 23:23:00,35.2,32.8,30.18,NE,44,0.0,1.0,91,0.00,,SKC,0.00,VWS V14.01,2013-01-18 09:23:00,
2013-01-18 23:25:00,35.2,32.8,30.18,NE,44,0.0,1.0,91,0.00,,SKC,0.00,VWS V14.01,2013-01-18 09:25:00,
2013-01-18 23:26:00,35.2,32.8,30.18,NE,44,0.0,0.0,91,0.00,,SKC,0.00,VWS V14.01,2013-01-18 09:26:00,
2013-01-18 23:27:00,35.2,32.8,30.18,NE,44,0.0,0.0,91,0.00,,SKC,0.00,VWS V14.01,2013-01-18 09:27:00,
2013-01-18 23:28:00,35.2,32.8,30.18,NE,44,1.0,2.0,91,0.00,,SKC,0.00,VWS V14.01,2013-01-18 09:28:00,
2013-01-18 23:29:00,35.2,32.8,30.18,NE,44,1.0,2.0,91,0.00,,SKC,0.00,VWS V14.01,2013-01-18 09:29:00,
2013-01-18 23:30:00,35.3,32.9,30.18,NE,44,1.0,2.0,91,0.00,,SKC,0.00,VWS V14.01,2013-01-18 09:30:00,
2013-01-18 23:31:00,35.2,32.8,30.19,NE,44,0.0,1.0,91,0.00,,SKC,0.00,VWS V14.01,2013-01-18 09:31:00,
2013-01-18 23:33:00,35.2,33.1,30.18,NE,44,0.0,0.0,92,0.00,,SKC,0.00,VWS V14.01,2013-01-18 09:33:00,
2013-01-18 23:34:00,35.2,33.1,30.18,NE,44,0.0,1.0,92,0.00,,SKC,0.00,VWS V14.01,2013-01-18 09:34:00,
2013-01-18 23:35:00,35.2,33.1,30.18,NE,44,0.0,0.0,92,0.00,,SKC,0.00,VWS V14.01,2013-01-18 09:35:00,
2013-01-18 23:36:00,35.2,33.1,30.18,NE,44,0.0,0.0,92,0.00,,SKC,0.00,VWS V14.01,2013-01-18 09:36:00,
2013-01-18 23:37:00,35.3,33.2,30.18,NE,44,0.0,0.0,92,0.00,,SKC,0.00,VWS V14.01,2013-01-18 09:37:00,
2013-01-18 23:38:00,35.3,33.2,30.18,NE,44,0.0,0.0,92,0.00,,SKC,0.00,VWS V14.01,2013-01-18 09:38:00,
2013-01-18 23:39:00,35.3,33.2,30.18,NE,44,0.0,0.0,92,0.00,,SKC,0.00,VWS V14.01,2013-01-18 09:39:00,
2013-01-18 23:40:00,35.3,33.2,30.18,NE,44,0.0,0.0,92,0.00,,SKC,0.00,VWS V14.01,2013-01-18 09:40:00,
2013-01-18 23:41:00,35.3,33.2,30.18,NE,44,0.0,0.0,92,0.00,,SKC,0.00,VWS V14.01,2013-01-18 09:41:00,
2013-01-18 23:42:00,35.3,33.2,30.18,NE,44,0.0,0.0,92,0.00,,SKC,0.00,VWS V14.01,2013-01-18 09:42:00,
2013-01-18 23:43:00,35.4,33.3,30.18,NE,44,0.0,0.0,92,0.00,,SKC,0.00,VWS V14.01,2013-01-18 09:43:00,
2013-01-18 23:44:00,35.4,33.3,30.18,NE,44,0.0,0.0,92,0.00,,SKC,0.00,VWS V14.01,2013-01-18 09:44:00,
2013-01-18 23:45:00,35.3,33.2,30.18,NE,44,0.0,0.0,92,0.00,,SKC,0.00,VWS V14.01,2013-01-18 09:45:00,
2013-01-18 23:46:00,35.3,33.2,30.18,NE,44,0.0,0.0,92,0.00,,SKC,0.00,VWS V14.01,2013-01-18 09:46:00,
2013-01-18 23:47:00,35.3,33.2,30.18,NE,44,0.0,0.0,92,0.00,,SKC,0.00,VWS V14.01,2013-01-18 09:47:00,
2013-01-18 23:48:00,35.3,33.2,30.18,NE,44,0.0,0.0,92,0.00,,SKC,0.00,VWS V14.01,2013-01-18 09:48:00,
2013-01-18 23:49:00,35.3,33.2,30.18,NE,44,0.0,0.0,92,0.00,,SKC,0.00,VWS V14.01,2013-01-18 09:49:00,
2013-01-18 23:50:00,35.2,32.8,30.18,NE,44,0.0,0.0,91,0.00,,SKC,0.00,VWS V14.01,2013-01-18 09:50:00,
2013-01-18 23:51:00,35.2,32.8,30.18,NE,44,0.0,0.0,91,0.00,,SKC,0.00,VWS V14.01,2013-01-18 09:51:00,
2013-01-18 23:53:00,35.1,32.7,30.18,NE,44,0.0,0.0,91,0.00,,SKC,0.00,VWS V14.01,2013-01-18 09:53:00,
2013-01-18 23:54:00,35.1,32.7,30.18,NE,44,0.0,0.0,91,0.00,,SKC,0.00,VWS V14.01,2013-01-18 09:54:00,
2013-01-18 23:55:00,35.1,32.7,30.18,NE,44,0.0,0.0,91,0.00,,SKC,0.00,VWS V14.01,2013-01-18 09:55:00,
2013-01-18 23:56:00,35.1,32.7,30.18,NE,44,0.0,0.0,91,0.00,,SKC,0.00,VWS V14.01,2013-01-18 09:56:00,
2013-01-18 23:57:00,35.1,33.0,30.18,NE,44,0.0,0.0,92,0.00,,SKC,0.00,VWS V14.01,2013-01-18 09:57:00,
2013-01-18 23:58:00,35.1,33.0,30.19,NE,44,0.0,0.0,92,0.00,,SKC,0.00,VWS V14.01,2013-01-18 09:58:00,
2013-01-18 23:59:00,35.1,33.0,30.18,NE,44,0.0,0.0,92,0.00,,SKC,0.00,VWS V14.01,2013-01-18 09:59:00,